Darstellungsparameter: Aktuell verwendete Einstellungen:
Skalierung der Graphiken ... ?
xyx+y,   Skalierungsfaktor:      Skalierung: Modus: x, Faktor: 1
Darstellungszeitraum ... ?
Vom - - bis: - -   Zeitraum: 14.05.2010 - 13.11.2010
Min/Max/Avg-Anzeige ... ?
Zeige MMA aktuell
Zeige MMA Monat
Zeige MMA alles
Zeige --A aktuell
Zeige --A Monat
Zeige --A alles
Keine MMA-Anzeige
MMA:
Minimum Maximum Average (ber die Originaldaten)
MMA-Basis: 14.04.2020 - 16.05.2020
Quicknavigation für Darstellung... ?
Tage:      1T, 2T, 3T, 5T -1T -2T -3T -5T +1T +2T +3T +5T
Wochen: 1W, 2W, 3W -1W -2W -3W +1W +2W +3W
Monate: 1M, 3M, 6M -1M -3M -6M +1M +3M +6M
Jahre:    1J, 3J, 5J, 10J -1J -3J -5J -10J +1J +3J +5J +10J
Nutze für die Darstellung ... ?
Originaldaten oder Mittelwerte auf ...
Stundenbasis Tagesbasis Wochenbasis
Monatsbasis Jahresbasis      Datenbasis: Original-Daten
Darstellen als:
Statistik (Auto) Statistik J:M      Darstellung:
Zur Graphik,    zurück zur Übersicht aller Sensoren.
 
Tabellarische Datenbersicht: ?
 
Sensor: Nr:Datum:Temp:Abs-Feuchte:Windchill:Wind:
Aussen-T/F 1 14-05-2010 00:06:03 7 C 7.05 g/m*3 7 C 0 km/h
2 14-05-2010 00:18:03 6.9 C 7.16 g/m*3 6.9 C 0 km/h
3 14-05-2010 00:30:03 6.9 C 7.16 g/m*3 6.9 C 0 km/h
4 14-05-2010 00:42:03 7 C 7.21 g/m*3 7 C 0 km/h
5 14-05-2010 00:54:03 7 C 7.21 g/m*3 7 C 0 km/h
6 14-05-2010 01:06:03 6.9 C 7.24 g/m*3 6.9 C 0 km/h
7 14-05-2010 01:18:03 7 C 7.21 g/m*3 7 C 0 km/h
8 14-05-2010 01:30:03 7.1 C 7.25 g/m*3 7.1 C 0 km/h
9 14-05-2010 01:42:03 7.1 C 7.25 g/m*3 7.1 C 0 km/h
10 14-05-2010 01:54:03 7.1 C 7.25 g/m*3 7.1 C 0 km/h
11 14-05-2010 02:06:03 7.1 C 7.25 g/m*3 7.1 C 0 km/h
12 14-05-2010 02:18:03 7 C 7.21 g/m*3 7 C 0 km/h
13 14-05-2010 02:30:03 6.9 C 7.24 g/m*3 6.9 C 0 km/h
14 14-05-2010 02:42:03 7 C 7.21 g/m*3 7 C 0 km/h
15 14-05-2010 02:54:03 7 C 7.28 g/m*3 7 C 0 km/h
16 14-05-2010 03:06:03 7 C 7.28 g/m*3 7 C 0 km/h
17 14-05-2010 03:18:03 6.9 C 7.24 g/m*3 6.9 C 0 km/h
18 14-05-2010 03:30:04 7 C 7.28 g/m*3 7 C 0 km/h
19 14-05-2010 03:42:04 7 C 7.28 g/m*3 7 C 0 km/h
20 14-05-2010 03:54:04 7 C 7.28 g/m*3 7 C 0 km/h
21 14-05-2010 04:06:04 7 C 7.28 g/m*3 7 C 0 km/h
22 14-05-2010 04:18:04 7 C 7.28 g/m*3 7 C 0 km/h
23 14-05-2010 04:30:04 6.9 C 7.24 g/m*3 6.9 C 0 km/h
24 14-05-2010 04:42:04 6.9 C 7.24 g/m*3 6.9 C 0 km/h
25 14-05-2010 04:54:04 6.9 C 7.24 g/m*3 6.9 C 0 km/h
Sensor: Nr:Datum:Temp:Abs-Feuchte:Windchill:Wind:
Aussen-T/F 26 14-05-2010 05:06:04 6.8 C 7.19 g/m*3 6.8 C 0 km/h
27 14-05-2010 05:18:04 6.9 C 7.24 g/m*3 6.9 C 0 km/h
28 14-05-2010 05:30:04 6.8 C 7.27 g/m*3 6.8 C 0 km/h
29 14-05-2010 05:42:04 6.9 C 7.31 g/m*3 6.9 C 0 km/h
30 14-05-2010 05:54:04 7 C 7.28 g/m*3 7 C 0 km/h
31 14-05-2010 06:06:04 7.1 C 7.33 g/m*3 7.1 C 0 km/h
32 14-05-2010 06:18:04 7.1 C 7.33 g/m*3 7.1 C 0 km/h
33 14-05-2010 06:30:04 7 C 7.28 g/m*3 7 C 0 km/h
34 14-05-2010 06:42:04 7.1 C 7.33 g/m*3 7.1 C 0 km/h
35 14-05-2010 06:54:04 7.2 C 7.38 g/m*3 7.2 C 0 km/h
36 14-05-2010 07:06:02 7.2 C 7.3 g/m*3 7.2 C 0 km/h
37 14-05-2010 07:18:02 7.3 C 7.35 g/m*3 7.3 C 0 km/h
38 14-05-2010 07:30:02 7.5 C 7.44 g/m*3 7.5 C 0 km/h
39 14-05-2010 07:42:02 7.5 C 7.44 g/m*3 7.5 C 0 km/h
40 14-05-2010 07:54:01 7.5 C 7.36 g/m*3 7.5 C 0 km/h
41 14-05-2010 08:06:02 7.7 C 7.38 g/m*3 7.7 C 0 km/h
42 14-05-2010 08:18:01 7.9 C 7.47 g/m*3 7.9 C 0 km/h
43 14-05-2010 08:30:01 8.1 C 7.41 g/m*3 8.1 C 0 km/h
44 14-05-2010 08:42:02 7.9 C 7.31 g/m*3 7.9 C 0 km/h
45 14-05-2010 08:54:02 8 C 7.19 g/m*3 8 C 0 km/h
46 14-05-2010 09:06:02 8 C 7.19 g/m*3 8 C 0 km/h
47 14-05-2010 09:18:01 7.9 C 7.15 g/m*3 7.9 C 0 km/h
48 14-05-2010 09:30:01 8 C 7.03 g/m*3 8 C 0 km/h
49 14-05-2010 09:42:02 8.6 C 7.39 g/m*3 8.6 C 0 km/h
50 14-05-2010 09:54:02 8.4 C 7.13 g/m*3 8.4 C 0 km/h
Sensor: Nr:Datum:Temp:Abs-Feuchte:Windchill:Wind:
Aussen-T/F 51 14-05-2010 10:06:02 8.7 C 7.18 g/m*3 8.7 C 0 km/h
52 14-05-2010 10:18:02 9.4 C 7.33 g/m*3 9.4 C 0 km/h
53 14-05-2010 10:30:02 9.5 C 7.01 g/m*3 9.5 C 0 km/h
54 14-05-2010 10:42:02 10 C 7.24 g/m*3 10 C 0 km/h
55 14-05-2010 10:54:01 10.3 C 7.18 g/m*3 10.3 C 0 km/h
56 14-05-2010 11:06:02 11 C 7.31 g/m*3 11 C 0 km/h
57 14-05-2010 11:18:02 10.5 C 6.6 g/m*3 10.5 C 0 km/h
58 14-05-2010 11:30:02 10.1 C 6.34 g/m*3 10.1 C 0 km/h
59 14-05-2010 11:42:02 10.4 C 6.75 g/m*3 10.4 C 0 km/h
60 14-05-2010 11:54:02 9.9 C 6.82 g/m*3 9.9 C 0 km/h
61 14-05-2010 12:06:01 9.1 C 6.39 g/m*3 9.1 C 0 km/h
62 14-05-2010 12:18:02 9 C 6.44 g/m*3 9 C 0 km/h
63 14-05-2010 12:30:02 9.3 C 7.1 g/m*3 9.3 C 0 km/h
64 14-05-2010 12:42:01 9.3 C 7.28 g/m*3 9.3 C 0 km/h
65 14-05-2010 12:54:02 9.1 C 7.28 g/m*3 9.1 C 0 km/h
66 14-05-2010 13:06:01 9.3 C 7.46 g/m*3 9.3 C 0 km/h
67 14-05-2010 13:18:01 9.5 C 7.65 g/m*3 9.5 C 0 km/h
68 14-05-2010 13:30:01 9.6 C 7.69 g/m*3 9.6 C 0 km/h
69 14-05-2010 13:42:02 9.7 C 7.74 g/m*3 9.7 C 0 km/h
70 14-05-2010 13:54:02 9.2 C 7.41 g/m*3 9.2 C 0 km/h
71 14-05-2010 14:06:01 9 C 7.41 g/m*3 9 C 0 km/h
72 14-05-2010 14:18:02 9.2 C 7.59 g/m*3 9.2 C 0 km/h
73 14-05-2010 14:30:02 9.5 C 7.74 g/m*3 9.5 C 0 km/h
74 14-05-2010 14:42:02 9.7 C 7.84 g/m*3 9.7 C 0 km/h
75 14-05-2010 14:54:02 10.5 C 8.15 g/m*3 10.5 C 0 km/h
Sensor: Nr:Datum:Temp:Abs-Feuchte:Windchill:Wind:
Aussen-T/F 76 14-05-2010 15:06:02 11.2 C 8.21 g/m*3 11.2 C 0 km/h
77 14-05-2010 15:18:01 11.7 C 7.95 g/m*3 11.7 C 0 km/h
78 14-05-2010 15:30:01 12 C 7.67 g/m*3 12 C 0 km/h
79 14-05-2010 15:42:02 12.2 C 7.23 g/m*3 12.2 C 0 km/h
80 14-05-2010 15:54:02 12.2 C 6.91 g/m*3 12.2 C 0 km/h
81 14-05-2010 16:06:02 12.6 C 6.97 g/m*3 12.6 C 0 km/h
82 14-05-2010 16:18:01 12.8 C 7.06 g/m*3 12.8 C 0 km/h
83 14-05-2010 16:30:01 13.3 C 6.93 g/m*3 13.3 C 0 km/h
84 14-05-2010 16:42:02 13.4 C 6.63 g/m*3 13.4 C 0 km/h
85 14-05-2010 16:54:02 12.8 C 6.27 g/m*3 12.8 C 0 km/h
86 14-05-2010 17:06:02 12.2 C 6.37 g/m*3 12.2 C 0 km/h
87 14-05-2010 17:18:02 11.9 C 6.25 g/m*3 11.9 C 0 km/h
88 14-05-2010 17:30:02 11.4 C 6.77 g/m*3 11.4 C 0 km/h
89 14-05-2010 17:42:02 11 C 6.81 g/m*3 11 C 0 km/h
90 14-05-2010 17:54:02 11.2 C 6.79 g/m*3 11.2 C 0 km/h
91 14-05-2010 18:06:02 11.5 C 6.71 g/m*3 11.5 C 0 km/h
92 14-05-2010 18:18:03 11.8 C 6.74 g/m*3 11.8 C 0 km/h
93 14-05-2010 18:30:03 12 C 6.82 g/m*3 12 C 0 km/h
94 14-05-2010 18:42:02 11.5 C 6.71 g/m*3 11.5 C 0 km/h
95 14-05-2010 18:54:02 11 C 6.81 g/m*3 11 C 0 km/h
96 14-05-2010 19:06:02 10.5 C 6.89 g/m*3 10.5 C 0 km/h
97 14-05-2010 19:18:03 10.3 C 6.99 g/m*3 10.3 C 0 km/h
98 14-05-2010 19:30:03 10.4 C 7.13 g/m*3 10.4 C 0 km/h
99 14-05-2010 19:42:02 10.5 C 6.98 g/m*3 10.5 C 0 km/h
100 14-05-2010 19:54:02 10.6 C 7.03 g/m*3 10.6 C 0 km/h
Sensor: Nr:Datum:Temp:Abs-Feuchte:Windchill:Wind:
Aussen-T/F 101 14-05-2010 20:06:02 10.5 C 7.08 g/m*3 10.5 C 0 km/h
102 14-05-2010 20:18:02 10.2 C 6.95 g/m*3 10.2 C 0 km/h
103 14-05-2010 20:30:02 9.9 C 6.91 g/m*3 9.9 C 0 km/h
104 14-05-2010 20:42:02 9.6 C 6.78 g/m*3 9.6 C 0 km/h
105 14-05-2010 20:54:02 9.5 C 6.92 g/m*3 9.5 C 0 km/h
106 14-05-2010 21:06:02 9.3 C 6.83 g/m*3 9.3 C 0 km/h
107 14-05-2010 21:18:02 9.2 C 6.88 g/m*3 9.2 C 0 km/h
108 14-05-2010 21:30:02 9.1 C 6.83 g/m*3 9.1 C 0 km/h
109 14-05-2010 21:42:02 9.1 C 6.92 g/m*3 9.1 C 0 km/h
110 14-05-2010 21:54:02 9 C 6.88 g/m*3 9 C 0 km/h
111 14-05-2010 22:06:02 9.1 C 7.01 g/m*3 9.1 C 0 km/h
112 14-05-2010 22:18:02 9.1 C 7.01 g/m*3 9.1 C 0 km/h
113 14-05-2010 22:30:02 9.1 C 7.1 g/m*3 9.1 C 0 km/h
114 14-05-2010 22:42:02 9.1 C 7.1 g/m*3 9.1 C 0 km/h
115 14-05-2010 22:55:03 9 C 7.14 g/m*3 9 C 0 km/h
116 14-05-2010 23:07:03 8.6 C 7.13 g/m*3 8.6 C 0 km/h
117 14-05-2010 23:19:03 8.2 C 7.12 g/m*3 8.2 C 0 km/h
118 14-05-2010 23:31:03 8.2 C 7.2 g/m*3 8.2 C 0 km/h
119 14-05-2010 23:43:03 8.1 C 7.16 g/m*3 8.1 C 0 km/h
120 14-05-2010 23:55:03 8.1 C 7.24 g/m*3 8.1 C 0 km/h
121 15-05-2010 00:07:03 8 C 7.19 g/m*3 8 C 0 km/h
122 15-05-2010 00:19:03 8 C 7.19 g/m*3 8 C 0 km/h
123 15-05-2010 00:31:04 7.9 C 7.23 g/m*3 7.9 C 0 km/h
124 15-05-2010 00:43:04 7.8 C 7.18 g/m*3 7.8 C 0 km/h
125 15-05-2010 00:55:04 7.8 C 7.18 g/m*3 7.8 C 0 km/h
Sensor: Nr:Datum:Temp:Abs-Feuchte:Windchill:Wind:
Aussen-T/F 126 15-05-2010 01:07:04 7.9 C 7.23 g/m*3 7.9 C 0 km/h
127 15-05-2010 01:19:04 7.8 C 7.18 g/m*3 7.8 C 0 km/h
128 15-05-2010 01:31:04 7.6 C 7.09 g/m*3 7.6 C 0 km/h
129 15-05-2010 01:43:04 7.6 C 7.09 g/m*3 7.6 C 0 km/h
130 15-05-2010 01:55:04 7.6 C 7.09 g/m*3 7.6 C 0 km/h
131 15-05-2010 02:07:04 7.5 C 7.04 g/m*3 7.5 C 0 km/h
132 15-05-2010 02:19:04 7.5 C 7.12 g/m*3 7.5 C 0 km/h
133 15-05-2010 02:31:04 7.6 C 7.17 g/m*3 7.6 C 0 km/h
134 15-05-2010 02:43:04 7.8 C 7.26 g/m*3 7.8 C 0 km/h
135 15-05-2010 02:55:04 7.8 C 7.26 g/m*3 7.8 C 0 km/h
136 15-05-2010 03:07:04 7.6 C 7.17 g/m*3 7.6 C 0 km/h
137 15-05-2010 03:19:04 7.6 C 7.17 g/m*3 7.6 C 0 km/h
138 15-05-2010 03:31:04 7.6 C 7.25 g/m*3 7.6 C 0 km/h
139 15-05-2010 03:43:04 7.6 C 7.25 g/m*3 7.6 C 0 km/h
140 15-05-2010 03:55:04 7.6 C 7.25 g/m*3 7.6 C 0 km/h
141 15-05-2010 04:07:04 7.6 C 7.25 g/m*3 7.6 C 0 km/h
142 15-05-2010 04:19:04 7.7 C 7.3 g/m*3 7.7 C 0 km/h
143 15-05-2010 04:31:04 7.6 C 7.25 g/m*3 7.6 C 0 km/h
144 15-05-2010 04:43:05 7.6 C 7.25 g/m*3 7.6 C 0 km/h
145 15-05-2010 04:55:05 7.5 C 7.2 g/m*3 7.5 C 0 km/h
146 15-05-2010 05:07:05 7.4 C 7.24 g/m*3 7.4 C 0 km/h
147 15-05-2010 05:19:05 7.3 C 7.19 g/m*3 7.3 C 0 km/h
148 15-05-2010 05:31:05 7.3 C 7.19 g/m*3 7.3 C 0 km/h
149 15-05-2010 05:43:05 7.2 C 7.14 g/m*3 7.2 C 0 km/h
150 15-05-2010 05:55:05 7.1 C 7.1 g/m*3 7.1 C 0 km/h
Sensor: Nr:Datum:Temp:Abs-Feuchte:Windchill:Wind:
Aussen-T/F 151 15-05-2010 06:07:05 7.1 C 7.1 g/m*3 7.1 C 0 km/h
152 15-05-2010 06:19:05 7.1 C 7.1 g/m*3 7.1 C 0 km/h
153 15-05-2010 06:31:05 7.1 C 7.18 g/m*3 7.1 C 0 km/h
154 15-05-2010 06:43:05 7.1 C 7.18 g/m*3 7.1 C 0 km/h
155 15-05-2010 06:55:05 7.1 C 7.18 g/m*3 7.1 C 0 km/h
156 15-05-2010 07:07:05 7.1 C 7.18 g/m*3 7.1 C 0 km/h
157 15-05-2010 07:19:05 7.4 C 7.32 g/m*3 7.4 C 0 km/h
158 15-05-2010 07:31:05 7.5 C 7.36 g/m*3 7.5 C 0 km/h
159 15-05-2010 07:43:05 7.8 C 7.51 g/m*3 7.8 C 0 km/h
160 15-05-2010 07:55:02 8.2 C 7.62 g/m*3 8.2 C 0 km/h
161 15-05-2010 08:07:02 8.3 C 7.59 g/m*3 8.3 C 0 km/h
162 15-05-2010 08:19:02 8.2 C 7.29 g/m*3 8.2 C 0 km/h
163 15-05-2010 08:31:03 8.6 C 7.39 g/m*3 8.6 C 0 km/h
164 15-05-2010 08:43:03 8.5 C 7 g/m*3 8.5 C 0 km/h
165 15-05-2010 08:55:02 8.8 C 7.05 g/m*3 8.8 C 0 km/h
166 15-05-2010 09:07:02 9 C 6.88 g/m*3 9 C 0 km/h
167 15-05-2010 09:19:02 9.3 C 6.92 g/m*3 9.3 C 0 km/h
168 15-05-2010 09:31:02 9.5 C 6.83 g/m*3 9.5 C 0 km/h
169 15-05-2010 09:43:02 9.6 C 6.78 g/m*3 9.6 C 0 km/h
170 15-05-2010 09:55:01 10 C 6.67 g/m*3 10 C 0 km/h
171 15-05-2010 10:07:02 10.5 C 6.6 g/m*3 10.5 C 0 km/h
172 15-05-2010 10:19:01 10.7 C 6.48 g/m*3 10.7 C 0 km/h
173 15-05-2010 10:31:02 10.6 C 6.34 g/m*3 10.6 C 0 km/h
174 15-05-2010 10:43:02 11.1 C 6.35 g/m*3 11.1 C 0 km/h
175 15-05-2010 10:55:02 11.1 C 6.35 g/m*3 11.1 C 0 km/h
Sensor: Nr:Datum:Temp:Abs-Feuchte:Windchill:Wind:
Aussen-T/F 176 15-05-2010 11:07:02 10.9 C 6.27 g/m*3 10.9 C 0 km/h
177 15-05-2010 11:19:01 10.8 C 6.23 g/m*3 10.8 C 0 km/h
178 15-05-2010 11:31:02 10.9 C 6.17 g/m*3 10.9 C 0 km/h
179 15-05-2010 11:43:02 11.5 C 5.89 g/m*3 11.5 C 0 km/h
180 15-05-2010 11:55:02 11.9 C 6.04 g/m*3 11.9 C 0 km/h
181 15-05-2010 12:07:02 11.2 C 5.68 g/m*3 11.2 C 0 km/h
182 15-05-2010 12:19:02 11.1 C 5.64 g/m*3 11.1 C 0 km/h
183 15-05-2010 12:31:02 11.2 C 5.57 g/m*3 11.2 C 0 km/h
184 15-05-2010 12:43:02 12.4 C 5.46 g/m*3 12.4 C 0 km/h
185 15-05-2010 12:55:02 12.3 C 4.78 g/m*3 12.3 C 0 km/h
186 15-05-2010 13:07:02 13.9 C 5.04 g/m*3 13.9 C 0 km/h
187 15-05-2010 13:19:03 12 C 4.58 g/m*3 12 C 0 km/h
188 15-05-2010 13:31:02 11.1 C 5.14 g/m*3 11.1 C 0 km/h
189 15-05-2010 13:43:02 11.2 C 4.87 g/m*3 11.2 C 0 km/h
190 15-05-2010 13:55:02 12.1 C 4.5 g/m*3 12.1 C 0 km/h
191 15-05-2010 14:07:02 13.7 C 4.5 g/m*3 13.7 C 0 km/h
192 15-05-2010 14:19:02 15 C 4.62 g/m*3 15 C 0 km/h
193 15-05-2010 14:31:02 14.7 C 4.15 g/m*3 14.7 C 0 km/h
194 15-05-2010 14:43:02 14 C 3.98 g/m*3 14 C 0 km/h
195 15-05-2010 14:55:01 13.9 C 3.72 g/m*3 13.9 C 0 km/h
196 15-05-2010 15:07:01 14.3 C 3.56 g/m*3 14.3 C 0 km/h
197 15-05-2010 15:19:01 15.2 C 3.24 g/m*3 15.2 C 0 km/h
198 15-05-2010 15:31:01 15.8 C 2.69 g/m*3 15.8 C 0 km/h
199 15-05-2010 15:43:01 16 C 2.72 g/m*3 16 C 0 km/h
200 15-05-2010 15:55:01 16.2 C 2.76 g/m*3 16.2 C 0 km/h
Sensor: Nr:Datum:Temp:Abs-Feuchte:Windchill:Wind:
Aussen-T/F 201 15-05-2010 16:07:02 16.2 C 2.76 g/m*3 16.2 C 0 km/h
202 15-05-2010 16:19:01 15.1 C 2.58 g/m*3 15.1 C 0 km/h
203 15-05-2010 16:31:01 14.4 C 2.47 g/m*3 14.4 C 0 km/h
204 15-05-2010 16:43:01 14.4 C 2.97 g/m*3 14.4 C 0 km/h
205 15-05-2010 16:55:01 13.8 C 2.98 g/m*3 13.8 C 0 km/h
206 15-05-2010 17:07:02 13.9 C 3.12 g/m*3 13.9 C 0 km/h
207 15-05-2010 17:19:01 14 C 3.02 g/m*3 14 C 0 km/h
208 15-05-2010 17:31:02 14.1 C 3.16 g/m*3 14.1 C 0 km/h
209 15-05-2010 17:43:02 14 C 3.26 g/m*3 14 C 0 km/h
210 15-05-2010 17:55:02 14 C 3.26 g/m*3 14 C 0 km/h
211 15-05-2010 18:07:02 13.7 C 3.43 g/m*3 13.7 C 0 km/h
212 15-05-2010 18:19:01 14 C 3.62 g/m*3 14 C 0 km/h
213 15-05-2010 18:31:02 13.8 C 3.46 g/m*3 13.8 C 0 km/h
214 15-05-2010 18:43:02 13.7 C 3.43 g/m*3 13.7 C 0 km/h
215 15-05-2010 18:55:02 13.9 C 3.36 g/m*3 13.9 C 0 km/h
216 15-05-2010 19:07:02 13.9 C 3.24 g/m*3 13.9 C 0 km/h
217 15-05-2010 19:19:02 14.6 C 3.5 g/m*3 14.6 C 0 km/h
218 15-05-2010 19:31:02 15.1 C 3.23 g/m*3 15.1 C 0 km/h
219 15-05-2010 19:43:02 14.9 C 3.44 g/m*3 14.9 C 0 km/h
220 15-05-2010 19:55:02 14.4 C 3.58 g/m*3 14.4 C 0 km/h
221 15-05-2010 20:07:02 13.9 C 4.2 g/m*3 13.9 C 0 km/h
222 15-05-2010 20:19:02 13.3 C 4.62 g/m*3 13.3 C 0 km/h
223 15-05-2010 20:31:02 12.4 C 4.48 g/m*3 12.4 C 0 km/h
224 15-05-2010 20:43:02 11.6 C 4.47 g/m*3 11.6 C 0 km/h
225 15-05-2010 20:55:02 11.3 C 4.59 g/m*3 11.3 C 0 km/h
Sensor: Nr:Datum:Temp:Abs-Feuchte:Windchill:Wind:
Aussen-T/F 226 15-05-2010 21:07:02 11.4 C 4.62 g/m*3 11.4 C 0 km/h
227 15-05-2010 21:19:02 11.1 C 4.53 g/m*3 11.1 C 0 km/h
228 15-05-2010 21:31:02 10.8 C 4.55 g/m*3 10.8 C 0 km/h
229 15-05-2010 21:43:02 10.8 C 4.84 g/m*3 10.8 C 0 km/h
230 15-05-2010 21:55:01 10.8 C 4.84 g/m*3 10.8 C 0 km/h
231 15-05-2010 22:07:02 10.8 C 4.94 g/m*3 10.8 C 0 km/h
232 15-05-2010 22:19:02 11 C 5 g/m*3 11 C 0 km/h
233 15-05-2010 22:32:02 11.1 C 4.83 g/m*3 11.1 C 0 km/h
234 15-05-2010 22:44:03 11.2 C 4.66 g/m*3 11.2 C 0 km/h
235 15-05-2010 22:56:03 11.2 C 4.66 g/m*3 11.2 C 0 km/h
236 15-05-2010 23:08:03 11.1 C 4.73 g/m*3 11.1 C 0 km/h
237 15-05-2010 23:20:03 10.9 C 4.97 g/m*3 10.9 C 0 km/h
238 15-05-2010 23:32:03 10.9 C 5.07 g/m*3 10.9 C 0 km/h
239 15-05-2010 23:44:03 10.8 C 5.04 g/m*3 10.8 C 0 km/h
240 15-05-2010 23:56:03 10.5 C 5.04 g/m*3 10.5 C 0 km/h
241 16-05-2010 00:08:03 10.2 C 5.04 g/m*3 10.2 C 0 km/h
242 16-05-2010 00:20:03 10.1 C 5.3 g/m*3 10.1 C 0 km/h
243 16-05-2010 00:32:03 10.1 C 5.39 g/m*3 10.1 C 0 km/h
244 16-05-2010 00:44:03 10 C 5.45 g/m*3 10 C 0 km/h
245 16-05-2010 00:56:03 10.1 C 5.48 g/m*3 10.1 C 0 km/h
246 16-05-2010 01:08:03 10 C 5.54 g/m*3 10 C 0 km/h
247 16-05-2010 01:20:03 9.7 C 5.62 g/m*3 9.7 C 0 km/h
248 16-05-2010 01:32:03 9.3 C 5.66 g/m*3 9.3 C 0 km/h
249 16-05-2010 01:44:03 9 C 5.64 g/m*3 9 C 0 km/h
250 16-05-2010 01:56:03 8.7 C 5.88 g/m*3 8.7 C 0 km/h
Sensor: Nr:Datum:Temp:Abs-Feuchte:Windchill:Wind:
Aussen-T/F 251 16-05-2010 02:08:03 8.4 C 5.85 g/m*3 8.4 C 0 km/h
252 16-05-2010 02:20:03 8.2 C 5.86 g/m*3 8.2 C 0 km/h
253 16-05-2010 02:32:03 8 C 5.87 g/m*3 8 C 0 km/h
254 16-05-2010 02:44:04 7.8 C 5.96 g/m*3 7.8 C 0 km/h
255 16-05-2010 02:56:04 7.8 C 5.88 g/m*3 7.8 C 0 km/h
256 16-05-2010 03:08:04 7.6 C 5.88 g/m*3 7.6 C 0 km/h
257 16-05-2010 03:20:04 7.4 C 5.88 g/m*3 7.4 C 0 km/h
258 16-05-2010 03:32:04 7.4 C 5.88 g/m*3 7.4 C 0 km/h
259 16-05-2010 03:44:04 7.5 C 5.92 g/m*3 7.5 C 0 km/h
260 16-05-2010 03:56:04 7.5 C 5.92 g/m*3 7.5 C 0 km/h
261 16-05-2010 04:08:04 7.6 C 5.96 g/m*3 7.6 C 0 km/h
262 16-05-2010 04:20:04 7.6 C 5.88 g/m*3 7.6 C 0 km/h
263 16-05-2010 04:32:04 7.6 C 5.96 g/m*3 7.6 C 0 km/h
264 16-05-2010 04:44:04 7.6 C 5.96 g/m*3 7.6 C 0 km/h
265 16-05-2010 04:56:04 7.6 C 5.96 g/m*3 7.6 C 0 km/h
266 16-05-2010 05:08:04 7.6 C 5.96 g/m*3 7.6 C 0 km/h
267 16-05-2010 05:20:04 7.5 C 5.92 g/m*3 7.5 C 0 km/h
268 16-05-2010 05:32:04 7.2 C 5.89 g/m*3 7.2 C 0 km/h
269 16-05-2010 05:44:04 7 C 5.89 g/m*3 7 C 0 km/h
270 16-05-2010 05:56:04 7.2 C 5.97 g/m*3 7.2 C 0 km/h
271 16-05-2010 06:08:04 7.4 C 6.04 g/m*3 7.4 C 0 km/h
272 16-05-2010 06:20:04 7.4 C 5.96 g/m*3 7.4 C 0 km/h
273 16-05-2010 06:32:04 7.4 C 5.96 g/m*3 7.4 C 0 km/h
274 16-05-2010 06:44:04 7.4 C 5.96 g/m*3 7.4 C 0 km/h
275 16-05-2010 06:56:05 7.5 C 6 g/m*3 7.5 C 0 km/h
Sensor: Nr:Datum:Temp:Abs-Feuchte:Windchill:Wind:
Aussen-T/F 276 16-05-2010 07:08:05 7.7 C 6.08 g/m*3 7.7 C 0 km/h
277 16-05-2010 07:20:05 7.8 C 6.04 g/m*3 7.8 C 0 km/h
278 16-05-2010 07:32:05 7.9 C 6.08 g/m*3 7.9 C 0 km/h
279 16-05-2010 07:44:05 7.9 C 6.08 g/m*3 7.9 C 0 km/h
280 16-05-2010 07:56:05 7.9 C 6.08 g/m*3 7.9 C 0 km/h
281 16-05-2010 08:08:05 8 C 6.04 g/m*3 8 C 0 km/h
282 16-05-2010 08:20:05 8.2 C 6.2 g/m*3 8.2 C 0 km/h
283 16-05-2010 08:32:05 8.7 C 6.14 g/m*3 8.7 C 0 km/h
284 16-05-2010 08:44:05 9.1 C 6.03 g/m*3 9.1 C 0 km/h
285 16-05-2010 08:56:05 9.6 C 6.05 g/m*3 9.6 C 0 km/h
286 16-05-2010 09:08:02 10.2 C 5.8 g/m*3 10.2 C 0 km/h
287 16-05-2010 09:20:01 10.6 C 4.98 g/m*3 10.6 C 0 km/h
288 16-05-2010 09:32:02 11 C 4.7 g/m*3 11 C 0 km/h
289 16-05-2010 09:44:02 11.3 C 4.39 g/m*3 11.3 C 0 km/h
290 16-05-2010 09:56:02 11.7 C 4.39 g/m*3 11.7 C 0 km/h
291 16-05-2010 10:08:02 11.9 C 4.24 g/m*3 11.9 C 0 km/h
292 16-05-2010 10:20:01 12.2 C 4.1 g/m*3 12.2 C 0 km/h
293 16-05-2010 10:32:02 12.4 C 4.15 g/m*3 12.4 C 0 km/h
294 16-05-2010 10:44:02 13 C 4.31 g/m*3 13 C 0 km/h
295 16-05-2010 10:56:01 13.3 C 4.16 g/m*3 13.3 C 0 km/h
296 16-05-2010 11:08:02 13.7 C 4.03 g/m*3 13.7 C 0 km/h
297 16-05-2010 11:20:02 14.3 C 4.05 g/m*3 14.3 C 0 km/h
298 16-05-2010 11:32:02 15.4 C 4.07 g/m*3 15.4 C 0 km/h
299 16-05-2010 11:44:02 15.4 C 3.94 g/m*3 15.4 C 0 km/h
300 16-05-2010 11:56:01 15.4 C 3.81 g/m*3 15.4 C 0 km/h
Sensor: Nr:Datum:Temp:Abs-Feuchte:Windchill:Wind:
Aussen-T/F 301 16-05-2010 12:08:02 15.9 C 3.52 g/m*3 15.9 C 0 km/h
302 16-05-2010 12:20:02 16.1 C 3.84 g/m*3 16.1 C 0 km/h
303 16-05-2010 12:32:02 17.9 C 3.82 g/m*3 17.9 C 0 km/h
304 16-05-2010 12:44:02 17.2 C 3.37 g/m*3 17.2 C 0 km/h
305 16-05-2010 12:56:01 16.1 C 3.43 g/m*3 16.1 C 0 km/h
306 16-05-2010 13:08:02 18.3 C 3.6 g/m*3 18.3 C 0 km/h
307 16-05-2010 13:20:02 17.3 C 3.39 g/m*3 17.3 C 0 km/h
308 16-05-2010 13:32:01 17.4 C 3.41 g/m*3 17.4 C 0 km/h
309 16-05-2010 13:44:01 18 C 3.69 g/m*3 18 C 0 km/h
310 16-05-2010 13:56:02 17.3 C 3.54 g/m*3 17.3 C 0 km/h
311 16-05-2010 14:08:01 16.7 C 3.55 g/m*3 16.7 C 0 km/h
312 16-05-2010 14:20:02 18.4 C 3.93 g/m*3 18.4 C 0 km/h
313 16-05-2010 14:32:02 18.4 C 3.3 g/m*3 18.4 C 0 km/h
314 16-05-2010 14:44:02 17.9 C 3.51 g/m*3 17.9 C 0 km/h
315 16-05-2010 14:56:02 18.2 C 3.42 g/m*3 18.2 C 0 km/h
316 16-05-2010 15:08:02 19 C 3.26 g/m*3 19 C 0 km/h
317 16-05-2010 15:20:02 19.3 C 3.32 g/m*3 19.3 C 0 km/h
318 16-05-2010 15:32:02 19.8 C 3.42 g/m*3 19.8 C 0 km/h
319 16-05-2010 15:44:02 19.1 C 3.28 g/m*3 19.1 C 0 km/h
320 16-05-2010 15:56:02 20.3 C 3.52 g/m*3 20.3 C 0 km/h
321 16-05-2010 16:08:02 21 C 3.66 g/m*3 21 C 0 km/h
322 16-05-2010 16:20:01 20.1 C 3.48 g/m*3 20.1 C 0 km/h
323 16-05-2010 16:32:02 20.4 C 3.54 g/m*3 20.4 C 0 km/h
324 16-05-2010 16:44:02 20 C 3.46 g/m*3 20 C 0 km/h
325 16-05-2010 16:56:02 21.2 C 3.71 g/m*3 21.2 C 0 km/h
Sensor: Nr:Datum:Temp:Abs-Feuchte:Windchill:Wind:
Aussen-T/F 326 16-05-2010 17:08:02 21.7 C 3.82 g/m*3 21.7 C 0 km/h
327 16-05-2010 17:20:02 21.1 C 3.69 g/m*3 21.1 C 0 km/h
328 16-05-2010 17:32:02 21.5 C 3.77 g/m*3 21.5 C 0 km/h
329 16-05-2010 17:44:02 21.4 C 3.75 g/m*3 21.4 C 0 km/h
330 16-05-2010 17:56:02 20.8 C 3.62 g/m*3 20.8 C 0 km/h
331 16-05-2010 18:08:02 20.8 C 3.62 g/m*3 20.8 C 0 km/h
332 16-05-2010 18:20:02 20 C 3.46 g/m*3 20 C 0 km/h
333 16-05-2010 18:32:02 19.5 C 3.52 g/m*3 19.5 C 0 km/h
334 16-05-2010 18:44:02 18.9 C 3.56 g/m*3 18.9 C 0 km/h
335 16-05-2010 18:56:02 19.9 C 3.44 g/m*3 19.9 C 0 km/h
336 16-05-2010 19:08:02 19.7 C 3.57 g/m*3 19.7 C 0 km/h
337 16-05-2010 19:20:03 19.5 C 3.52 g/m*3 19.5 C 0 km/h
338 16-05-2010 19:32:02 18.6 C 3.5 g/m*3 18.6 C 0 km/h
339 16-05-2010 19:44:02 18.2 C 3.89 g/m*3 18.2 C 0 km/h
340 16-05-2010 19:56:02 18.3 C 3.91 g/m*3 18.3 C 0 km/h
341 16-05-2010 20:08:02 19.3 C 4.15 g/m*3 19.3 C 0 km/h
342 16-05-2010 20:20:02 19.3 C 4.48 g/m*3 19.3 C 0 km/h
343 16-05-2010 20:32:02 18.2 C 4.51 g/m*3 18.2 C 0 km/h
344 16-05-2010 20:44:02 17 C 4.63 g/m*3 17 C 0 km/h
345 16-05-2010 20:56:02 16 C 4.5 g/m*3 16 C 0 km/h
346 16-05-2010 21:08:02 15.1 C 4.52 g/m*3 15.1 C 0 km/h
347 16-05-2010 21:20:02 14.6 C 4.63 g/m*3 14.6 C 0 km/h
348 16-05-2010 21:32:02 14.2 C 4.76 g/m*3 14.2 C 0 km/h
349 16-05-2010 21:44:02 13.9 C 4.92 g/m*3 13.9 C 0 km/h
350 16-05-2010 21:56:02 13.6 C 5.18 g/m*3 13.6 C 0 km/h
Sensor: Nr:Datum:Temp:Abs-Feuchte:Windchill:Wind:
Aussen-T/F 351 16-05-2010 22:08:02 13.2 C 5.05 g/m*3 13.2 C 0 km/h
352 16-05-2010 22:20:03 12.6 C 5.31 g/m*3 12.6 C 0 km/h
353 16-05-2010 22:33:03 12.3 C 5.32 g/m*3 12.3 C 0 km/h
354 16-05-2010 22:45:03 11.9 C 5.4 g/m*3 11.9 C 0 km/h
355 16-05-2010 22:57:03 11.8 C 5.58 g/m*3 11.8 C 0 km/h
356 16-05-2010 23:09:03 11.4 C 5.65 g/m*3 11.4 C 0 km/h
357 16-05-2010 23:21:03 11 C 5.71 g/m*3 11 C 0 km/h
358 16-05-2010 23:33:03 10.7 C 5.8 g/m*3 10.7 C 0 km/h
359 16-05-2010 23:45:03 10.7 C 5.89 g/m*3 10.7 C 0 km/h
360 16-05-2010 23:57:03 10.5 C 6.01 g/m*3 10.5 C 0 km/h
361 17-05-2010 00:09:03 10.3 C 6.03 g/m*3 10.3 C 0 km/h
362 17-05-2010 00:21:03 10.4 C 5.98 g/m*3 10.4 C 0 km/h
363 17-05-2010 00:33:03 10 C 5.92 g/m*3 10 C 0 km/h
364 17-05-2010 00:45:03 10 C 5.92 g/m*3 10 C 0 km/h
365 17-05-2010 00:57:03 9.9 C 5.98 g/m*3 9.9 C 0 km/h
366 17-05-2010 01:09:03 9.8 C 5.85 g/m*3 9.8 C 0 km/h
367 17-05-2010 01:21:04 9.7 C 5.99 g/m*3 9.7 C 0 km/h
368 17-05-2010 01:33:04 9.3 C 6.02 g/m*3 9.3 C 0 km/h
369 17-05-2010 01:45:04 9 C 5.99 g/m*3 9 C 0 km/h
370 17-05-2010 01:57:04 9 C 6.08 g/m*3 9 C 0 km/h
371 17-05-2010 02:09:04 8.7 C 6.14 g/m*3 8.7 C 0 km/h
372 17-05-2010 02:21:04 8.6 C 6.1 g/m*3 8.6 C 0 km/h
373 17-05-2010 02:33:04 8.6 C 6.19 g/m*3 8.6 C 0 km/h
374 17-05-2010 02:45:04 8.5 C 6.15 g/m*3 8.5 C 0 km/h
375 17-05-2010 02:57:04 8.4 C 6.11 g/m*3 8.4 C 0 km/h
Sensor: Nr:Datum:Temp:Abs-Feuchte:Windchill:Wind:
Aussen-T/F 376 17-05-2010 03:09:04 8.1 C 6.07 g/m*3 8.1 C 0 km/h
377 17-05-2010 03:21:04 7.8 C 6.12 g/m*3 7.8 C 0 km/h
378 17-05-2010 03:33:04 7.6 C 6.12 g/m*3 7.6 C 0 km/h
379 17-05-2010 03:45:04 7.4 C 6.12 g/m*3 7.4 C 0 km/h
380 17-05-2010 03:57:04 7.3 C 6.16 g/m*3 7.3 C 0 km/h
381 17-05-2010 04:09:04 7.2 C 6.12 g/m*3 7.2 C 0 km/h
382 17-05-2010 04:21:04 7.1 C 6.08 g/m*3 7.1 C 0 km/h
383 17-05-2010 04:33:04 7 C 6.04 g/m*3 7 C 0 km/h
384 17-05-2010 04:45:04 6.8 C 6.12 g/m*3 6.8 C 0 km/h
385 17-05-2010 04:57:04 6.7 C 6.15 g/m*3 6.7 C 0 km/h
386 17-05-2010 05:09:04 6.5 C 6.15 g/m*3 6.5 C 0 km/h
387 17-05-2010 05:21:04 6.3 C 6.07 g/m*3 6.3 C 0 km/h
388 17-05-2010 05:33:04 6.2 C 6.1 g/m*3 6.2 C 0 km/h
389 17-05-2010 05:45:05 6.1 C 6.06 g/m*3 6.1 C 0 km/h
390 17-05-2010 05:57:05 6 C 6.02 g/m*3 6 C 0 km/h
391 17-05-2010 06:09:05 6 C 6.1 g/m*3 6 C 0 km/h
392 17-05-2010 06:21:05 6 C 6.02 g/m*3 6 C 0 km/h
393 17-05-2010 06:33:03 6 C 6.02 g/m*3 6 C 0 km/h
394 17-05-2010 06:45:02 5.9 C 6.06 g/m*3 5.9 C 0 km/h
395 17-05-2010 06:57:02 6.1 C 6.06 g/m*3 6.1 C 0 km/h
396 17-05-2010 07:09:01 6.3 C 6.14 g/m*3 6.3 C 0 km/h
397 17-05-2010 07:21:02 6.5 C 6.15 g/m*3 6.5 C 0 km/h
398 17-05-2010 07:33:01 7.2 C 6.2 g/m*3 7.2 C 0 km/h
399 17-05-2010 07:45:02 7.4 C 6.2 g/m*3 7.4 C 0 km/h
400 17-05-2010 07:57:02 8 C 6.2 g/m*3 8 C 0 km/h
Sensor: Nr:Datum:Temp:Abs-Feuchte:Windchill:Wind:
Aussen-T/F 401 17-05-2010 08:09:01 8.3 C 6.24 g/m*3 8.3 C 0 km/h
402 17-05-2010 08:21:02 8.8 C 6.35 g/m*3 8.8 C 0 km/h
403 17-05-2010 08:33:02 9.2 C 6.25 g/m*3 9.2 C 0 km/h
404 17-05-2010 08:45:02 10.1 C 6.24 g/m*3 10.1 C 0 km/h
405 17-05-2010 08:57:02 10.7 C 6.29 g/m*3 10.7 C 0 km/h
406 17-05-2010 09:09:02 11.2 C 6.28 g/m*3 11.2 C 0 km/h
407 17-05-2010 09:21:02 11.6 C 6.44 g/m*3 11.6 C 0 km/h
408 17-05-2010 09:33:02 12.2 C 6.47 g/m*3 12.2 C 0 km/h
409 17-05-2010 09:45:02 12.2 C 6.47 g/m*3 12.2 C 0 km/h
410 17-05-2010 09:57:02 12.2 C 6.47 g/m*3 12.2 C 0 km/h
411 17-05-2010 10:09:02 13 C 6.35 g/m*3 13 C 0 km/h
412 17-05-2010 10:21:02 13.2 C 6.2 g/m*3 13.2 C 0 km/h
413 17-05-2010 10:33:03 13.7 C 6.39 g/m*3 13.7 C 0 km/h
414 17-05-2010 10:45:02 14.1 C 6.55 g/m*3 14.1 C 0 km/h
415 17-05-2010 10:57:03 14.5 C 6.47 g/m*3 14.5 C 0 km/h
416 17-05-2010 11:09:01 14.1 C 6.55 g/m*3 14.1 C 0 km/h
417 17-05-2010 11:21:02 13.9 C 6.83 g/m*3 13.9 C 0 km/h
418 17-05-2010 11:33:02 13.5 C 6.67 g/m*3 13.5 C 0 km/h
419 17-05-2010 11:45:02 13.5 C 7.13 g/m*3 13.5 C 0 km/h
420 17-05-2010 11:57:02 13 C 7.14 g/m*3 13 C 0 km/h
421 17-05-2010 12:09:02 13.2 C 7.23 g/m*3 13.2 C 0 km/h
422 17-05-2010 12:21:02 13 C 7.48 g/m*3 13 C 0 km/h
423 17-05-2010 12:33:02 13.2 C 7.69 g/m*3 13.2 C 0 km/h
424 17-05-2010 12:45:01 14.2 C 7.45 g/m*3 14.2 C 0 km/h
425 17-05-2010 12:57:01 15.8 C 7.27 g/m*3 15.8 C 0 km/h
Sensor: Nr:Datum:Temp:Abs-Feuchte:Windchill:Wind:
Aussen-T/F 426 17-05-2010 13:09:02 15.4 C 6.7 g/m*3 15.4 C 0 km/h
427 17-05-2010 13:21:01 16.9 C 6.9 g/m*3 16.9 C 0 km/h
428 17-05-2010 13:33:01 18.1 C 6.49 g/m*3 18.1 C 0 km/h
429 17-05-2010 13:45:01 17.7 C 6.04 g/m*3 17.7 C 0 km/h
430 17-05-2010 13:57:01 15 C 7.05 g/m*3 15 C 0 km/h
431 17-05-2010 14:09:02 15.6 C 7.05 g/m*3 15.6 C 0 km/h
432 17-05-2010 14:21:01 15.5 C 7.4 g/m*3 15.5 C 0 km/h
433 17-05-2010 14:33:01 17.1 C 6.7 g/m*3 17.1 C 0 km/h
434 17-05-2010 14:45:01 16.5 C 6.46 g/m*3 16.5 C 0 km/h
435 17-05-2010 14:57:01 14.7 C 7.18 g/m*3 14.7 C 0 km/h
436 17-05-2010 15:09:02 12.6 C 8.3 g/m*3 12.6 C 0 km/h
437 17-05-2010 15:21:02 12.6 C 9.07 g/m*3 12.6 C 0 km/h
438 17-05-2010 15:33:01 12.9 C 9.58 g/m*3 12.9 C 0 km/h
439 17-05-2010 15:45:02 12.7 C 9.57 g/m*3 12.7 C 0 km/h
440 17-05-2010 15:57:02 12.5 C 9.57 g/m*3 12.5 C 0 km/h
441 17-05-2010 16:09:01 13.3 C 10.05 g/m*3 13.3 C 0 km/h
442 17-05-2010 16:21:02 13.8 C 9.89 g/m*3 13.8 C 0 km/h
443 17-05-2010 16:33:01 13.7 C 9.24 g/m*3 13.7 C 0 km/h
444 17-05-2010 16:45:02 13.1 C 8.9 g/m*3 13.1 C 0 km/h
445 17-05-2010 16:57:02 13.3 C 9.24 g/m*3 13.3 C 0 km/h
446 17-05-2010 17:09:01 13.8 C 9.29 g/m*3 13.8 C 0 km/h
447 17-05-2010 17:21:01 14.1 C 8.98 g/m*3 14.1 C 0 km/h
448 17-05-2010 17:33:01 13.9 C 8.99 g/m*3 13.9 C 0 km/h
449 17-05-2010 17:45:02 13.7 C 8.64 g/m*3 13.7 C 0 km/h
450 17-05-2010 17:57:02 13.8 C 8.7 g/m*3 13.8 C 0 km/h
Sensor: Nr:Datum:Temp:Abs-Feuchte:Windchill:Wind:
Aussen-T/F 451 17-05-2010 18:09:02 13.6 C 8.47 g/m*3 13.6 C 0 km/h
452 17-05-2010 18:21:02 14.4 C 8.9 g/m*3 14.4 C 0 km/h
453 17-05-2010 18:33:02 11.8 C 6.63 g/m*3 11.8 C 0 km/h
454 17-05-2010 18:45:01 10.7 C 6.88 g/m*3 10.7 C 0 km/h
455 17-05-2010 18:57:01 10 C 7.24 g/m*3 10 C 0 km/h
456 17-05-2010 19:09:02 9.8 C 7.7 g/m*3 9.8 C 0 km/h
457 17-05-2010 19:21:01 10.3 C 7.85 g/m*3 10.3 C 0 km/h
458 17-05-2010 19:33:02 10.3 C 7.95 g/m*3 10.3 C 0 km/h
459 17-05-2010 19:45:02 9.8 C 7.7 g/m*3 9.8 C 0 km/h
460 17-05-2010 19:57:02 10 C 7.8 g/m*3 10 C 0 km/h
461 17-05-2010 20:09:02 9.8 C 7.89 g/m*3 9.8 C 0 km/h
462 17-05-2010 20:21:01 9.5 C 7.83 g/m*3 9.5 C 0 km/h
463 17-05-2010 20:33:02 9.5 C 7.92 g/m*3 9.5 C 0 km/h
464 17-05-2010 20:45:02 9.4 C 7.87 g/m*3 9.4 C 0 km/h
465 17-05-2010 20:57:02 9.1 C 7.81 g/m*3 9.1 C 0 km/h
466 17-05-2010 21:09:02 9 C 7.76 g/m*3 9 C 0 km/h
467 17-05-2010 21:21:02 9 C 7.85 g/m*3 9 C 0 km/h
468 17-05-2010 21:33:02 9 C 7.85 g/m*3 9 C 0 km/h
469 17-05-2010 21:45:02 8.7 C 7.78 g/m*3 8.7 C 0 km/h
470 17-05-2010 21:57:02 8.7 C 7.87 g/m*3 8.7 C 0 km/h
471 17-05-2010 22:09:02 8.3 C 7.67 g/m*3 8.3 C 0 km/h
472 17-05-2010 22:21:02 8.6 C 7.82 g/m*3 8.6 C 0 km/h
473 17-05-2010 22:34:03 8.7 C 7.96 g/m*3 8.7 C 0 km/h
474 17-05-2010 22:46:03 8.5 C 7.85 g/m*3 8.5 C 0 km/h
475 17-05-2010 22:58:03 8.4 C 7.8 g/m*3 8.4 C 0 km/h
Sensor: Nr:Datum:Temp:Abs-Feuchte:Windchill:Wind:
Aussen-T/F 476 17-05-2010 23:10:04 8.1 C 7.57 g/m*3 8.1 C 0 km/h
477 17-05-2010 23:22:04 7.8 C 7.51 g/m*3 7.8 C 0 km/h
478 17-05-2010 23:34:04 7.8 C 7.51 g/m*3 7.8 C 0 km/h
479 17-05-2010 23:46:04 7.7 C 7.54 g/m*3 7.7 C 0 km/h
480 17-05-2010 23:58:04 7.6 C 7.49 g/m*3 7.6 C 0 km/h
481 18-05-2010 00:10:04 7.4 C 7.32 g/m*3 7.4 C 0 km/h
482 18-05-2010 00:22:04 7.1 C 7.18 g/m*3 7.1 C 0 km/h
483 18-05-2010 00:34:04 7 C 7.13 g/m*3 7 C 0 km/h
484 18-05-2010 00:46:04 7 C 7.13 g/m*3 7 C 0 km/h
485 18-05-2010 00:58:04 6.9 C 7.16 g/m*3 6.9 C 0 km/h
486 18-05-2010 01:10:04 6.8 C 7.11 g/m*3 6.8 C 0 km/h
487 18-05-2010 01:22:04 6.6 C 7.02 g/m*3 6.6 C 0 km/h
488 18-05-2010 01:34:04 6.4 C 6.85 g/m*3 6.4 C 0 km/h
489 18-05-2010 01:46:04 6.3 C 6.88 g/m*3 6.3 C 0 km/h
490 18-05-2010 01:58:04 6.2 C 6.84 g/m*3 6.2 C 0 km/h
491 18-05-2010 02:10:04 6.3 C 6.88 g/m*3 6.3 C 0 km/h
492 18-05-2010 02:22:04 6.2 C 6.84 g/m*3 6.2 C 0 km/h
493 18-05-2010 02:34:04 6.1 C 6.79 g/m*3 6.1 C 0 km/h
494 18-05-2010 02:46:04 6 C 6.75 g/m*3 6 C 0 km/h
495 18-05-2010 02:58:04 5.9 C 6.71 g/m*3 5.9 C 0 km/h
496 18-05-2010 03:10:04 5.8 C 6.66 g/m*3 5.8 C 0 km/h
497 18-05-2010 03:22:04 5.7 C 6.62 g/m*3 5.7 C 0 km/h
498 18-05-2010 03:34:05 5.7 C 6.69 g/m*3 5.7 C 0 km/h
499 18-05-2010 03:46:05 5.8 C 6.73 g/m*3 5.8 C 0 km/h
500 18-05-2010 03:58:05 6 C 6.75 g/m*3 6 C 0 km/h
Sensor: Nr:Datum:Temp:Abs-Feuchte:Windchill:Wind:
Aussen-T/F 501 18-05-2010 04:10:05 6.3 C 6.96 g/m*3 6.3 C 0 km/h
502 18-05-2010 04:22:05 6.3 C 6.96 g/m*3 6.3 C 0 km/h
503 18-05-2010 04:34:05 6.3 C 6.96 g/m*3 6.3 C 0 km/h
504 18-05-2010 04:46:05 6.2 C 6.91 g/m*3 6.2 C 0 km/h
505 18-05-2010 04:58:05 6.3 C 6.88 g/m*3 6.3 C 0 km/h
506 18-05-2010 05:10:05 6.4 C 7 g/m*3 6.4 C 0 km/h
507 18-05-2010 05:22:05 6.5 C 7.05 g/m*3 6.5 C 0 km/h
508 18-05-2010 05:34:05 6.4 C 6.93 g/m*3 6.4 C 0 km/h
509 18-05-2010 05:46:05 6.5 C 6.97 g/m*3 6.5 C 0 km/h
510 18-05-2010 05:58:05 6.7 C 7.07 g/m*3 6.7 C 0 km/h
511 18-05-2010 06:10:05 6.9 C 7.16 g/m*3 6.9 C 0 km/h
512 18-05-2010 06:22:05 6.9 C 7.16 g/m*3 6.9 C 0 km/h
513 18-05-2010 06:34:05 7.1 C 7.18 g/m*3 7.1 C 0 km/h
514 18-05-2010 06:46:05 7.3 C 7.27 g/m*3 7.3 C 0 km/h
515 18-05-2010 06:58:05 7.5 C 7.28 g/m*3 7.5 C 0 km/h
516 18-05-2010 07:10:04 7.9 C 7.47 g/m*3 7.9 C 0 km/h
517 18-05-2010 07:22:03 7.9 C 7.39 g/m*3 7.9 C 0 km/h
518 18-05-2010 07:34:03 8 C 7.36 g/m*3 8 C 0 km/h
519 18-05-2010 07:46:01 8.5 C 7.6 g/m*3 8.5 C 0 km/h
520 18-05-2010 07:58:01 8.7 C 7.52 g/m*3 8.7 C 0 km/h
521 18-05-2010 08:10:02 9 C 7.23 g/m*3 9 C 0 km/h
522 18-05-2010 08:22:01 8.7 C 6.66 g/m*3 8.7 C 0 km/h
523 18-05-2010 08:34:02 9 C 6.44 g/m*3 9 C 0 km/h
524 18-05-2010 08:46:02 9.3 C 6.56 g/m*3 9.3 C 0 km/h
525 18-05-2010 08:58:02 9.2 C 6.52 g/m*3 9.2 C 0 km/h
Sensor: Nr:Datum:Temp:Abs-Feuchte:Windchill:Wind:
Aussen-T/F 526 18-05-2010 09:10:01 9.3 C 6.47 g/m*3 9.3 C 0 km/h
527 18-05-2010 09:22:02 9.6 C 6.41 g/m*3 9.6 C 0 km/h
528 18-05-2010 09:34:01 9.9 C 6.35 g/m*3 9.9 C 0 km/h
529 18-05-2010 09:46:02 9.7 C 6.08 g/m*3 9.7 C 0 km/h
530 18-05-2010 09:58:02 10 C 6.01 g/m*3 10 C 0 km/h
531 18-05-2010 10:10:01 10.5 C 6.01 g/m*3 10.5 C 0 km/h
532 18-05-2010 10:22:01 10.5 C 6.01 g/m*3 10.5 C 0 km/h
533 18-05-2010 10:34:02 10.6 C 5.66 g/m*3 10.6 C 0 km/h
534 18-05-2010 10:46:02 11.2 C 5.57 g/m*3 11.2 C 0 km/h
535 18-05-2010 10:58:02 11.4 C 5.65 g/m*3 11.4 C 0 km/h
536 18-05-2010 11:10:02 12.5 C 5.61 g/m*3 12.5 C 0 km/h
537 18-05-2010 11:22:02 12.4 C 5.24 g/m*3 12.4 C 0 km/h
538 18-05-2010 11:34:02 12.1 C 5.25 g/m*3 12.1 C 0 km/h
539 18-05-2010 11:46:02 13 C 5.22 g/m*3 13 C 0 km/h
540 18-05-2010 11:58:02 13.7 C 5.21 g/m*3 13.7 C 0 km/h
541 18-05-2010 12:10:03 13.7 C 4.86 g/m*3 13.7 C 0 km/h
542 18-05-2010 12:22:02 12.7 C 5.12 g/m*3 12.7 C 0 km/h
543 18-05-2010 12:34:02 14.2 C 5.13 g/m*3 14.2 C 0 km/h
544 18-05-2010 12:46:01 14.4 C 4.82 g/m*3 14.4 C 0 km/h
545 18-05-2010 12:58:01 15.2 C 4.67 g/m*3 15.2 C 0 km/h
546 18-05-2010 13:10:02 16.8 C 5 g/m*3 16.8 C 0 km/h
547 18-05-2010 13:22:01 16.9 C 4.46 g/m*3 16.9 C 0 km/h
548 18-05-2010 13:34:01 16.5 C 4.49 g/m*3 16.5 C 0 km/h
549 18-05-2010 13:46:01 17.8 C 4.4 g/m*3 17.8 C 0 km/h
550 18-05-2010 13:58:01 15.8 C 4.04 g/m*3 15.8 C 0 km/h
Sensor: Nr:Datum:Temp:Abs-Feuchte:Windchill:Wind:
Aussen-T/F 551 18-05-2010 14:10:02 15.1 C 4.13 g/m*3 15.1 C 0 km/h
552 18-05-2010 14:22:01 15.8 C 4.17 g/m*3 15.8 C 0 km/h
553 18-05-2010 14:34:01 15 C 4.23 g/m*3 15 C 0 km/h
554 18-05-2010 14:46:01 15.8 C 4.31 g/m*3 15.8 C 0 km/h
555 18-05-2010 14:58:01 16.3 C 4.16 g/m*3 16.3 C 0 km/h
556 18-05-2010 15:10:02 16.4 C 4.47 g/m*3 16.4 C 0 km/h
557 18-05-2010 15:22:02 16.5 C 4.21 g/m*3 16.5 C 0 km/h
558 18-05-2010 15:34:01 16.6 C 3.96 g/m*3 16.6 C 0 km/h
559 18-05-2010 15:46:02 16 C 3.95 g/m*3 16 C 0 km/h
560 18-05-2010 15:58:02 16.9 C 4.17 g/m*3 16.9 C 0 km/h
561 18-05-2010 16:10:01 18.2 C 4.04 g/m*3 18.2 C 0 km/h
562 18-05-2010 16:22:02 18.2 C 3.89 g/m*3 18.2 C 0 km/h
563 18-05-2010 16:34:01 17.9 C 3.05 g/m*3 17.9 C 0 km/h
564 18-05-2010 16:46:02 17.6 C 3.3 g/m*3 17.6 C 0 km/h
565 18-05-2010 16:58:02 16.8 C 3.29 g/m*3 16.8 C 0 km/h
566 18-05-2010 17:10:02 16.6 C 3.53 g/m*3 16.6 C 0 km/h
567 18-05-2010 17:22:02 17.7 C 3.77 g/m*3 17.7 C 0 km/h
568 18-05-2010 17:34:02 17.5 C 4.03 g/m*3 17.5 C 0 km/h
569 18-05-2010 17:46:02 16.8 C 3.86 g/m*3 16.8 C 0 km/h
570 18-05-2010 17:58:02 17.2 C 3.66 g/m*3 17.2 C 0 km/h
571 18-05-2010 18:10:01 18.2 C 3.57 g/m*3 18.2 C 0 km/h
572 18-05-2010 18:22:02 18.2 C 3.73 g/m*3 18.2 C 0 km/h
573 18-05-2010 18:34:02 16.9 C 3.88 g/m*3 16.9 C 0 km/h
574 18-05-2010 18:46:02 16.2 C 4.14 g/m*3 16.2 C 0 km/h
575 18-05-2010 18:58:02 16.4 C 4.33 g/m*3 16.4 C 0 km/h
Sensor: Nr:Datum:Temp:Abs-Feuchte:Windchill:Wind:
Aussen-T/F 576 18-05-2010 19:10:02 15.7 C 4.42 g/m*3 15.7 C 0 km/h
577 18-05-2010 19:22:02 16.1 C 4.25 g/m*3 16.1 C 0 km/h
578 18-05-2010 19:34:03 15.3 C 4.31 g/m*3 15.3 C 0 km/h
579 18-05-2010 19:46:02 14.8 C 4.56 g/m*3 14.8 C 0 km/h
580 18-05-2010 19:58:02 14.7 C 4.66 g/m*3 14.7 C 0 km/h
581 18-05-2010 20:10:02 14.5 C 4.6 g/m*3 14.5 C 0 km/h
582 18-05-2010 20:22:01 14.4 C 4.94 g/m*3 14.4 C 0 km/h
583 18-05-2010 20:34:02 14.5 C 4.85 g/m*3 14.5 C 0 km/h
584 18-05-2010 20:46:02 14.1 C 4.85 g/m*3 14.1 C 0 km/h
585 18-05-2010 20:58:02 13.8 C 4.89 g/m*3 13.8 C 0 km/h
586 18-05-2010 21:10:02 13.5 C 5.03 g/m*3 13.5 C 0 km/h
587 18-05-2010 21:22:02 13.1 C 4.79 g/m*3 13.1 C 0 km/h
588 18-05-2010 21:34:02 12.6 C 4.76 g/m*3 12.6 C 0 km/h
589 18-05-2010 21:46:02 12.4 C 4.48 g/m*3 12.4 C 0 km/h
590 18-05-2010 21:58:02 12.4 C 4.37 g/m*3 12.4 C 0 km/h
591 18-05-2010 22:10:02 12 C 4.37 g/m*3 12 C 0 km/h
592 18-05-2010 22:22:02 11.7 C 4.39 g/m*3 11.7 C 0 km/h
593 18-05-2010 22:35:02 11.5 C 4.44 g/m*3 11.5 C 0 km/h
594 18-05-2010 22:47:02 11.2 C 4.66 g/m*3 11.2 C 0 km/h
595 18-05-2010 22:59:02 10.8 C 4.94 g/m*3 10.8 C 0 km/h
596 18-05-2010 23:11:02 10.5 C 5.04 g/m*3 10.5 C 0 km/h
597 18-05-2010 23:23:02 10.2 C 5.33 g/m*3 10.2 C 0 km/h
598 18-05-2010 23:35:03 9.9 C 5.51 g/m*3 9.9 C 0 km/h
599 18-05-2010 23:47:03 9.7 C 5.53 g/m*3 9.7 C 0 km/h
600 18-05-2010 23:59:03 9.6 C 5.59 g/m*3 9.6 C 0 km/h
Sensor: Nr:Datum:Temp:Abs-Feuchte:Windchill:Wind:
Aussen-T/F 601 19-05-2010 00:11:03 9.4 C 5.79 g/m*3 9.4 C 0 km/h
602 19-05-2010 00:23:03 9.4 C 5.79 g/m*3 9.4 C 0 km/h
603 19-05-2010 00:35:03 9.3 C 5.75 g/m*3 9.3 C 0 km/h
604 19-05-2010 00:47:03 9.3 C 5.75 g/m*3 9.3 C 0 km/h
605 19-05-2010 00:59:03 9.2 C 5.71 g/m*3 9.2 C 0 km/h
606 19-05-2010 01:11:03 9.2 C 5.54 g/m*3 9.2 C 0 km/h
607 19-05-2010 01:23:03 9.3 C 5.39 g/m*3 9.3 C 0 km/h
608 19-05-2010 01:35:03 9.3 C 5.3 g/m*3 9.3 C 0 km/h
609 19-05-2010 01:47:03 9.3 C 5.3 g/m*3 9.3 C 0 km/h
610 19-05-2010 01:59:03 9.3 C 5.3 g/m*3 9.3 C 0 km/h
611 19-05-2010 02:11:03 9.2 C 5.27 g/m*3 9.2 C 0 km/h
612 19-05-2010 02:23:03 9.1 C 5.32 g/m*3 9.1 C 0 km/h
613 19-05-2010 02:35:03 9.2 C 5.36 g/m*3 9.2 C 0 km/h
614 19-05-2010 02:47:03 9 C 5.29 g/m*3 9 C 0 km/h
615 19-05-2010 02:59:03 8.8 C 5.4 g/m*3 8.8 C 0 km/h
616 19-05-2010 03:11:03 8.8 C 5.4 g/m*3 8.8 C 0 km/h
617 19-05-2010 03:23:03 8.8 C 5.31 g/m*3 8.8 C 0 km/h
618 19-05-2010 03:35:03 8.7 C 5.36 g/m*3 8.7 C 0 km/h
619 19-05-2010 03:47:03 8.6 C 5.33 g/m*3 8.6 C 0 km/h
620 19-05-2010 03:59:03 8.5 C 5.38 g/m*3 8.5 C 0 km/h
621 19-05-2010 04:11:04 8.4 C 5.43 g/m*3 8.4 C 0 km/h
622 19-05-2010 04:23:04 8.2 C 5.44 g/m*3 8.2 C 0 km/h
623 19-05-2010 04:35:04 8.1 C 5.49 g/m*3 8.1 C 0 km/h
624 19-05-2010 04:47:04 8.1 C 5.66 g/m*3 8.1 C 0 km/h
625 19-05-2010 04:59:04 8 C 5.7 g/m*3 8 C 0 km/h
Sensor: Nr:Datum:Temp:Abs-Feuchte:Windchill:Wind:
Aussen-T/F 626 19-05-2010 05:11:04 8 C 5.7 g/m*3 8 C 0 km/h
627 19-05-2010 05:23:04 7.9 C 5.83 g/m*3 7.9 C 0 km/h
628 19-05-2010 05:35:04 7.9 C 5.91 g/m*3 7.9 C 0 km/h
629 19-05-2010 05:47:04 7.9 C 5.91 g/m*3 7.9 C 0 km/h
630 19-05-2010 05:59:04 7.9 C 5.91 g/m*3 7.9 C 0 km/h
631 19-05-2010 06:11:04 7.8 C 5.96 g/m*3 7.8 C 0 km/h
632 19-05-2010 06:23:04 8 C 5.95 g/m*3 8 C 0 km/h
633 19-05-2010 06:35:04 8.1 C 5.91 g/m*3 8.1 C 0 km/h
634 19-05-2010 06:47:04 8.1 C 5.91 g/m*3 8.1 C 0 km/h
635 19-05-2010 06:59:04 8.2 C 5.95 g/m*3 8.2 C 0 km/h
636 19-05-2010 07:11:02 8.4 C 6.02 g/m*3 8.4 C 0 km/h
637 19-05-2010 07:23:02 8.5 C 5.89 g/m*3 8.5 C 0 km/h
638 19-05-2010 07:35:02 8.6 C 5.84 g/m*3 8.6 C 0 km/h
639 19-05-2010 07:47:02 8.7 C 5.88 g/m*3 8.7 C 0 km/h
640 19-05-2010 07:59:02 9.1 C 5.86 g/m*3 9.1 C 0 km/h
641 19-05-2010 08:11:02 9.1 C 5.68 g/m*3 9.1 C 0 km/h
642 19-05-2010 08:23:02 9.3 C 5.66 g/m*3 9.3 C 0 km/h
643 19-05-2010 08:35:02 9 C 5.55 g/m*3 9 C 0 km/h
644 19-05-2010 08:47:02 9.1 C 5.59 g/m*3 9.1 C 0 km/h
645 19-05-2010 08:59:02 9.2 C 5.63 g/m*3 9.2 C 0 km/h
646 19-05-2010 09:11:01 8.9 C 5.69 g/m*3 8.9 C 0 km/h
647 19-05-2010 09:23:01 9.1 C 5.77 g/m*3 9.1 C 0 km/h
648 19-05-2010 09:35:01 9.2 C 5.71 g/m*3 9.2 C 0 km/h
649 19-05-2010 09:47:02 9.2 C 5.71 g/m*3 9.2 C 0 km/h
650 19-05-2010 09:59:02 9.5 C 5.73 g/m*3 9.5 C 0 km/h
Sensor: Nr:Datum:Temp:Abs-Feuchte:Windchill:Wind:
Aussen-T/F 651 19-05-2010 10:11:02 9.6 C 5.77 g/m*3 9.6 C 0 km/h
652 19-05-2010 10:23:02 9.6 C 5.68 g/m*3 9.6 C 0 km/h
653 19-05-2010 10:35:01 9.8 C 5.75 g/m*3 9.8 C 0 km/h
654 19-05-2010 10:47:02 9.5 C 5.64 g/m*3 9.5 C 0 km/h
655 19-05-2010 10:59:02 9.6 C 5.77 g/m*3 9.6 C 0 km/h
656 19-05-2010 11:11:01 9.7 C 5.81 g/m*3 9.7 C 0 km/h
657 19-05-2010 11:23:02 10.1 C 5.77 g/m*3 10.1 C 0 km/h
658 19-05-2010 11:35:02 10.3 C 5.84 g/m*3 10.3 C 0 km/h
659 19-05-2010 11:47:02 10.7 C 5.89 g/m*3 10.7 C 0 km/h
660 19-05-2010 11:59:02 10.3 C 5.75 g/m*3 10.3 C 0 km/h
661 19-05-2010 12:11:02 10.7 C 5.99 g/m*3 10.7 C 0 km/h
662 19-05-2010 12:23:02 10.9 C 5.97 g/m*3 10.9 C 0 km/h
663 19-05-2010 12:35:02 10.7 C 5.8 g/m*3 10.7 C 0 km/h
664 19-05-2010 12:47:02 11.1 C 5.64 g/m*3 11.1 C 0 km/h
665 19-05-2010 12:59:02 11.7 C 5.75 g/m*3 11.7 C 0 km/h
666 19-05-2010 13:11:02 11.9 C 5.61 g/m*3 11.9 C 0 km/h
667 19-05-2010 13:23:01 11.7 C 5.33 g/m*3 11.7 C 0 km/h
668 19-05-2010 13:35:02 11.5 C 5.99 g/m*3 11.5 C 0 km/h
669 19-05-2010 13:47:02 11.3 C 6.32 g/m*3 11.3 C 0 km/h
670 19-05-2010 13:59:02 11.3 C 6.32 g/m*3 11.3 C 0 km/h
671 19-05-2010 14:11:02 11.4 C 6.47 g/m*3 11.4 C 0 km/h
672 19-05-2010 14:23:02 11.2 C 6.39 g/m*3 11.2 C 0 km/h
673 19-05-2010 14:35:02 10.9 C 6.76 g/m*3 10.9 C 0 km/h
674 19-05-2010 14:47:02 11.9 C 7.31 g/m*3 11.9 C 0 km/h
675 19-05-2010 14:59:02 11.9 C 6.99 g/m*3 11.9 C 0 km/h
Sensor: Nr:Datum:Temp:Abs-Feuchte:Windchill:Wind:
Aussen-T/F 676 19-05-2010 15:11:02 11.8 C 7.37 g/m*3 11.8 C 0 km/h
677 19-05-2010 15:23:02 11.5 C 7.64 g/m*3 11.5 C 0 km/h
678 19-05-2010 15:35:02 11.4 C 7.9 g/m*3 11.4 C 0 km/h
679 19-05-2010 15:47:02 11.1 C 7.86 g/m*3 11.1 C 0 km/h
680 19-05-2010 15:59:02 11.2 C 8.01 g/m*3 11.2 C 0 km/h
681 19-05-2010 16:11:02 11 C 8.01 g/m*3 11 C 0 km/h
682 19-05-2010 16:23:02 10.8 C 8.01 g/m*3 10.8 C 0 km/h
683 19-05-2010 16:35:02 10.7 C 8.05 g/m*3 10.7 C 0 km/h
684 19-05-2010 16:47:02 10.8 C 8.2 g/m*3 10.8 C 0 km/h
685 19-05-2010 16:59:02 10.6 C 8.1 g/m*3 10.6 C 0 km/h
686 19-05-2010 17:11:02 10.7 C 8.25 g/m*3 10.7 C 0 km/h
687 19-05-2010 17:23:03 10.6 C 8.3 g/m*3 10.6 C 0 km/h
688 19-05-2010 17:35:02 10.7 C 8.35 g/m*3 10.7 C 0 km/h
689 19-05-2010 17:47:02 10.7 C 8.35 g/m*3 10.7 C 0 km/h
690 19-05-2010 17:59:02 10.7 C 8.35 g/m*3 10.7 C 0 km/h
691 19-05-2010 18:11:02 11.1 C 8.46 g/m*3 11.1 C 0 km/h
692 19-05-2010 18:23:03 11.1 C 8.36 g/m*3 11.1 C 0 km/h
693 19-05-2010 18:35:02 11.1 C 8.16 g/m*3 11.1 C 0 km/h
694 19-05-2010 18:47:02 11.2 C 8.11 g/m*3 11.2 C 0 km/h
695 19-05-2010 18:59:02 11.2 C 8.01 g/m*3 11.2 C 0 km/h
696 19-05-2010 19:11:02 11.3 C 7.96 g/m*3 11.3 C 0 km/h
697 19-05-2010 19:23:02 11.4 C 8.01 g/m*3 11.4 C 0 km/h
698 19-05-2010 19:35:02 11.5 C 8.06 g/m*3 11.5 C 0 km/h
699 19-05-2010 19:47:02 11.6 C 8.11 g/m*3 11.6 C 0 km/h
700 19-05-2010 19:59:02 11.6 C 8 g/m*3 11.6 C 0 km/h
Sensor: Nr:Datum:Temp:Abs-Feuchte:Windchill:Wind:
Aussen-T/F 701 19-05-2010 20:11:02 11.6 C 8 g/m*3 11.6 C 0 km/h
702 19-05-2010 20:23:02 11.7 C 7.95 g/m*3 11.7 C 0 km/h
703 19-05-2010 20:35:01 11.7 C 7.84 g/m*3 11.7 C 0 km/h
704 19-05-2010 20:47:02 11.8 C 7.68 g/m*3 11.8 C 0 km/h
705 19-05-2010 20:59:02 12 C 7.14 g/m*3 12 C 0 km/h
706 19-05-2010 21:11:01 12.6 C 6.2 g/m*3 12.6 C 0 km/h
707 19-05-2010 21:23:02 12.8 C 6.16 g/m*3 12.8 C 0 km/h
708 19-05-2010 21:35:02 13.2 C 5.51 g/m*3 13.2 C 0 km/h
709 19-05-2010 21:47:02 13 C 5.78 g/m*3 13 C 0 km/h
710 19-05-2010 21:59:03 13.1 C 5.48 g/m*3 13.1 C 0 km/h
711 19-05-2010 22:11:02 13.2 C 5.51 g/m*3 13.2 C 0 km/h
712 19-05-2010 22:23:02 13.1 C 5.71 g/m*3 13.1 C 0 km/h
713 19-05-2010 22:35:03 13.2 C 5.63 g/m*3 13.2 C 0 km/h
714 19-05-2010 22:47:02 13 C 5.67 g/m*3 13 C 0 km/h
715 19-05-2010 22:59:03 12.8 C 5.94 g/m*3 12.8 C 0 km/h
716 19-05-2010 23:11:01 12.8 C 5.94 g/m*3 12.8 C 0 km/h
717 19-05-2010 23:23:02 12.8 C 5.82 g/m*3 12.8 C 0 km/h
718 19-05-2010 23:35:02 12.8 C 5.94 g/m*3 12.8 C 0 km/h
719 19-05-2010 23:47:02 12.9 C 5.75 g/m*3 12.9 C 0 km/h
720 19-05-2010 23:59:02 12.7 C 5.68 g/m*3 12.7 C 0 km/h
721 20-05-2010 00:11:02 12.9 C 5.52 g/m*3 12.9 C 0 km/h
722 20-05-2010 00:23:03 12.8 C 5.49 g/m*3 12.8 C 0 km/h
723 20-05-2010 00:35:02 12.8 C 5.26 g/m*3 12.8 C 0 km/h
724 20-05-2010 00:47:02 13 C 4.99 g/m*3 13 C 0 km/h
725 20-05-2010 00:59:02 13 C 4.76 g/m*3 13 C 0 km/h
Sensor: Nr:Datum:Temp:Abs-Feuchte:Windchill:Wind:
Aussen-T/F 726 20-05-2010 01:11:02 12.8 C 4.93 g/m*3 12.8 C 0 km/h
727 20-05-2010 01:23:03 12.6 C 5.2 g/m*3 12.6 C 0 km/h
728 20-05-2010 01:35:02 12.5 C 5.61 g/m*3 12.5 C 0 km/h
729 20-05-2010 01:47:03 12.4 C 5.68 g/m*3 12.4 C 0 km/h
730 20-05-2010 01:59:03 12.2 C 5.61 g/m*3 12.2 C 0 km/h
731 20-05-2010 02:11:02 12.1 C 5.47 g/m*3 12.1 C 0 km/h
732 20-05-2010 02:23:03 12 C 5.65 g/m*3 12 C 0 km/h
733 20-05-2010 02:35:02 11.8 C 5.68 g/m*3 11.8 C 0 km/h
734 20-05-2010 02:48:04 11.7 C 5.65 g/m*3 11.7 C 0 km/h
735 20-05-2010 03:00:04 11.5 C 5.68 g/m*3 11.5 C 0 km/h
736 20-05-2010 03:12:03 11.7 C 5.54 g/m*3 11.7 C 0 km/h
737 20-05-2010 03:24:03 11.5 C 5.37 g/m*3 11.5 C 0 km/h
738 20-05-2010 03:36:01 11.4 C 5.44 g/m*3 11.4 C 0 km/h
739 20-05-2010 03:48:01 11.5 C 5.47 g/m*3 11.5 C 0 km/h
740 20-05-2010 04:00:01 11.2 C 5.47 g/m*3 11.2 C 0 km/h
741 20-05-2010 04:12:02 11.3 C 5.3 g/m*3 11.3 C 0 km/h
742 20-05-2010 04:24:01 11.2 C 5.27 g/m*3 11.2 C 0 km/h
743 20-05-2010 04:36:02 11.1 C 5.24 g/m*3 11.1 C 0 km/h
744 20-05-2010 04:48:01 11 C 5.2 g/m*3 11 C 0 km/h
745 20-05-2010 05:00:01 11.1 C 5.24 g/m*3 11.1 C 0 km/h
746 20-05-2010 05:12:02 11.1 C 5.14 g/m*3 11.1 C 0 km/h
747 20-05-2010 05:24:02 11 C 5.31 g/m*3 11 C 0 km/h
748 20-05-2010 05:36:02 11 C 5.2 g/m*3 11 C 0 km/h
749 20-05-2010 05:48:01 10.9 C 5.27 g/m*3 10.9 C 0 km/h
750 20-05-2010 06:00:01 10.9 C 5.27 g/m*3 10.9 C 0 km/h
Sensor: Nr:Datum:Temp:Abs-Feuchte:Windchill:Wind:
Aussen-T/F 751 20-05-2010 06:12:02 10.9 C 5.37 g/m*3 10.9 C 0 km/h
752 20-05-2010 06:24:02 11 C 5 g/m*3 11 C 0 km/h
753 20-05-2010 06:36:02 11.1 C 5.04 g/m*3 11.1 C 0 km/h
754 20-05-2010 06:48:02 11.2 C 5.27 g/m*3 11.2 C 0 km/h
755 20-05-2010 07:00:02 11.2 C 5.17 g/m*3 11.2 C 0 km/h
756 20-05-2010 07:12:02 11.2 C 5.17 g/m*3 11.2 C 0 km/h
757 20-05-2010 07:24:02 11.2 C 5.17 g/m*3 11.2 C 0 km/h
758 20-05-2010 07:36:01 11.4 C 5.44 g/m*3 11.4 C 0 km/h
759 20-05-2010 07:48:02 11.3 C 5.3 g/m*3 11.3 C 0 km/h
760 20-05-2010 08:00:02 11.2 C 5.27 g/m*3 11.2 C 0 km/h
761 20-05-2010 08:12:01 11 C 5.2 g/m*3 11 C 0 km/h
762 20-05-2010 08:24:02 11 C 5.31 g/m*3 11 C 0 km/h
763 20-05-2010 08:36:01 11.1 C 5.44 g/m*3 11.1 C 0 km/h
764 20-05-2010 08:48:02 11.4 C 5.54 g/m*3 11.4 C 0 km/h
765 20-05-2010 09:00:02 11.8 C 5.47 g/m*3 11.8 C 0 km/h
766 20-05-2010 09:12:02 11.8 C 5.37 g/m*3 11.8 C 0 km/h
767 20-05-2010 09:24:02 11.8 C 5.47 g/m*3 11.8 C 0 km/h
768 20-05-2010 09:36:01 11.7 C 5.44 g/m*3 11.7 C 0 km/h
769 20-05-2010 09:48:02 12 C 5.33 g/m*3 12 C 0 km/h
770 20-05-2010 10:00:02 12.1 C 5.36 g/m*3 12.1 C 0 km/h
771 20-05-2010 10:12:01 12.1 C 5.36 g/m*3 12.1 C 0 km/h
772 20-05-2010 10:24:02 12.4 C 5.46 g/m*3 12.4 C 0 km/h
773 20-05-2010 10:36:01 12.5 C 5.39 g/m*3 12.5 C 0 km/h
774 20-05-2010 10:48:02 12.4 C 5.35 g/m*3 12.4 C 0 km/h
775 20-05-2010 11:00:02 12.5 C 5.28 g/m*3 12.5 C 0 km/h
Sensor: Nr:Datum:Temp:Abs-Feuchte:Windchill:Wind:
Aussen-T/F 776 20-05-2010 11:12:02 12.7 C 5.23 g/m*3 12.7 C 0 km/h
777 20-05-2010 11:24:02 13.1 C 5.14 g/m*3 13.1 C 0 km/h
778 20-05-2010 11:36:02 13.4 C 5 g/m*3 13.4 C 0 km/h
779 20-05-2010 11:48:02 13.8 C 5.12 g/m*3 13.8 C 0 km/h
780 20-05-2010 12:00:02 13.8 C 5 g/m*3 13.8 C 0 km/h
781 20-05-2010 12:12:01 13.8 C 4.89 g/m*3 13.8 C 0 km/h
782 20-05-2010 12:24:01 14.4 C 4.82 g/m*3 14.4 C 0 km/h
783 20-05-2010 12:36:02 14.2 C 4.88 g/m*3 14.2 C 0 km/h
784 20-05-2010 12:48:02 14 C 4.82 g/m*3 14 C 0 km/h
785 20-05-2010 13:00:02 14 C 4.95 g/m*3 14 C 0 km/h
786 20-05-2010 13:12:02 14.1 C 5.1 g/m*3 14.1 C 0 km/h
787 20-05-2010 13:24:01 13 C 6.01 g/m*3 13 C 0 km/h
788 20-05-2010 13:36:02 12.9 C 6.88 g/m*3 12.9 C 0 km/h
789 20-05-2010 13:48:02 13.1 C 7.3 g/m*3 13.1 C 0 km/h
790 20-05-2010 14:00:02 12.8 C 7.39 g/m*3 12.8 C 0 km/h
791 20-05-2010 14:12:02 13.5 C 7.84 g/m*3 13.5 C 0 km/h
792 20-05-2010 14:24:02 13.9 C 7.67 g/m*3 13.9 C 0 km/h
793 20-05-2010 14:36:02 13.9 C 7.43 g/m*3 13.9 C 0 km/h
794 20-05-2010 14:48:02 13.8 C 7.63 g/m*3 13.8 C 0 km/h
795 20-05-2010 15:00:02 13.7 C 7.7 g/m*3 13.7 C 0 km/h
796 20-05-2010 15:12:03 13.4 C 7.56 g/m*3 13.4 C 0 km/h
797 20-05-2010 15:24:02 12 C 7.67 g/m*3 12 C 0 km/h
798 20-05-2010 15:36:02 12.1 C 7.83 g/m*3 12.1 C 0 km/h
799 20-05-2010 15:48:02 12.5 C 7.59 g/m*3 12.5 C 0 km/h
800 20-05-2010 16:00:02 13.1 C 7.87 g/m*3 13.1 C 0 km/h
Sensor: Nr:Datum:Temp:Abs-Feuchte:Windchill:Wind:
Aussen-T/F 801 20-05-2010 16:12:02 12.9 C 7.55 g/m*3 12.9 C 0 km/h
802 20-05-2010 16:24:01 12.4 C 7.21 g/m*3 12.4 C 0 km/h
803 20-05-2010 16:36:02 12.6 C 7.85 g/m*3 12.6 C 0 km/h
804 20-05-2010 16:48:02 12.8 C 8.06 g/m*3 12.8 C 0 km/h
805 20-05-2010 17:00:02 13.3 C 8.2 g/m*3 13.3 C 0 km/h
806 20-05-2010 17:12:02 14.2 C 7.82 g/m*3 14.2 C 0 km/h
807 20-05-2010 17:24:02 14 C 7.24 g/m*3 14 C 0 km/h
808 20-05-2010 17:36:02 14.3 C 7.86 g/m*3 14.3 C 0 km/h
809 20-05-2010 17:48:02 14.2 C 7.57 g/m*3 14.2 C 0 km/h
810 20-05-2010 18:00:02 14.4 C 7.91 g/m*3 14.4 C 0 km/h
811 20-05-2010 18:12:02 14.6 C 7.88 g/m*3 14.6 C 0 km/h
812 20-05-2010 18:24:02 14.7 C 7.81 g/m*3 14.7 C 0 km/h
813 20-05-2010 18:36:02 15 C 8.08 g/m*3 15 C 0 km/h
814 20-05-2010 18:48:02 14.8 C 7.73 g/m*3 14.8 C 0 km/h
815 20-05-2010 19:00:02 14.7 C 8.06 g/m*3 14.7 C 0 km/h
816 20-05-2010 19:12:02 14.8 C 8.23 g/m*3 14.8 C 0 km/h
817 20-05-2010 19:24:03 14.8 C 8.23 g/m*3 14.8 C 0 km/h
818 20-05-2010 19:36:02 14.9 C 8.28 g/m*3 14.9 C 0 km/h
819 20-05-2010 19:48:02 14.8 C 8.11 g/m*3 14.8 C 0 km/h
820 20-05-2010 20:00:02 14.8 C 8.11 g/m*3 14.8 C 0 km/h
821 20-05-2010 20:12:02 14.7 C 8.06 g/m*3 14.7 C 0 km/h
822 20-05-2010 20:24:03 14.4 C 7.91 g/m*3 14.4 C 0 km/h
823 20-05-2010 20:36:02 14.1 C 7.65 g/m*3 14.1 C 0 km/h
824 20-05-2010 20:48:03 13.8 C 7.86 g/m*3 13.8 C 0 km/h
825 20-05-2010 21:00:03 13.5 C 7.95 g/m*3 13.5 C 0 km/h
Sensor: Nr:Datum:Temp:Abs-Feuchte:Windchill:Wind:
Aussen-T/F 826 20-05-2010 21:12:02 13.2 C 7.58 g/m*3 13.2 C 0 km/h
827 20-05-2010 21:24:02 12.8 C 7.5 g/m*3 12.8 C 0 km/h
828 20-05-2010 21:36:02 12.8 C 7.62 g/m*3 12.8 C 0 km/h
829 20-05-2010 21:48:02 12.6 C 7.41 g/m*3 12.6 C 0 km/h
830 20-05-2010 22:00:02 12.5 C 7.37 g/m*3 12.5 C 0 km/h
831 20-05-2010 22:12:02 12.4 C 7.32 g/m*3 12.4 C 0 km/h
832 20-05-2010 22:24:02 12.2 C 7.01 g/m*3 12.2 C 0 km/h
833 20-05-2010 22:36:02 12.2 C 7.12 g/m*3 12.2 C 0 km/h
834 20-05-2010 22:49:03 12.2 C 7.23 g/m*3 12.2 C 0 km/h
835 20-05-2010 23:01:03 12.2 C 7.34 g/m*3 12.2 C 0 km/h
836 20-05-2010 23:13:03 12.1 C 7.51 g/m*3 12.1 C 0 km/h
837 20-05-2010 23:25:03 12.1 C 7.61 g/m*3 12.1 C 0 km/h
838 20-05-2010 23:37:03 11.7 C 7.64 g/m*3 11.7 C 0 km/h
839 20-05-2010 23:49:03 11.4 C 7.6 g/m*3 11.4 C 0 km/h
840 21-05-2010 00:01:03 11.1 C 7.45 g/m*3 11.1 C 0 km/h
841 21-05-2010 00:13:03 10.7 C 7.27 g/m*3 10.7 C 0 km/h
842 21-05-2010 00:25:03 10.6 C 7.32 g/m*3 10.6 C 0 km/h
843 21-05-2010 00:37:03 10.5 C 7.27 g/m*3 10.5 C 0 km/h
844 21-05-2010 00:49:03 10.3 C 7.18 g/m*3 10.3 C 0 km/h
845 21-05-2010 01:01:03 10.1 C 7.19 g/m*3 10.1 C 0 km/h
846 21-05-2010 01:13:03 10.1 C 7.28 g/m*3 10.1 C 0 km/h
847 21-05-2010 01:25:03 10.2 C 7.33 g/m*3 10.2 C 0 km/h
848 21-05-2010 01:37:03 10.2 C 7.33 g/m*3 10.2 C 0 km/h
849 21-05-2010 01:49:03 10.1 C 7.38 g/m*3 10.1 C 0 km/h
850 21-05-2010 02:01:03 10 C 7.33 g/m*3 10 C 0 km/h
Sensor: Nr:Datum:Temp:Abs-Feuchte:Windchill:Wind:
Aussen-T/F 851 21-05-2010 02:13:03 9.7 C 7.28 g/m*3 9.7 C 0 km/h
852 21-05-2010 02:25:03 9.5 C 7.28 g/m*3 9.5 C 0 km/h
853 21-05-2010 02:37:03 9.2 C 7.23 g/m*3 9.2 C 0 km/h
854 21-05-2010 02:49:04 9.1 C 7.19 g/m*3 9.1 C 0 km/h
855 21-05-2010 03:01:04 9 C 7.23 g/m*3 9 C 0 km/h
856 21-05-2010 03:13:04 8.8 C 7.31 g/m*3 8.8 C 0 km/h
857 21-05-2010 03:25:04 8.6 C 7.22 g/m*3 8.6 C 0 km/h
858 21-05-2010 03:37:04 8.5 C 7.34 g/m*3 8.5 C 0 km/h
859 21-05-2010 03:49:04 8.2 C 7.2 g/m*3 8.2 C 0 km/h
860 21-05-2010 04:01:04 8.1 C 7.16 g/m*3 8.1 C 0 km/h
861 21-05-2010 04:13:04 8 C 7.11 g/m*3 8 C 0 km/h
862 21-05-2010 04:25:04 7.9 C 7.15 g/m*3 7.9 C 0 km/h
863 21-05-2010 04:37:04 7.8 C 7.1 g/m*3 7.8 C 0 km/h
864 21-05-2010 04:49:04 7.6 C 7.09 g/m*3 7.6 C 0 km/h
865 21-05-2010 05:01:04 8.1 C 7.32 g/m*3 8.1 C 0 km/h
866 21-05-2010 05:13:04 8.2 C 7.37 g/m*3 8.2 C 0 km/h
867 21-05-2010 05:25:04 8.2 C 7.37 g/m*3 8.2 C 0 km/h
868 21-05-2010 05:37:04 8.1 C 7.32 g/m*3 8.1 C 0 km/h
869 21-05-2010 05:49:04 7.9 C 7.23 g/m*3 7.9 C 0 km/h
870 21-05-2010 06:01:04 7.8 C 7.26 g/m*3 7.8 C 0 km/h
871 21-05-2010 06:13:04 7.9 C 7.39 g/m*3 7.9 C 0 km/h
872 21-05-2010 06:25:04 8 C 7.36 g/m*3 8 C 0 km/h
873 21-05-2010 06:37:04 8.2 C 7.45 g/m*3 8.2 C 0 km/h
874 21-05-2010 06:49:04 8.5 C 7.68 g/m*3 8.5 C 0 km/h
875 21-05-2010 07:01:02 8.7 C 7.78 g/m*3 8.7 C 0 km/h
Sensor: Nr:Datum:Temp:Abs-Feuchte:Windchill:Wind:
Aussen-T/F 876 21-05-2010 07:13:02 8.6 C 7.65 g/m*3 8.6 C 0 km/h
877 21-05-2010 07:25:03 8.4 C 7.47 g/m*3 8.4 C 0 km/h
878 21-05-2010 07:37:02 8.4 C 7.47 g/m*3 8.4 C 0 km/h
879 21-05-2010 07:49:02 8.5 C 7.51 g/m*3 8.5 C 0 km/h
880 21-05-2010 08:01:02 8.7 C 7.52 g/m*3 8.7 C 0 km/h
881 21-05-2010 08:13:02 8.8 C 7.57 g/m*3 8.8 C 0 km/h
882 21-05-2010 08:25:02 9.2 C 7.5 g/m*3 9.2 C 0 km/h
883 21-05-2010 08:37:03 9.6 C 7.6 g/m*3 9.6 C 0 km/h
884 21-05-2010 08:49:02 9.7 C 7.56 g/m*3 9.7 C 0 km/h
885 21-05-2010 09:01:01 9.9 C 7.66 g/m*3 9.9 C 0 km/h
886 21-05-2010 09:13:01 10.2 C 7.71 g/m*3 10.2 C 0 km/h
887 21-05-2010 09:25:02 10.6 C 7.91 g/m*3 10.6 C 0 km/h
888 21-05-2010 09:37:02 11.4 C 8.11 g/m*3 11.4 C 0 km/h
889 21-05-2010 09:49:02 12 C 8.1 g/m*3 12 C 0 km/h
890 21-05-2010 10:01:03 12.8 C 8.4 g/m*3 12.8 C 0 km/h
891 21-05-2010 10:13:03 13.6 C 8.47 g/m*3 13.6 C 0 km/h
892 21-05-2010 10:25:02 14.5 C 8.46 g/m*3 14.5 C 0 km/h
893 21-05-2010 10:37:03 15.5 C 8.2 g/m*3 15.5 C 0 km/h
894 21-05-2010 10:49:02 16.5 C 7.72 g/m*3 16.5 C 0 km/h
895 21-05-2010 11:01:02 17.2 C 7.47 g/m*3 17.2 C 0 km/h
896 21-05-2010 11:13:02 17.8 C 7.59 g/m*3 17.8 C 0 km/h
897 21-05-2010 11:25:01 18.6 C 7.48 g/m*3 18.6 C 0 km/h
898 21-05-2010 11:37:02 19.2 C 7.42 g/m*3 19.2 C 0 km/h
899 21-05-2010 11:49:02 19.5 C 6.71 g/m*3 19.5 C 0 km/h
900 21-05-2010 12:01:02 19.2 C 6.27 g/m*3 19.2 C 0 km/h
Sensor: Nr:Datum:Temp:Abs-Feuchte:Windchill:Wind:
Aussen-T/F 901 21-05-2010 12:13:02 20.6 C 6.62 g/m*3 20.6 C 0 km/h
902 21-05-2010 12:25:02 20.9 C 6.19 g/m*3 20.9 C 0 km/h
903 21-05-2010 12:37:02 20.8 C 5.61 g/m*3 20.8 C 0 km/h
904 21-05-2010 12:49:02 21.2 C 5.37 g/m*3 21.2 C 0 km/h
905 21-05-2010 13:01:02 21.9 C 5.79 g/m*3 21.9 C 0 km/h
906 21-05-2010 13:13:02 23.7 C 5.35 g/m*3 23.7 C 0 km/h
907 21-05-2010 13:25:02 24.8 C 5.01 g/m*3 24.8 C 0 km/h
908 21-05-2010 13:37:02 25.2 C 4.89 g/m*3 25.2 C 0 km/h
909 21-05-2010 13:49:02 23.3 C 4.39 g/m*3 23.3 C 0 km/h
910 21-05-2010 14:01:02 23.1 C 5.17 g/m*3 23.1 C 0 km/h
911 21-05-2010 14:13:02 23.5 C 5.29 g/m*3 23.5 C 0 km/h
912 21-05-2010 14:25:02 24.4 C 5.12 g/m*3 24.4 C 0 km/h
913 21-05-2010 14:37:02 23.8 C 4.95 g/m*3 23.8 C 0 km/h
914 21-05-2010 14:49:02 24.6 C 5.63 g/m*3 24.6 C 0 km/h
915 21-05-2010 15:01:02 23.9 C 4.98 g/m*3 23.9 C 0 km/h
916 21-05-2010 15:13:02 25.2 C 5.12 g/m*3 25.2 C 0 km/h
917 21-05-2010 15:25:03 25.8 C 5.54 g/m*3 25.8 C 0 km/h
918 21-05-2010 15:37:02 25.7 C 4.79 g/m*3 25.7 C 0 km/h
919 21-05-2010 15:49:02 26.5 C 5.26 g/m*3 26.5 C 0 km/h
920 21-05-2010 16:01:02 26.3 C 4.95 g/m*3 26.3 C 0 km/h
921 21-05-2010 16:13:02 24.4 C 4.9 g/m*3 24.4 C 0 km/h
922 21-05-2010 16:25:02 25.3 C 4.92 g/m*3 25.3 C 0 km/h
923 21-05-2010 16:37:02 25 C 4.83 g/m*3 25 C 0 km/h
924 21-05-2010 16:49:02 25.4 C 4.71 g/m*3 25.4 C 0 km/h
925 21-05-2010 17:01:02 26.4 C 4.98 g/m*3 26.4 C 0 km/h
Sensor: Nr:Datum:Temp:Abs-Feuchte:Windchill:Wind:
Aussen-T/F 926 21-05-2010 17:13:02 25.7 C 4.79 g/m*3 25.7 C 0 km/h
927 21-05-2010 17:25:02 26.1 C 4.9 g/m*3 26.1 C 0 km/h
928 21-05-2010 17:37:02 26.7 C 5.06 g/m*3 26.7 C 0 km/h
929 21-05-2010 17:49:02 25.8 C 4.82 g/m*3 25.8 C 0 km/h
930 21-05-2010 18:01:01 26.4 C 4.98 g/m*3 26.4 C 0 km/h
931 21-05-2010 18:13:01 27 C 5.15 g/m*3 27 C 0 km/h
932 21-05-2010 18:25:02 26.2 C 4.92 g/m*3 26.2 C 0 km/h
933 21-05-2010 18:37:02 25.3 C 4.92 g/m*3 25.3 C 0 km/h
934 21-05-2010 18:49:02 24.8 C 5.24 g/m*3 24.8 C 0 km/h
935 21-05-2010 19:01:01 24.9 C 5.72 g/m*3 24.9 C 0 km/h
936 21-05-2010 19:13:01 24.6 C 5.63 g/m*3 24.6 C 0 km/h
937 21-05-2010 19:25:01 24.6 C 5.85 g/m*3 24.6 C 0 km/h
938 21-05-2010 19:37:02 24.1 C 5.69 g/m*3 24.1 C 0 km/h
939 21-05-2010 19:49:02 24 C 6.09 g/m*3 24 C 0 km/h
940 21-05-2010 20:01:02 23.6 C 5.96 g/m*3 23.6 C 0 km/h
941 21-05-2010 20:13:02 23.3 C 6.27 g/m*3 23.3 C 0 km/h
942 21-05-2010 20:25:02 22.9 C 6.34 g/m*3 22.9 C 0 km/h
943 21-05-2010 20:37:02 22.3 C 6.12 g/m*3 22.3 C 0 km/h
944 21-05-2010 20:49:02 21.2 C 6.49 g/m*3 21.2 C 0 km/h
945 21-05-2010 21:01:03 20.8 C 6.52 g/m*3 20.8 C 0 km/h
946 21-05-2010 21:13:03 20.4 C 6.55 g/m*3 20.4 C 0 km/h
947 21-05-2010 21:25:03 20 C 6.57 g/m*3 20 C 0 km/h
948 21-05-2010 21:37:03 19.8 C 6.66 g/m*3 19.8 C 0 km/h
949 21-05-2010 21:49:02 19.4 C 6.67 g/m*3 19.4 C 0 km/h
950 21-05-2010 22:01:02 18.9 C 6.97 g/m*3 18.9 C 0 km/h
Sensor: Nr:Datum:Temp:Abs-Feuchte:Windchill:Wind:
Aussen-T/F 951 21-05-2010 22:13:02 18.4 C 6.92 g/m*3 18.4 C 0 km/h
952 21-05-2010 22:25:02 18.2 C 7.15 g/m*3 18.2 C 0 km/h
953 21-05-2010 22:37:02 17.9 C 7.33 g/m*3 17.9 C 0 km/h
954 21-05-2010 22:49:02 17 C 7.38 g/m*3 17 C 0 km/h
955 21-05-2010 23:01:02 17 C 7.23 g/m*3 17 C 0 km/h
956 21-05-2010 23:13:02 16.4 C 7.12 g/m*3 16.4 C 0 km/h
957 21-05-2010 23:25:02 16.2 C 7.17 g/m*3 16.2 C 0 km/h
958 21-05-2010 23:38:04 15.9 C 7.31 g/m*3 15.9 C 0 km/h
959 21-05-2010 23:50:04 15.8 C 7.54 g/m*3 15.8 C 0 km/h
960 22-05-2010 00:02:04 15.6 C 7.58 g/m*3 15.6 C 0 km/h
961 22-05-2010 00:14:04 15.4 C 7.49 g/m*3 15.4 C 0 km/h
962 22-05-2010 00:26:04 15.1 C 7.61 g/m*3 15.1 C 0 km/h
963 22-05-2010 00:38:04 14.8 C 7.73 g/m*3 14.8 C 0 km/h
964 22-05-2010 00:50:04 14.5 C 7.71 g/m*3 14.5 C 0 km/h
965 22-05-2010 01:02:04 14.4 C 7.79 g/m*3 14.4 C 0 km/h
966 22-05-2010 01:14:04 14.1 C 7.77 g/m*3 14.1 C 0 km/h
967 22-05-2010 01:26:04 13.9 C 7.91 g/m*3 13.9 C 0 km/h
968 22-05-2010 01:38:04 13.6 C 7.77 g/m*3 13.6 C 0 km/h
969 22-05-2010 01:50:04 13.4 C 7.9 g/m*3 13.4 C 0 km/h
970 22-05-2010 02:02:04 13.2 C 7.92 g/m*3 13.2 C 0 km/h
971 22-05-2010 02:14:04 12.9 C 7.89 g/m*3 12.9 C 0 km/h
972 22-05-2010 02:26:04 12.7 C 7.9 g/m*3 12.7 C 0 km/h
973 22-05-2010 02:38:04 12.5 C 7.92 g/m*3 12.5 C 0 km/h
974 22-05-2010 02:50:04 12.4 C 7.98 g/m*3 12.4 C 0 km/h
975 22-05-2010 03:02:04 12.3 C 7.93 g/m*3 12.3 C 0 km/h
Sensor: Nr:Datum:Temp:Abs-Feuchte:Windchill:Wind:
Aussen-T/F 976 22-05-2010 03:14:04 12.1 C 7.94 g/m*3 12.1 C 0 km/h
977 22-05-2010 03:26:04 12 C 7.89 g/m*3 12 C 0 km/h
978 22-05-2010 03:38:05 11.9 C 7.94 g/m*3 11.9 C 0 km/h
979 22-05-2010 03:50:05 11.7 C 7.95 g/m*3 11.7 C 0 km/h
980 22-05-2010 04:02:05 11.5 C 7.95 g/m*3 11.5 C 0 km/h
981 22-05-2010 04:14:05 11.2 C 7.91 g/m*3 11.2 C 0 km/h
982 22-05-2010 04:26:05 11 C 7.81 g/m*3 11 C 0 km/h
983 22-05-2010 04:38:05 10.9 C 7.96 g/m*3 10.9 C 0 km/h
984 22-05-2010 04:50:05 10.7 C 7.86 g/m*3 10.7 C 0 km/h
985 22-05-2010 05:02:05 10.7 C 7.86 g/m*3 10.7 C 0 km/h
986 22-05-2010 05:14:05 10.3 C 7.76 g/m*3 10.3 C 0 km/h
987 22-05-2010 05:26:05 10.3 C 7.76 g/m*3 10.3 C 0 km/h
988 22-05-2010 05:38:05 10.2 C 7.8 g/m*3 10.2 C 0 km/h
989 22-05-2010 05:50:05 10 C 7.71 g/m*3 10 C 0 km/h
990 22-05-2010 06:02:05 9.9 C 7.75 g/m*3 9.9 C 0 km/h
991 22-05-2010 06:14:05 9.9 C 7.75 g/m*3 9.9 C 0 km/h
992 22-05-2010 06:26:05 9.9 C 7.75 g/m*3 9.9 C 0 km/h
993 22-05-2010 06:38:05 10.1 C 7.75 g/m*3 10.1 C 0 km/h
994 22-05-2010 06:50:05 10 C 7.71 g/m*3 10 C 0 km/h
995 22-05-2010 07:02:05 10.2 C 7.8 g/m*3 10.2 C 0 km/h
996 22-05-2010 07:14:05 10.2 C 7.8 g/m*3 10.2 C 0 km/h
997 22-05-2010 07:26:03 10.3 C 7.85 g/m*3 10.3 C 0 km/h
998 22-05-2010 07:38:03 10.7 C 8.05 g/m*3 10.7 C 0 km/h
999 22-05-2010 07:50:02 11.3 C 8.36 g/m*3 11.3 C 0 km/h
1000 22-05-2010 08:02:02 11.7 C 8.26 g/m*3 11.7 C 0 km/h
Sensor: Nr:Datum:Temp:Abs-Feuchte:Windchill:Wind:
Aussen-T/F 1001 22-05-2010 08:14:02 12 C 8.1 g/m*3 12 C 0 km/h
1002 22-05-2010 08:26:02 12.3 C 8.04 g/m*3 12.3 C 0 km/h
1003 22-05-2010 08:38:03 12.6 C 7.85 g/m*3 12.6 C 0 km/h
1004 22-05-2010 08:50:02 13 C 7.48 g/m*3 13 C 0 km/h
1005 22-05-2010 09:02:02 13.3 C 7.39 g/m*3 13.3 C 0 km/h
1006 22-05-2010 09:14:02 13.7 C 7.46 g/m*3 13.7 C 0 km/h
1007 22-05-2010 09:26:02 13.9 C 7.55 g/m*3 13.9 C 0 km/h
1008 22-05-2010 09:38:02 14.3 C 7.13 g/m*3 14.3 C 0 km/h
1009 22-05-2010 09:50:02 14.8 C 7.09 g/m*3 14.8 C 0 km/h
1010 22-05-2010 10:02:02 15.3 C 6.4 g/m*3 15.3 C 0 km/h
1011 22-05-2010 10:14:02 15.8 C 6.33 g/m*3 15.8 C 0 km/h
1012 22-05-2010 10:26:02 16 C 6.13 g/m*3 16 C 0 km/h
1013 22-05-2010 10:38:02 16.7 C 6.4 g/m*3 16.7 C 0 km/h
1014 22-05-2010 10:50:01 17 C 6.22 g/m*3 17 C 0 km/h
1015 22-05-2010 11:02:02 17.6 C 6.3 g/m*3 17.6 C 0 km/h
1016 22-05-2010 11:14:02 18 C 6.14 g/m*3 18 C 0 km/h
1017 22-05-2010 11:26:01 18.1 C 6.03 g/m*3 18.1 C 0 km/h
1018 22-05-2010 11:38:02 18.7 C 6.08 g/m*3 18.7 C 0 km/h
1019 22-05-2010 11:50:02 19.1 C 5.9 g/m*3 19.1 C 0 km/h
1020 22-05-2010 12:02:02 19.3 C 5.81 g/m*3 19.3 C 0 km/h
1021 22-05-2010 12:14:02 20.2 C 5.94 g/m*3 20.2 C 0 km/h
1022 22-05-2010 12:26:01 21.8 C 5.95 g/m*3 21.8 C 0 km/h
1023 22-05-2010 12:38:01 21.3 C 5.59 g/m*3 21.3 C 0 km/h
1024 22-05-2010 12:50:01 23.3 C 5.85 g/m*3 23.3 C 0 km/h
1025 22-05-2010 13:02:01 23.7 C 5.78 g/m*3 23.7 C 0 km/h
Sensor: Nr:Datum:Temp:Abs-Feuchte:Windchill:Wind:
Aussen-T/F 1026 22-05-2010 13:14:01 24.2 C 5.72 g/m*3 24.2 C 0 km/h
1027 22-05-2010 13:26:01 24.2 C 5.5 g/m*3 24.2 C 0 km/h
1028 22-05-2010 13:38:00 24.7 C 5.43 g/m*3 24.7 C 0 km/h
1029 22-05-2010 13:50:01 24.4 C 5.56 g/m*3 24.4 C 0 km/h
1030 22-05-2010 14:02:01 24 C 5 g/m*3 24 C 0 km/h
1031 22-05-2010 14:14:01 23.6 C 5.74 g/m*3 23.6 C 0 km/h
1032 22-05-2010 14:26:01 24 C 5.66 g/m*3 24 C 0 km/h
1033 22-05-2010 14:38:01 23.9 C 5.84 g/m*3 23.9 C 0 km/h
1034 22-05-2010 14:50:01 24.3 C 5.75 g/m*3 24.3 C 0 km/h
1035 22-05-2010 15:02:01 24.9 C 5.95 g/m*3 24.9 C 0 km/h
1036 22-05-2010 15:14:01 25.4 C 5.89 g/m*3 25.4 C 0 km/h
1037 22-05-2010 15:26:02 25.6 C 5.95 g/m*3 25.6 C 0 km/h
1038 22-05-2010 15:38:01 25.3 C 6.09 g/m*3 25.3 C 0 km/h
1039 22-05-2010 15:50:03 25.5 C 5.92 g/m*3 25.5 C 0 km/h
1040 22-05-2010 16:02:02 25.7 C 6.22 g/m*3 25.7 C 0 km/h
1041 22-05-2010 16:14:02 25.8 C 6.02 g/m*3 25.8 C 0 km/h
1042 22-05-2010 16:26:03 26.1 C 6.12 g/m*3 26.1 C 0 km/h
1043 22-05-2010 16:38:02 25.6 C 6.19 g/m*3 25.6 C 0 km/h
1044 22-05-2010 16:50:02 26.3 C 6.19 g/m*3 26.3 C 0 km/h
1045 22-05-2010 17:02:01 26.7 C 6.33 g/m*3 26.7 C 0 km/h
1046 22-05-2010 17:14:01 27 C 6.18 g/m*3 27 C 0 km/h
1047 22-05-2010 17:26:02 27.1 C 6.47 g/m*3 27.1 C 0 km/h
1048 22-05-2010 17:38:01 27.2 C 6.51 g/m*3 27.2 C 0 km/h
1049 22-05-2010 17:50:02 26.4 C 6.47 g/m*3 26.4 C 0 km/h
1050 22-05-2010 18:02:02 26.4 C 6.47 g/m*3 26.4 C 0 km/h
Sensor: Nr:Datum:Temp:Abs-Feuchte:Windchill:Wind:
Aussen-T/F 1051 22-05-2010 18:14:02 26.9 C 6.65 g/m*3 26.9 C 0 km/h
1052 22-05-2010 18:26:02 26.6 C 6.54 g/m*3 26.6 C 0 km/h
1053 22-05-2010 18:38:03 26.1 C 6.37 g/m*3 26.1 C 0 km/h
1054 22-05-2010 18:50:02 26.8 C 6.62 g/m*3 26.8 C 0 km/h
1055 22-05-2010 19:02:02 26.4 C 6.47 g/m*3 26.4 C 0 km/h
1056 22-05-2010 19:14:02 26.6 C 6.54 g/m*3 26.6 C 0 km/h
1057 22-05-2010 19:26:02 26.4 C 6.72 g/m*3 26.4 C 0 km/h
1058 22-05-2010 19:38:02 26.2 C 6.65 g/m*3 26.2 C 0 km/h
1059 22-05-2010 19:50:01 25.9 C 7.02 g/m*3 25.9 C 0 km/h
1060 22-05-2010 20:02:02 25.4 C 6.83 g/m*3 25.4 C 0 km/h
1061 22-05-2010 20:14:02 24.9 C 7.1 g/m*3 24.9 C 0 km/h
1062 22-05-2010 20:26:01 24.6 C 7.43 g/m*3 24.6 C 0 km/h
1063 22-05-2010 20:38:02 24.2 C 7.48 g/m*3 24.2 C 0 km/h
1064 22-05-2010 20:50:02 23.3 C 7.32 g/m*3 23.3 C 0 km/h
1065 22-05-2010 21:02:02 22.7 C 7.48 g/m*3 22.7 C 0 km/h
1066 22-05-2010 21:14:02 22 C 7.76 g/m*3 22 C 0 km/h
1067 22-05-2010 21:26:02 21.2 C 7.41 g/m*3 21.2 C 0 km/h
1068 22-05-2010 21:38:02 20.8 C 7.24 g/m*3 20.8 C 0 km/h
1069 22-05-2010 21:50:02 20.3 C 7.03 g/m*3 20.3 C 0 km/h
1070 22-05-2010 22:02:03 19.9 C 7.22 g/m*3 19.9 C 0 km/h
1071 22-05-2010 22:14:03 19.5 C 6.88 g/m*3 19.5 C 0 km/h
1072 22-05-2010 22:26:02 19.4 C 6.84 g/m*3 19.4 C 0 km/h
1073 22-05-2010 22:38:02 19.2 C 7.26 g/m*3 19.2 C 0 km/h
1074 22-05-2010 22:50:02 18.7 C 7.36 g/m*3 18.7 C 0 km/h
1075 22-05-2010 23:02:02 18.4 C 7.39 g/m*3 18.4 C 0 km/h
Sensor: Nr:Datum:Temp:Abs-Feuchte:Windchill:Wind:
Aussen-T/F 1076 22-05-2010 23:14:02 18.1 C 7.42 g/m*3 18.1 C 0 km/h
1077 22-05-2010 23:26:01 17.9 C 7.48 g/m*3 17.9 C 0 km/h
1078 22-05-2010 23:38:02 17.6 C 7.5 g/m*3 17.6 C 0 km/h
1079 22-05-2010 23:50:02 17.5 C 7.6 g/m*3 17.5 C 0 km/h
1080 23-05-2010 00:02:02 17.3 C 7.66 g/m*3 17.3 C 0 km/h
1081 23-05-2010 00:14:02 17.1 C 7.71 g/m*3 17.1 C 0 km/h
1082 23-05-2010 00:26:02 16.6 C 7.91 g/m*3 16.6 C 0 km/h
1083 23-05-2010 00:38:02 16.2 C 7.86 g/m*3 16.2 C 0 km/h
1084 23-05-2010 00:50:01 16 C 8.04 g/m*3 16 C 0 km/h
1085 23-05-2010 01:02:02 15.7 C 8.16 g/m*3 15.7 C 0 km/h
1086 23-05-2010 01:14:02 15.4 C 8.15 g/m*3 15.4 C 0 km/h
1087 23-05-2010 01:26:02 15.2 C 8.18 g/m*3 15.2 C 0 km/h
1088 23-05-2010 01:38:02 14.9 C 8.28 g/m*3 14.9 C 0 km/h
1089 23-05-2010 01:50:02 14.5 C 8.33 g/m*3 14.5 C 0 km/h
1090 23-05-2010 02:02:02 14.4 C 8.41 g/m*3 14.4 C 0 km/h
1091 23-05-2010 02:14:02 14.2 C 8.3 g/m*3 14.2 C 0 km/h
1092 23-05-2010 02:26:02 14.2 C 8.43 g/m*3 14.2 C 0 km/h
1093 23-05-2010 02:38:01 14 C 8.32 g/m*3 14 C 0 km/h
1094 23-05-2010 02:50:02 13.9 C 8.51 g/m*3 13.9 C 0 km/h
1095 23-05-2010 03:02:02 13.8 C 8.46 g/m*3 13.8 C 0 km/h
1096 23-05-2010 03:14:01 13.7 C 8.53 g/m*3 13.7 C 0 km/h
1097 23-05-2010 03:26:01 13.5 C 8.54 g/m*3 13.5 C 0 km/h
1098 23-05-2010 03:38:01 13.2 C 8.5 g/m*3 13.2 C 0 km/h
1099 23-05-2010 03:50:01 12.9 C 8.45 g/m*3 12.9 C 0 km/h
1100 23-05-2010 04:02:02 12.8 C 8.51 g/m*3 12.8 C 0 km/h
Sensor: Nr:Datum:Temp:Abs-Feuchte:Windchill:Wind:
Aussen-T/F 1101 23-05-2010 04:14:02 12.7 C 8.46 g/m*3 12.7 C 0 km/h
1102 23-05-2010 04:26:01 12.7 C 8.57 g/m*3 12.7 C 0 km/h
1103 23-05-2010 04:38:02 12.4 C 8.41 g/m*3 12.4 C 0 km/h
1104 23-05-2010 04:50:01 12.3 C 8.47 g/m*3 12.3 C 0 km/h
1105 23-05-2010 05:02:02 12.1 C 8.36 g/m*3 12.1 C 0 km/h
1106 23-05-2010 05:14:02 12 C 8.42 g/m*3 12 C 0 km/h
1107 23-05-2010 05:26:01 11.9 C 8.37 g/m*3 11.9 C 0 km/h
1108 23-05-2010 05:38:01 11.8 C 8.31 g/m*3 11.8 C 0 km/h
1109 23-05-2010 05:50:01 11.8 C 8.42 g/m*3 11.8 C 0 km/h
1110 23-05-2010 06:02:01 11.6 C 8.32 g/m*3 11.6 C 0 km/h
1111 23-05-2010 06:14:02 11.5 C 8.26 g/m*3 11.5 C 0 km/h
1112 23-05-2010 06:26:01 11.5 C 8.37 g/m*3 11.5 C 0 km/h
1113 23-05-2010 06:38:01 11.5 C 8.37 g/m*3 11.5 C 0 km/h
1114 23-05-2010 06:50:01 11.5 C 8.37 g/m*3 11.5 C 0 km/h
1115 23-05-2010 07:02:01 11.5 C 8.47 g/m*3 11.5 C 0 km/h
1116 23-05-2010 07:14:01 11.8 C 8.63 g/m*3 11.8 C 0 km/h
1117 23-05-2010 07:26:02 11.9 C 8.68 g/m*3 11.9 C 0 km/h
1118 23-05-2010 07:38:01 12.1 C 8.69 g/m*3 12.1 C 0 km/h
1119 23-05-2010 07:50:01 12.4 C 8.85 g/m*3 12.4 C 0 km/h
1120 23-05-2010 08:02:01 12.7 C 8.91 g/m*3 12.7 C 0 km/h
1121 23-05-2010 08:14:01 13.3 C 9.24 g/m*3 13.3 C 0 km/h
1122 23-05-2010 08:26:02 14 C 9.41 g/m*3 14 C 0 km/h
1123 23-05-2010 08:38:01 14.4 C 9.27 g/m*3 14.4 C 0 km/h
1124 23-05-2010 08:50:01 14.8 C 9.37 g/m*3 14.8 C 0 km/h
1125 23-05-2010 09:02:01 15.2 C 9.22 g/m*3 15.2 C 0 km/h
Sensor: Nr:Datum:Temp:Abs-Feuchte:Windchill:Wind:
Aussen-T/F 1126 23-05-2010 09:14:01 15.7 C 9.37 g/m*3 15.7 C 0 km/h
1127 23-05-2010 09:26:02 16.1 C 9.32 g/m*3 16.1 C 0 km/h
1128 23-05-2010 09:38:01 16.7 C 9.38 g/m*3 16.7 C 0 km/h
1129 23-05-2010 09:50:02 17.2 C 9.08 g/m*3 17.2 C 0 km/h
1130 23-05-2010 10:02:01 17.8 C 9.41 g/m*3 17.8 C 0 km/h
1131 23-05-2010 10:14:01 18.7 C 9.45 g/m*3 18.7 C 0 km/h
1132 23-05-2010 10:26:01 19.2 C 9.4 g/m*3 19.2 C 0 km/h
1133 23-05-2010 10:38:01 20 C 9.16 g/m*3 20 C 0 km/h
1134 23-05-2010 10:50:01 20.3 C 9.15 g/m*3 20.3 C 0 km/h
1135 23-05-2010 11:02:01 20.5 C 8.9 g/m*3 20.5 C 0 km/h
1136 23-05-2010 11:14:02 21.2 C 8.9 g/m*3 21.2 C 0 km/h
1137 23-05-2010 11:26:01 20.4 C 8.49 g/m*3 20.4 C 0 km/h
1138 23-05-2010 11:38:02 20.9 C 8.74 g/m*3 20.9 C 0 km/h
1139 23-05-2010 11:50:02 21.5 C 8.11 g/m*3 21.5 C 0 km/h
1140 23-05-2010 12:02:01 22.1 C 8 g/m*3 22.1 C 0 km/h
1141 23-05-2010 12:14:01 23.1 C 7.65 g/m*3 23.1 C 0 km/h
1142 23-05-2010 12:26:01 23.7 C 6.84 g/m*3 23.7 C 0 km/h
1143 23-05-2010 12:38:02 24.6 C 6.75 g/m*3 24.6 C 0 km/h
1144 23-05-2010 12:50:01 24.7 C 5.66 g/m*3 24.7 C 0 km/h
1145 23-05-2010 13:02:01 25.1 C 4.86 g/m*3 25.1 C 0 km/h
1146 23-05-2010 13:14:01 25.8 C 4.82 g/m*3 25.8 C 0 km/h
1147 23-05-2010 13:26:01 27.2 C 5.2 g/m*3 27.2 C 0 km/h
1148 23-05-2010 13:38:02 26.9 C 5.37 g/m*3 26.9 C 0 km/h
1149 23-05-2010 13:50:01 26.8 C 5.09 g/m*3 26.8 C 0 km/h
1150 23-05-2010 14:02:02 26.2 C 4.92 g/m*3 26.2 C 0 km/h
Sensor: Nr:Datum:Temp:Abs-Feuchte:Windchill:Wind:
Aussen-T/F 1151 23-05-2010 14:14:02 25.5 C 5.45 g/m*3 25.5 C 0 km/h
1152 23-05-2010 14:26:01 25.6 C 5.48 g/m*3 25.6 C 0 km/h
1153 23-05-2010 14:38:01 25.8 C 6.02 g/m*3 25.8 C 0 km/h
1154 23-05-2010 14:50:01 27.4 C 6.31 g/m*3 27.4 C 0 km/h
1155 23-05-2010 15:02:02 27.7 C 5.88 g/m*3 27.7 C 0 km/h
1156 23-05-2010 15:14:02 27.2 C 5.99 g/m*3 27.2 C 0 km/h
1157 23-05-2010 15:26:01 27.9 C 5.68 g/m*3 27.9 C 0 km/h
1158 23-05-2010 15:38:01 28.2 C 5.77 g/m*3 28.2 C 0 km/h
1159 23-05-2010 15:50:01 28.4 C 5.56 g/m*3 28.4 C 0 km/h
1160 23-05-2010 16:02:01 28.2 C 5.5 g/m*3 28.2 C 0 km/h
1161 23-05-2010 16:14:01 28.6 C 5.62 g/m*3 28.6 C 0 km/h
1162 23-05-2010 16:26:01 29 C 5.74 g/m*3 29 C 0 km/h
1163 23-05-2010 16:38:01 28.9 C 5.71 g/m*3 28.9 C 0 km/h
1164 23-05-2010 16:50:01 29 C 5.74 g/m*3 29 C 0 km/h
1165 23-05-2010 17:02:01 30.2 C 6.13 g/m*3 30.2 C 0 km/h
1166 23-05-2010 17:14:01 30.1 C 6.1 g/m*3 30.1 C 0 km/h
1167 23-05-2010 17:26:01 29.5 C 5.9 g/m*3 29.5 C 0 km/h
1168 23-05-2010 17:38:01 29.2 C 6.1 g/m*3 29.2 C 0 km/h
1169 23-05-2010 17:50:01 29.2 C 6.1 g/m*3 29.2 C 0 km/h
1170 23-05-2010 18:02:01 28.8 C 6.53 g/m*3 28.8 C 0 km/h
1171 23-05-2010 18:14:01 29.5 C 6.49 g/m*3 29.5 C 0 km/h
1172 23-05-2010 18:26:02 28.6 C 6.74 g/m*3 28.6 C 0 km/h
1173 23-05-2010 18:38:01 28.4 C 6.39 g/m*3 28.4 C 0 km/h
1174 23-05-2010 18:50:02 28.8 C 6.82 g/m*3 28.8 C 0 km/h
1175 23-05-2010 19:02:01 29.8 C 6.6 g/m*3 29.8 C 0 km/h
Sensor: Nr:Datum:Temp:Abs-Feuchte:Windchill:Wind:
Aussen-T/F 1176 23-05-2010 19:14:01 27.9 C 6.49 g/m*3 27.9 C 0 km/h
1177 23-05-2010 19:26:02 28.1 C 6.84 g/m*3 28.1 C 0 km/h
1178 23-05-2010 19:38:01 27.4 C 6.84 g/m*3 27.4 C 0 km/h
1179 23-05-2010 19:50:02 27.4 C 7.1 g/m*3 27.4 C 0 km/h
1180 23-05-2010 20:02:01 27.1 C 7.25 g/m*3 27.1 C 0 km/h
1181 23-05-2010 20:14:01 26.4 C 7.47 g/m*3 26.4 C 0 km/h
1182 23-05-2010 20:26:01 27.2 C 7.29 g/m*3 27.2 C 0 km/h
1183 23-05-2010 20:38:01 26.3 C 7.43 g/m*3 26.3 C 0 km/h
1184 23-05-2010 20:50:01 25.4 C 7.3 g/m*3 25.4 C 0 km/h
1185 23-05-2010 21:02:01 24.5 C 7.83 g/m*3 24.5 C 0 km/h
1186 23-05-2010 21:14:01 24.1 C 7.66 g/m*3 24.1 C 0 km/h
1187 23-05-2010 21:26:01 23.4 C 7.57 g/m*3 23.4 C 0 km/h
1188 23-05-2010 21:38:02 23.1 C 7.86 g/m*3 23.1 C 0 km/h
1189 23-05-2010 21:50:01 22.6 C 8.04 g/m*3 22.6 C 0 km/h
1190 23-05-2010 22:02:02 22.2 C 8.05 g/m*3 22.2 C 0 km/h
1191 23-05-2010 22:14:02 21.7 C 8.39 g/m*3 21.7 C 0 km/h
1192 23-05-2010 22:26:01 21.3 C 8.57 g/m*3 21.3 C 0 km/h
1193 23-05-2010 22:38:02 20.9 C 8.56 g/m*3 20.9 C 0 km/h
1194 23-05-2010 22:51:05 20.7 C 8.82 g/m*3 20.7 C 0 km/h
1195 23-05-2010 23:03:05 20.4 C 8.85 g/m*3 20.4 C 0 km/h
1196 23-05-2010 23:15:05 20 C 8.81 g/m*3 20 C 0 km/h
1197 23-05-2010 23:27:05 19.6 C 8.95 g/m*3 19.6 C 0 km/h
1198 23-05-2010 23:39:05 19.2 C 8.9 g/m*3 19.2 C 0 km/h
1199 23-05-2010 23:51:05 18.8 C 9.18 g/m*3 18.8 C 0 km/h
1200 24-05-2010 00:03:05 18.4 C 9.12 g/m*3 18.4 C 0 km/h
Sensor: Nr:Datum:Temp:Abs-Feuchte:Windchill:Wind:
Aussen-T/F 1201 24-05-2010 00:15:05 18 C 9.06 g/m*3 18 C 0 km/h
1202 24-05-2010 00:27:05 17.9 C 9.16 g/m*3 17.9 C 0 km/h
1203 24-05-2010 00:39:05 17.6 C 9.3 g/m*3 17.6 C 0 km/h
1204 24-05-2010 00:51:05 17.3 C 9.28 g/m*3 17.3 C 0 km/h
1205 24-05-2010 01:03:05 17.2 C 9.23 g/m*3 17.2 C 0 km/h
1206 24-05-2010 01:15:05 16.8 C 9.44 g/m*3 16.8 C 0 km/h
1207 24-05-2010 01:27:05 16.6 C 9.46 g/m*3 16.6 C 0 km/h
1208 24-05-2010 01:39:05 16.3 C 9.43 g/m*3 16.3 C 0 km/h
1209 24-05-2010 01:51:05 16 C 9.4 g/m*3 16 C 0 km/h
1210 24-05-2010 02:03:05 15.8 C 9.56 g/m*3 15.8 C 0 km/h
1211 24-05-2010 02:15:05 15.6 C 9.44 g/m*3 15.6 C 0 km/h
1212 24-05-2010 02:27:05 15.5 C 9.52 g/m*3 15.5 C 0 km/h
1213 24-05-2010 02:39:05 15.3 C 9.4 g/m*3 15.3 C 0 km/h
1214 24-05-2010 02:51:05 15.1 C 9.29 g/m*3 15.1 C 0 km/h
1215 24-05-2010 03:03:06 14.9 C 9.43 g/m*3 14.9 C 0 km/h
1216 24-05-2010 03:15:06 14.6 C 9.26 g/m*3 14.6 C 0 km/h
1217 24-05-2010 03:27:06 14.4 C 9.27 g/m*3 14.4 C 0 km/h
1218 24-05-2010 03:39:06 14.4 C 9.27 g/m*3 14.4 C 0 km/h
1219 24-05-2010 03:51:06 14.2 C 9.28 g/m*3 14.2 C 0 km/h
1220 24-05-2010 04:03:06 14 C 9.17 g/m*3 14 C 0 km/h
1221 24-05-2010 04:15:06 13.8 C 9.29 g/m*3 13.8 C 0 km/h
1222 24-05-2010 04:27:06 13.8 C 9.17 g/m*3 13.8 C 0 km/h
1223 24-05-2010 04:39:06 13.8 C 9.17 g/m*3 13.8 C 0 km/h
1224 24-05-2010 04:51:06 13.7 C 9.12 g/m*3 13.7 C 0 km/h
1225 24-05-2010 05:03:06 13.5 C 9.01 g/m*3 13.5 C 0 km/h
Sensor: Nr:Datum:Temp:Abs-Feuchte:Windchill:Wind:
Aussen-T/F 1226 24-05-2010 05:15:06 13.3 C 8.9 g/m*3 13.3 C 0 km/h
1227 24-05-2010 05:27:06 13 C 8.73 g/m*3 13 C 0 km/h
1228 24-05-2010 05:39:06 13 C 8.85 g/m*3 13 C 0 km/h
1229 24-05-2010 05:51:06 12.8 C 8.85 g/m*3 12.8 C 0 km/h
1230 24-05-2010 06:03:06 12.9 C 9.02 g/m*3 12.9 C 0 km/h
1231 24-05-2010 06:15:06 12.7 C 8.79 g/m*3 12.7 C 0 km/h
1232 24-05-2010 06:27:06 12.5 C 8.8 g/m*3 12.5 C 0 km/h
1233 24-05-2010 06:39:06 12.6 C 8.96 g/m*3 12.6 C 0 km/h
1234 24-05-2010 06:51:06 13 C 9.19 g/m*3 13 C 0 km/h
1235 24-05-2010 07:03:06 13.2 C 9.19 g/m*3 13.2 C 0 km/h
1236 24-05-2010 07:15:07 13.4 C 9.18 g/m*3 13.4 C 0 km/h
1237 24-05-2010 07:27:07 13.7 C 9.35 g/m*3 13.7 C 0 km/h
1238 24-05-2010 07:39:07 13.8 C 9.29 g/m*3 13.8 C 0 km/h
1239 24-05-2010 07:51:07 13.9 C 9.23 g/m*3 13.9 C 0 km/h
1240 24-05-2010 08:03:07 14.2 C 9.28 g/m*3 14.2 C 0 km/h
1241 24-05-2010 08:15:07 14.5 C 9.45 g/m*3 14.5 C 0 km/h
1242 24-05-2010 08:27:07 14.8 C 9.5 g/m*3 14.8 C 0 km/h
1243 24-05-2010 08:39:05 15.2 C 9.61 g/m*3 15.2 C 0 km/h
1244 24-05-2010 08:51:02 15.7 C 9.77 g/m*3 15.7 C 0 km/h
1245 24-05-2010 09:03:02 16.3 C 9.71 g/m*3 16.3 C 0 km/h
1246 24-05-2010 09:15:02 17 C 9.84 g/m*3 17 C 0 km/h
1247 24-05-2010 09:27:02 17.5 C 9.84 g/m*3 17.5 C 0 km/h
1248 24-05-2010 09:39:02 18.3 C 9.85 g/m*3 18.3 C 0 km/h
1249 24-05-2010 09:51:02 19 C 9.61 g/m*3 19 C 0 km/h
1250 24-05-2010 10:03:02 19.7 C 9.85 g/m*3 19.7 C 0 km/h
Sensor: Nr:Datum:Temp:Abs-Feuchte:Windchill:Wind:
Aussen-T/F 1251 24-05-2010 10:15:02 20.4 C 9.55 g/m*3 20.4 C 0 km/h
1252 24-05-2010 10:27:02 21.3 C 9.69 g/m*3 21.3 C 0 km/h
1253 24-05-2010 10:39:02 21.7 C 9.16 g/m*3 21.7 C 0 km/h
1254 24-05-2010 10:51:02 22.4 C 9.14 g/m*3 22.4 C 0 km/h
1255 24-05-2010 11:03:02 22.9 C 9.2 g/m*3 22.9 C 0 km/h
1256 24-05-2010 11:15:01 23.3 C 8.57 g/m*3 23.3 C 0 km/h
1257 24-05-2010 11:27:01 23.8 C 8.82 g/m*3 23.8 C 0 km/h
1258 24-05-2010 11:39:02 24.2 C 8.58 g/m*3 24.2 C 0 km/h
1259 24-05-2010 11:51:02 24.9 C 8.7 g/m*3 24.9 C 0 km/h
1260 24-05-2010 12:03:02 25.7 C 8.38 g/m*3 25.7 C 0 km/h
1261 24-05-2010 12:15:02 25.4 C 7.3 g/m*3 25.4 C 0 km/h
1262 24-05-2010 12:27:02 25.8 C 7.22 g/m*3 25.8 C 0 km/h
1263 24-05-2010 12:39:02 26.6 C 6.29 g/m*3 26.6 C 0 km/h
1264 24-05-2010 12:51:02 27.4 C 6.84 g/m*3 27.4 C 0 km/h
1265 24-05-2010 13:03:02 26.9 C 6.4 g/m*3 26.9 C 0 km/h
1266 24-05-2010 13:15:02 27 C 6.43 g/m*3 27 C 0 km/h
1267 24-05-2010 13:27:02 27.1 C 6.73 g/m*3 27.1 C 0 km/h
1268 24-05-2010 13:39:02 27 C 6.43 g/m*3 27 C 0 km/h
1269 24-05-2010 13:51:02 26.5 C 6.51 g/m*3 26.5 C 0 km/h
1270 24-05-2010 14:03:02 27 C 6.43 g/m*3 27 C 0 km/h
1271 24-05-2010 14:15:02 27.2 C 6.51 g/m*3 27.2 C 0 km/h
1272 24-05-2010 14:27:02 28.4 C 6.67 g/m*3 28.4 C 0 km/h
1273 24-05-2010 14:39:02 28.8 C 5.97 g/m*3 28.8 C 0 km/h
1274 24-05-2010 14:51:01 30 C 6.37 g/m*3 30 C 0 km/h
1275 24-05-2010 15:03:02 29.1 C 6.06 g/m*3 29.1 C 0 km/h
Sensor: Nr:Datum:Temp:Abs-Feuchte:Windchill:Wind:
Aussen-T/F 1276 24-05-2010 15:15:02 28.1 C 6.29 g/m*3 28.1 C 0 km/h
1277 24-05-2010 15:27:02 27.6 C 6.65 g/m*3 27.6 C 0 km/h
1278 24-05-2010 15:39:02 28.3 C 6.36 g/m*3 28.3 C 0 km/h
1279 24-05-2010 15:51:02 27.8 C 6.72 g/m*3 27.8 C 0 km/h
1280 24-05-2010 16:03:02 27.3 C 6.8 g/m*3 27.3 C 0 km/h
1281 24-05-2010 16:15:02 27.3 C 6.54 g/m*3 27.3 C 0 km/h
1282 24-05-2010 16:27:02 27.3 C 6.54 g/m*3 27.3 C 0 km/h
1283 24-05-2010 16:39:01 27.7 C 6.42 g/m*3 27.7 C 0 km/h
1284 24-05-2010 16:51:02 28.5 C 6.15 g/m*3 28.5 C 0 km/h
1285 24-05-2010 17:03:01 28.5 C 6.15 g/m*3 28.5 C 0 km/h
1286 24-05-2010 17:15:02 28.1 C 5.47 g/m*3 28.1 C 0 km/h
1287 24-05-2010 17:27:02 27.9 C 5.41 g/m*3 27.9 C 0 km/h
1288 24-05-2010 17:39:01 27.9 C 5.68 g/m*3 27.9 C 0 km/h
1289 24-05-2010 17:51:03 28.6 C 5.62 g/m*3 28.6 C 0 km/h
1290 24-05-2010 18:03:02 27.8 C 5.65 g/m*3 27.8 C 0 km/h
1291 24-05-2010 18:15:02 28 C 5.44 g/m*3 28 C 0 km/h
1292 24-05-2010 18:27:03 29.2 C 5.81 g/m*3 29.2 C 0 km/h
1293 24-05-2010 18:39:02 28.8 C 5.68 g/m*3 28.8 C 0 km/h
1294 24-05-2010 18:51:02 29.1 C 5.78 g/m*3 29.1 C 0 km/h
1295 24-05-2010 19:03:02 29.2 C 5.81 g/m*3 29.2 C 0 km/h
1296 24-05-2010 19:15:02 28.4 C 5.56 g/m*3 28.4 C 0 km/h
1297 24-05-2010 19:27:02 28.4 C 5.84 g/m*3 28.4 C 0 km/h
1298 24-05-2010 19:39:02 27.9 C 5.68 g/m*3 27.9 C 0 km/h
1299 24-05-2010 19:51:02 27.9 C 5.95 g/m*3 27.9 C 0 km/h
1300 24-05-2010 20:03:01 27.5 C 6.35 g/m*3 27.5 C 0 km/h
Sensor: Nr:Datum:Temp:Abs-Feuchte:Windchill:Wind:
Aussen-T/F 1301 24-05-2010 20:15:02 27.4 C 6.58 g/m*3 27.4 C 0 km/h
1302 24-05-2010 20:27:02 27.2 C 6.51 g/m*3 27.2 C 0 km/h
1303 24-05-2010 20:39:01 25.8 C 6.5 g/m*3 25.8 C 0 km/h
1304 24-05-2010 20:51:02 25.3 C 7.02 g/m*3 25.3 C 0 km/h
1305 24-05-2010 21:03:01 24.7 C 7.02 g/m*3 24.7 C 0 km/h
1306 24-05-2010 21:15:02 24.1 C 7 g/m*3 24.1 C 0 km/h
1307 24-05-2010 21:27:02 23.7 C 7.49 g/m*3 23.7 C 0 km/h
1308 24-05-2010 21:39:01 23.3 C 7.32 g/m*3 23.3 C 0 km/h
1309 24-05-2010 21:51:02 23.1 C 7.23 g/m*3 23.1 C 0 km/h
1310 24-05-2010 22:03:03 22.7 C 7.48 g/m*3 22.7 C 0 km/h
1311 24-05-2010 22:15:02 22.3 C 7.7 g/m*3 22.3 C 0 km/h
1312 24-05-2010 22:27:02 21.9 C 7.91 g/m*3 21.9 C 0 km/h
1313 24-05-2010 22:39:02 21.5 C 8.11 g/m*3 21.5 C 0 km/h
1314 24-05-2010 22:52:03 20.9 C 8.38 g/m*3 20.9 C 0 km/h
1315 24-05-2010 23:04:03 20.5 C 8.36 g/m*3 20.5 C 0 km/h
1316 24-05-2010 23:16:03 20.2 C 8.22 g/m*3 20.2 C 0 km/h
1317 24-05-2010 23:28:03 19.7 C 8.32 g/m*3 19.7 C 0 km/h
1318 24-05-2010 23:40:03 19.6 C 8.27 g/m*3 19.6 C 0 km/h
1319 24-05-2010 23:52:03 19.3 C 8.29 g/m*3 19.3 C 0 km/h
1320 25-05-2010 00:04:03 19.1 C 8.36 g/m*3 19.1 C 0 km/h
1321 25-05-2010 00:16:04 18.7 C 8.49 g/m*3 18.7 C 0 km/h
1322 25-05-2010 00:28:04 18.5 C 8.54 g/m*3 18.5 C 0 km/h
1323 25-05-2010 00:40:04 18.2 C 8.55 g/m*3 18.2 C 0 km/h
1324 25-05-2010 00:52:04 18 C 8.75 g/m*3 18 C 0 km/h
1325 25-05-2010 01:04:04 17.8 C 8.8 g/m*3 17.8 C 0 km/h
Sensor: Nr:Datum:Temp:Abs-Feuchte:Windchill:Wind:
Aussen-T/F 1326 25-05-2010 01:16:04 17.5 C 8.8 g/m*3 17.5 C 0 km/h
1327 25-05-2010 01:28:04 17.2 C 8.79 g/m*3 17.2 C 0 km/h
1328 25-05-2010 01:40:04 16.8 C 9.01 g/m*3 16.8 C 0 km/h
1329 25-05-2010 01:52:04 16.6 C 8.9 g/m*3 16.6 C 0 km/h
1330 25-05-2010 02:04:04 16.2 C 8.96 g/m*3 16.2 C 0 km/h
1331 25-05-2010 02:16:04 16.1 C 8.91 g/m*3 16.1 C 0 km/h
1332 25-05-2010 02:28:04 16 C 8.86 g/m*3 16 C 0 km/h
1333 25-05-2010 02:40:04 15.9 C 8.94 g/m*3 15.9 C 0 km/h
1334 25-05-2010 02:52:04 15.8 C 9.02 g/m*3 15.8 C 0 km/h
1335 25-05-2010 03:04:04 15.5 C 8.99 g/m*3 15.5 C 0 km/h
1336 25-05-2010 03:16:04 15.2 C 9.09 g/m*3 15.2 C 0 km/h
1337 25-05-2010 03:28:04 14.8 C 9.12 g/m*3 14.8 C 0 km/h
1338 25-05-2010 03:40:04 14.7 C 9.19 g/m*3 14.7 C 0 km/h
1339 25-05-2010 03:52:04 14.6 C 9.13 g/m*3 14.6 C 0 km/h
1340 25-05-2010 04:04:04 14.6 C 9.13 g/m*3 14.6 C 0 km/h
1341 25-05-2010 04:16:04 14.5 C 9.2 g/m*3 14.5 C 0 km/h
1342 25-05-2010 04:28:04 14.1 C 9.1 g/m*3 14.1 C 0 km/h
1343 25-05-2010 04:40:05 13.8 C 9.17 g/m*3 13.8 C 0 km/h
1344 25-05-2010 04:52:05 13.9 C 9.23 g/m*3 13.9 C 0 km/h
1345 25-05-2010 05:04:05 14.1 C 9.22 g/m*3 14.1 C 0 km/h
1346 25-05-2010 05:16:05 14 C 9.05 g/m*3 14 C 0 km/h
1347 25-05-2010 05:28:05 13.8 C 9.06 g/m*3 13.8 C 0 km/h
1348 25-05-2010 05:40:05 13.8 C 9.17 g/m*3 13.8 C 0 km/h
1349 25-05-2010 05:52:05 13.8 C 9.06 g/m*3 13.8 C 0 km/h
1350 25-05-2010 06:04:05 14 C 9.17 g/m*3 14 C 0 km/h
Sensor: Nr:Datum:Temp:Abs-Feuchte:Windchill:Wind:
Aussen-T/F 1351 25-05-2010 06:16:05 14.1 C 9.1 g/m*3 14.1 C 0 km/h
1352 25-05-2010 06:28:05 14.5 C 9.33 g/m*3 14.5 C 0 km/h
1353 25-05-2010 06:40:05 15 C 9.23 g/m*3 15 C 0 km/h
1354 25-05-2010 06:52:05 15.3 C 9.27 g/m*3 15.3 C 0 km/h
1355 25-05-2010 07:04:05 15.4 C 9.2 g/m*3 15.4 C 0 km/h
1356 25-05-2010 07:16:05 15.5 C 8.99 g/m*3 15.5 C 0 km/h
1357 25-05-2010 07:28:06 15.6 C 9.18 g/m*3 15.6 C 0 km/h
1358 25-05-2010 07:40:06 15.6 C 9.04 g/m*3 15.6 C 0 km/h
1359 25-05-2010 07:52:06 15.9 C 9.21 g/m*3 15.9 C 0 km/h
1360 25-05-2010 08:04:06 16.1 C 9.18 g/m*3 16.1 C 0 km/h
1361 25-05-2010 08:16:06 16.2 C 9.1 g/m*3 16.2 C 0 km/h
1362 25-05-2010 08:28:06 16.5 C 8.99 g/m*3 16.5 C 0 km/h
1363 25-05-2010 08:40:03 17.2 C 9.23 g/m*3 17.2 C 0 km/h
1364 25-05-2010 08:52:01 17.9 C 9.16 g/m*3 17.9 C 0 km/h
1365 25-05-2010 09:04:02 18.1 C 8.81 g/m*3 18.1 C 0 km/h
1366 25-05-2010 09:16:01 18.2 C 8.39 g/m*3 18.2 C 0 km/h
1367 25-05-2010 09:28:01 18.5 C 8.23 g/m*3 18.5 C 0 km/h
1368 25-05-2010 09:40:02 18.9 C 7.45 g/m*3 18.9 C 0 km/h
1369 25-05-2010 09:52:02 19.4 C 7.17 g/m*3 19.4 C 0 km/h
1370 25-05-2010 10:04:02 19.8 C 7 g/m*3 19.8 C 0 km/h
1371 25-05-2010 10:16:01 20.2 C 6.99 g/m*3 20.2 C 0 km/h
1372 25-05-2010 10:28:01 20.9 C 6.92 g/m*3 20.9 C 0 km/h
1373 25-05-2010 10:40:02 21.2 C 6.67 g/m*3 21.2 C 0 km/h
1374 25-05-2010 10:52:02 21 C 6.59 g/m*3 21 C 0 km/h
1375 25-05-2010 11:04:02 21.2 C 6.49 g/m*3 21.2 C 0 km/h
Sensor: Nr:Datum:Temp:Abs-Feuchte:Windchill:Wind:
Aussen-T/F 1376 25-05-2010 11:16:02 21.2 C 7.04 g/m*3 21.2 C 0 km/h
1377 25-05-2010 11:28:02 21.2 C 6.3 g/m*3 21.2 C 0 km/h
1378 25-05-2010 11:40:02 21.8 C 6.33 g/m*3 21.8 C 0 km/h
1379 25-05-2010 11:52:02 22.8 C 6.1 g/m*3 22.8 C 0 km/h
1380 25-05-2010 12:04:01 22.6 C 5.42 g/m*3 22.6 C 0 km/h
1381 25-05-2010 12:16:01 23.7 C 5.78 g/m*3 23.7 C 0 km/h
1382 25-05-2010 12:28:01 23.5 C 5.71 g/m*3 23.5 C 0 km/h
1383 25-05-2010 12:40:02 24 C 5.44 g/m*3 24 C 0 km/h
1384 25-05-2010 12:52:02 25.9 C 6.05 g/m*3 25.9 C 0 km/h
1385 25-05-2010 13:04:01 25.5 C 5.21 g/m*3 25.5 C 0 km/h
1386 25-05-2010 13:16:02 26.2 C 5.42 g/m*3 26.2 C 0 km/h
1387 25-05-2010 13:28:02 27.3 C 5.23 g/m*3 27.3 C 0 km/h
1388 25-05-2010 13:40:01 27.8 C 5.38 g/m*3 27.8 C 0 km/h
1389 25-05-2010 13:52:02 26.8 C 5.35 g/m*3 26.8 C 0 km/h
1390 25-05-2010 14:04:01 25.3 C 5.15 g/m*3 25.3 C 0 km/h
1391 25-05-2010 14:16:02 26.1 C 5.63 g/m*3 26.1 C 0 km/h
1392 25-05-2010 14:28:03 26.5 C 5.76 g/m*3 26.5 C 0 km/h
1393 25-05-2010 14:40:01 26.7 C 5.82 g/m*3 26.7 C 0 km/h
1394 25-05-2010 14:52:02 27 C 5.4 g/m*3 27 C 0 km/h
1395 25-05-2010 15:04:02 27.4 C 6.05 g/m*3 27.4 C 0 km/h
1396 25-05-2010 15:16:02 26.3 C 5.69 g/m*3 26.3 C 0 km/h
1397 25-05-2010 15:28:02 26.6 C 5.79 g/m*3 26.6 C 0 km/h
1398 25-05-2010 15:40:02 26.5 C 5.51 g/m*3 26.5 C 0 km/h
1399 25-05-2010 15:52:02 27.7 C 5.62 g/m*3 27.7 C 0 km/h
1400 25-05-2010 16:04:02 28.1 C 5.47 g/m*3 28.1 C 0 km/h
Sensor: Nr:Datum:Temp:Abs-Feuchte:Windchill:Wind:
Aussen-T/F 1401 25-05-2010 16:16:01 27.6 C 5.85 g/m*3 27.6 C 0 km/h
1402 25-05-2010 16:28:01 27.9 C 5.95 g/m*3 27.9 C 0 km/h
1403 25-05-2010 16:40:02 27.9 C 6.22 g/m*3 27.9 C 0 km/h
1404 25-05-2010 16:52:02 28.1 C 5.74 g/m*3 28.1 C 0 km/h
1405 25-05-2010 17:04:02 28.7 C 6.22 g/m*3 28.7 C 0 km/h
1406 25-05-2010 17:16:02 27.5 C 5.82 g/m*3 27.5 C 0 km/h
1407 25-05-2010 17:28:02 28.6 C 5.9 g/m*3 28.6 C 0 km/h
1408 25-05-2010 17:40:02 28.1 C 6.02 g/m*3 28.1 C 0 km/h
1409 25-05-2010 17:52:02 27.4 C 6.05 g/m*3 27.4 C 0 km/h
1410 25-05-2010 18:04:02 27.2 C 5.99 g/m*3 27.2 C 0 km/h
1411 25-05-2010 18:16:02 26 C 5.36 g/m*3 26 C 0 km/h
1412 25-05-2010 18:28:02 27 C 5.66 g/m*3 27 C 0 km/h
1413 25-05-2010 18:40:02 25.8 C 5.78 g/m*3 25.8 C 0 km/h
1414 25-05-2010 18:52:02 25.6 C 5.71 g/m*3 25.6 C 0 km/h
1415 25-05-2010 19:04:02 25.2 C 5.82 g/m*3 25.2 C 0 km/h
1416 25-05-2010 19:16:02 25.2 C 5.82 g/m*3 25.2 C 0 km/h
1417 25-05-2010 19:28:02 24 C 5.87 g/m*3 24 C 0 km/h
1418 25-05-2010 19:40:02 24.2 C 5.94 g/m*3 24.2 C 0 km/h
1419 25-05-2010 19:52:02 23.7 C 6.2 g/m*3 23.7 C 0 km/h
1420 25-05-2010 20:04:02 23.5 C 6.13 g/m*3 23.5 C 0 km/h
1421 25-05-2010 20:16:03 23.2 C 6.24 g/m*3 23.2 C 0 km/h
1422 25-05-2010 20:28:03 22.8 C 6.3 g/m*3 22.8 C 0 km/h
1423 25-05-2010 20:40:02 22.5 C 6.19 g/m*3 22.5 C 0 km/h
1424 25-05-2010 20:52:02 22.2 C 6.28 g/m*3 22.2 C 0 km/h
1425 25-05-2010 21:04:02 22 C 6.4 g/m*3 22 C 0 km/h
Sensor: Nr:Datum:Temp:Abs-Feuchte:Windchill:Wind:
Aussen-T/F 1426 25-05-2010 21:16:02 21.7 C 6.87 g/m*3 21.7 C 0 km/h
1427 25-05-2010 21:28:02 21.2 C 7.04 g/m*3 21.2 C 0 km/h
1428 25-05-2010 21:40:02 20.7 C 7.2 g/m*3 20.7 C 0 km/h
1429 25-05-2010 21:52:02 20.3 C 6.86 g/m*3 20.3 C 0 km/h
1430 25-05-2010 22:04:02 19.7 C 6.79 g/m*3 19.7 C 0 km/h
1431 25-05-2010 22:16:02 19.5 C 6.88 g/m*3 19.5 C 0 km/h
1432 25-05-2010 22:28:02 19.3 C 6.97 g/m*3 19.3 C 0 km/h
1433 25-05-2010 22:41:48 19.4 C 7.01 g/m*3 19.4 C 0 km/h
1434 25-05-2010 22:53:48 19.3 C 6.8 g/m*3 19.3 C 0 km/h
1435 25-05-2010 23:05:48 19.1 C 6.56 g/m*3 19.1 C 0 km/h
1436 25-05-2010 23:17:48 18.8 C 6.76 g/m*3 18.8 C 0 km/h
1437 25-05-2010 23:29:48 18.8 C 7.09 g/m*3 18.8 C 0 km/h
1438 25-05-2010 23:41:48 18.7 C 6.88 g/m*3 18.7 C 0 km/h
1439 25-05-2010 23:53:48 18.8 C 6.93 g/m*3 18.8 C 0 km/h
1440 26-05-2010 00:05:48 18.9 C 6.8 g/m*3 18.9 C 0 km/h
1441 26-05-2010 00:17:48 18.7 C 6.72 g/m*3 18.7 C 0 km/h
1442 26-05-2010 00:29:48 18.5 C 6.8 g/m*3 18.5 C 0 km/h
1443 26-05-2010 00:41:48 18.3 C 6.25 g/m*3 18.3 C 0 km/h
1444 26-05-2010 00:53:48 18.2 C 6.22 g/m*3 18.2 C 0 km/h
1445 26-05-2010 01:05:48 18.1 C 6.03 g/m*3 18.1 C 0 km/h
1446 26-05-2010 01:17:49 18.1 C 6.03 g/m*3 18.1 C 0 km/h
1447 26-05-2010 01:29:49 17.9 C 6.41 g/m*3 17.9 C 0 km/h
1448 26-05-2010 01:41:49 15.8 C 7.81 g/m*3 15.8 C 0 km/h
1449 26-05-2010 01:53:49 14.4 C 7.91 g/m*3 14.4 C 0 km/h
1450 26-05-2010 02:05:49 14.2 C 8.3 g/m*3 14.2 C 0 km/h
Sensor: Nr:Datum:Temp:Abs-Feuchte:Windchill:Wind:
Aussen-T/F 1451 26-05-2010 02:17:49 14.6 C 8.38 g/m*3 14.6 C 0 km/h
1452 26-05-2010 02:29:49 14.6 C 8.38 g/m*3 14.6 C 0 km/h
1453 26-05-2010 02:41:49 14.3 C 8.72 g/m*3 14.3 C 0 km/h
1454 26-05-2010 02:53:49 14.4 C 9.02 g/m*3 14.4 C 0 km/h
1455 26-05-2010 03:05:49 14.4 C 8.9 g/m*3 14.4 C 0 km/h
1456 26-05-2010 03:17:50 14.5 C 8.58 g/m*3 14.5 C 0 km/h
1457 26-05-2010 03:29:50 14.8 C 8.49 g/m*3 14.8 C 0 km/h
1458 26-05-2010 03:41:50 14.7 C 8.18 g/m*3 14.7 C 0 km/h
1459 26-05-2010 03:53:50 14.6 C 8.01 g/m*3 14.6 C 0 km/h
1460 26-05-2010 04:05:50 14.8 C 7.85 g/m*3 14.8 C 0 km/h
1461 26-05-2010 04:17:50 14.7 C 7.81 g/m*3 14.7 C 0 km/h
1462 26-05-2010 04:29:50 14.7 C 7.68 g/m*3 14.7 C 0 km/h
1463 26-05-2010 04:41:50 14.7 C 7.55 g/m*3 14.7 C 0 km/h
1464 26-05-2010 04:53:50 14.7 C 7.55 g/m*3 14.7 C 0 km/h
1465 26-05-2010 05:05:50 14.7 C 7.3 g/m*3 14.7 C 0 km/h
1466 26-05-2010 05:17:50 14.7 C 7.43 g/m*3 14.7 C 0 km/h
1467 26-05-2010 05:29:50 14.7 C 7.3 g/m*3 14.7 C 0 km/h
1468 26-05-2010 05:41:50 14.7 C 7.43 g/m*3 14.7 C 0 km/h
1469 26-05-2010 05:53:50 14.5 C 7.34 g/m*3 14.5 C 0 km/h
1470 26-05-2010 06:05:50 14.7 C 7.55 g/m*3 14.7 C 0 km/h
1471 26-05-2010 06:17:51 14.7 C 7.68 g/m*3 14.7 C 0 km/h
1472 26-05-2010 06:29:51 14.5 C 7.84 g/m*3 14.5 C 0 km/h
1473 26-05-2010 06:41:51 14.7 C 8.06 g/m*3 14.7 C 0 km/h
1474 26-05-2010 06:53:51 14.8 C 7.85 g/m*3 14.8 C 0 km/h
1475 26-05-2010 07:05:03 15 C 7.18 g/m*3 15 C 0 km/h
Sensor: Nr:Datum:Temp:Abs-Feuchte:Windchill:Wind:
Aussen-T/F 1476 26-05-2010 07:17:02 15.4 C 6.83 g/m*3 15.4 C 0 km/h
1477 26-05-2010 07:29:02 15.8 C 6.46 g/m*3 15.8 C 0 km/h
1478 26-05-2010 07:41:03 16 C 6.27 g/m*3 16 C 0 km/h
1479 26-05-2010 07:53:02 16.2 C 6.48 g/m*3 16.2 C 0 km/h
1480 26-05-2010 08:05:02 16 C 6.4 g/m*3 16 C 0 km/h
1481 26-05-2010 08:17:02 15.9 C 6.37 g/m*3 15.9 C 0 km/h
1482 26-05-2010 08:29:02 15.8 C 6.33 g/m*3 15.8 C 0 km/h
1483 26-05-2010 08:41:02 15.9 C 6.64 g/m*3 15.9 C 0 km/h
1484 26-05-2010 08:53:02 16.2 C 6.48 g/m*3 16.2 C 0 km/h
1485 26-05-2010 09:05:02 16.9 C 6.47 g/m*3 16.9 C 0 km/h
1486 26-05-2010 09:17:02 17.1 C 6.11 g/m*3 17.1 C 0 km/h
1487 26-05-2010 09:29:02 17 C 6.22 g/m*3 17 C 0 km/h
1488 26-05-2010 09:41:01 16.4 C 6.7 g/m*3 16.4 C 0 km/h
1489 26-05-2010 09:53:02 16 C 6.81 g/m*3 16 C 0 km/h
1490 26-05-2010 10:05:01 16.4 C 6.56 g/m*3 16.4 C 0 km/h
1491 26-05-2010 10:17:02 15.8 C 7.4 g/m*3 15.8 C 0 km/h
1492 26-05-2010 10:29:02 15.1 C 8 g/m*3 15.1 C 0 km/h
1493 26-05-2010 10:41:02 14.1 C 8.86 g/m*3 14.1 C 0 km/h
1494 26-05-2010 10:53:02 14.2 C 9.4 g/m*3 14.2 C 0 km/h
1495 26-05-2010 11:05:02 13.4 C 9.18 g/m*3 13.4 C 0 km/h
1496 26-05-2010 11:17:02 12.9 C 9.35 g/m*3 12.9 C 0 km/h
1497 26-05-2010 11:29:02 13.2 C 9.64 g/m*3 13.2 C 0 km/h
1498 26-05-2010 11:41:02 13.3 C 9.82 g/m*3 13.3 C 0 km/h
1499 26-05-2010 11:53:01 13.4 C 10 g/m*3 13.4 C 0 km/h
1500 26-05-2010 12:05:02 13.2 C 9.87 g/m*3 13.2 C 0 km/h
Sensor: Nr:Datum:Temp:Abs-Feuchte:Windchill:Wind:
Aussen-T/F 1501 26-05-2010 12:17:01 13.3 C 9.94 g/m*3 13.3 C 0 km/h
1502 26-05-2010 12:29:01 13.2 C 9.87 g/m*3 13.2 C 0 km/h
1503 26-05-2010 12:41:01 12.8 C 9.74 g/m*3 12.8 C 0 km/h
1504 26-05-2010 12:53:01 13 C 9.87 g/m*3 13 C 0 km/h
1505 26-05-2010 13:05:02 12.8 C 9.74 g/m*3 12.8 C 0 km/h
1506 26-05-2010 13:17:02 13.2 C 10.1 g/m*3 13.2 C 0 km/h
1507 26-05-2010 13:29:02 12.8 C 9.74 g/m*3 12.8 C 0 km/h
1508 26-05-2010 13:41:01 12.6 C 9.51 g/m*3 12.6 C 0 km/h
1509 26-05-2010 13:53:01 13 C 9.75 g/m*3 13 C 0 km/h
1510 26-05-2010 14:05:01 13.9 C 9.83 g/m*3 13.9 C 0 km/h
1511 26-05-2010 14:17:02 15.2 C 10.12 g/m*3 15.2 C 0 km/h
1512 26-05-2010 14:29:02 15.8 C 9.83 g/m*3 15.8 C 0 km/h
1513 26-05-2010 14:41:01 15.6 C 9.44 g/m*3 15.6 C 0 km/h
1514 26-05-2010 14:53:03 15.5 C 9.39 g/m*3 15.5 C 0 km/h
1515 26-05-2010 15:05:02 15.4 C 9.33 g/m*3 15.4 C 0 km/h
1516 26-05-2010 15:17:02 14.5 C 9.45 g/m*3 14.5 C 0 km/h
1517 26-05-2010 15:29:02 14.1 C 9.59 g/m*3 14.1 C 0 km/h
1518 26-05-2010 15:41:02 14.4 C 10.01 g/m*3 14.4 C 0 km/h
1519 26-05-2010 15:53:02 15.4 C 10.77 g/m*3 15.4 C 0 km/h
1520 26-05-2010 16:05:01 17.8 C 11.23 g/m*3 17.8 C 0 km/h
1521 26-05-2010 16:17:02 19.4 C 11.18 g/m*3 19.4 C 0 km/h
1522 26-05-2010 16:29:02 20.3 C 10.73 g/m*3 20.3 C 0 km/h
1523 26-05-2010 16:41:02 18.8 C 9.99 g/m*3 18.8 C 0 km/h
1524 26-05-2010 16:53:02 18.5 C 9.97 g/m*3 18.5 C 0 km/h
1525 26-05-2010 17:05:03 16.8 C 10.58 g/m*3 16.8 C 0 km/h
Sensor: Nr:Datum:Temp:Abs-Feuchte:Windchill:Wind:
Aussen-T/F 1526 26-05-2010 17:17:02 16.2 C 10.76 g/m*3 16.2 C 0 km/h
1527 26-05-2010 17:29:02 15.6 C 11.17 g/m*3 15.6 C 0 km/h
1528 26-05-2010 17:41:02 16.2 C 11.86 g/m*3 16.2 C 0 km/h
1529 26-05-2010 17:53:02 17.1 C 12.52 g/m*3 17.1 C 0 km/h
1530 26-05-2010 18:05:02 16.1 C 11.51 g/m*3 16.1 C 0 km/h
1531 26-05-2010 18:17:02 15.5 C 11.5 g/m*3 15.5 C 0 km/h
1532 26-05-2010 18:29:02 17 C 12.73 g/m*3 17 C 0 km/h
1533 26-05-2010 18:41:01 18.7 C 13.93 g/m*3 18.7 C 0 km/h
1534 26-05-2010 18:53:02 18.8 C 13.69 g/m*3 18.8 C 0 km/h
1535 26-05-2010 19:05:01 19.1 C 13.28 g/m*3 19.1 C 0 km/h
1536 26-05-2010 19:17:01 19.2 C 13.19 g/m*3 19.2 C 0 km/h
1537 26-05-2010 19:29:01 19.2 C 13.03 g/m*3 19.2 C 0 km/h
1538 26-05-2010 19:41:02 19.3 C 12.77 g/m*3 19.3 C 0 km/h
1539 26-05-2010 19:53:02 18.1 C 11.9 g/m*3 18.1 C 0 km/h
1540 26-05-2010 20:05:02 17.2 C 11.72 g/m*3 17.2 C 0 km/h
1541 26-05-2010 20:17:02 17.2 C 11.86 g/m*3 17.2 C 0 km/h
1542 26-05-2010 20:29:02 17 C 11.87 g/m*3 17 C 0 km/h
1543 26-05-2010 20:41:02 16.7 C 11.8 g/m*3 16.7 C 0 km/h
1544 26-05-2010 20:53:02 16.2 C 11.58 g/m*3 16.2 C 0 km/h
1545 26-05-2010 21:05:03 16.1 C 11.65 g/m*3 16.1 C 0 km/h
1546 26-05-2010 21:17:02 16 C 11.72 g/m*3 16 C 0 km/h
1547 26-05-2010 21:29:02 15.7 C 10.97 g/m*3 15.7 C 0 km/h
1548 26-05-2010 21:41:03 14.6 C 9.89 g/m*3 14.6 C 0 km/h
1549 26-05-2010 21:53:02 13.6 C 9.18 g/m*3 13.6 C 0 km/h
1550 26-05-2010 22:05:02 13.1 C 8.9 g/m*3 13.1 C 0 km/h
Sensor: Nr:Datum:Temp:Abs-Feuchte:Windchill:Wind:
Aussen-T/F 1551 26-05-2010 22:18:04 13.1 C 9.01 g/m*3 13.1 C 0 km/h
1552 26-05-2010 22:30:04 12.9 C 9.02 g/m*3 12.9 C 0 km/h
1553 26-05-2010 22:42:04 12.6 C 8.63 g/m*3 12.6 C 0 km/h
1554 26-05-2010 22:54:04 12.6 C 8.63 g/m*3 12.6 C 0 km/h
1555 26-05-2010 23:06:04 12.7 C 8.91 g/m*3 12.7 C 0 km/h
1556 26-05-2010 23:18:04 12.5 C 8.47 g/m*3 12.5 C 0 km/h
1557 26-05-2010 23:30:04 12.4 C 8.3 g/m*3 12.4 C 0 km/h
1558 26-05-2010 23:42:05 12.5 C 8.47 g/m*3 12.5 C 0 km/h
1559 26-05-2010 23:54:05 12.5 C 8.36 g/m*3 12.5 C 0 km/h
1560 27-05-2010 00:06:05 12.5 C 8.47 g/m*3 12.5 C 0 km/h
1561 27-05-2010 00:18:05 12.4 C 8.41 g/m*3 12.4 C 0 km/h
1562 27-05-2010 00:30:05 12.4 C 8.41 g/m*3 12.4 C 0 km/h
1563 27-05-2010 00:42:05 12.3 C 8.36 g/m*3 12.3 C 0 km/h
1564 27-05-2010 00:54:05 12.2 C 8.31 g/m*3 12.2 C 0 km/h
1565 27-05-2010 01:06:05 12.3 C 8.25 g/m*3 12.3 C 0 km/h
1566 27-05-2010 01:18:05 12.2 C 8.2 g/m*3 12.2 C 0 km/h
1567 27-05-2010 01:30:05 11.7 C 7.95 g/m*3 11.7 C 0 km/h
1568 27-05-2010 01:42:05 11.8 C 8.21 g/m*3 11.8 C 0 km/h
1569 27-05-2010 01:54:05 11.5 C 8.16 g/m*3 11.5 C 0 km/h
1570 27-05-2010 02:06:05 11.4 C 8.21 g/m*3 11.4 C 0 km/h
1571 27-05-2010 02:18:05 11.3 C 8.16 g/m*3 11.3 C 0 km/h
1572 27-05-2010 02:30:05 11.2 C 8.01 g/m*3 11.2 C 0 km/h
1573 27-05-2010 02:42:05 11.2 C 8.11 g/m*3 11.2 C 0 km/h
1574 27-05-2010 02:54:05 11.1 C 8.06 g/m*3 11.1 C 0 km/h
1575 27-05-2010 03:06:05 11.1 C 8.06 g/m*3 11.1 C 0 km/h
Sensor: Nr:Datum:Temp:Abs-Feuchte:Windchill:Wind:
Aussen-T/F 1576 27-05-2010 03:18:05 11.3 C 8.06 g/m*3 11.3 C 0 km/h
1577 27-05-2010 03:30:05 11.2 C 8.01 g/m*3 11.2 C 0 km/h
1578 27-05-2010 03:42:05 11.2 C 7.91 g/m*3 11.2 C 0 km/h
1579 27-05-2010 03:54:05 11 C 7.81 g/m*3 11 C 0 km/h
1580 27-05-2010 04:06:06 11 C 7.91 g/m*3 11 C 0 km/h
1581 27-05-2010 04:18:06 11 C 7.91 g/m*3 11 C 0 km/h
1582 27-05-2010 04:30:06 10.9 C 7.86 g/m*3 10.9 C 0 km/h
1583 27-05-2010 04:42:06 10.8 C 7.81 g/m*3 10.8 C 0 km/h
1584 27-05-2010 04:54:06 10.7 C 7.76 g/m*3 10.7 C 0 km/h
1585 27-05-2010 05:06:06 10.7 C 7.76 g/m*3 10.7 C 0 km/h
1586 27-05-2010 05:18:06 10.7 C 7.76 g/m*3 10.7 C 0 km/h
1587 27-05-2010 05:30:06 10.7 C 7.76 g/m*3 10.7 C 0 km/h
1588 27-05-2010 05:42:06 10.8 C 7.81 g/m*3 10.8 C 0 km/h
1589 27-05-2010 05:54:06 10.8 C 7.81 g/m*3 10.8 C 0 km/h
1590 27-05-2010 06:06:06 10.8 C 7.81 g/m*3 10.8 C 0 km/h
1591 27-05-2010 06:18:06 10.9 C 7.86 g/m*3 10.9 C 0 km/h
1592 27-05-2010 06:30:06 11.1 C 7.86 g/m*3 11.1 C 0 km/h
1593 27-05-2010 06:42:03 11.1 C 7.86 g/m*3 11.1 C 0 km/h
1594 27-05-2010 06:54:02 11.1 C 7.86 g/m*3 11.1 C 0 km/h
1595 27-05-2010 07:06:02 11.1 C 7.96 g/m*3 11.1 C 0 km/h
1596 27-05-2010 07:18:03 11.2 C 7.91 g/m*3 11.2 C 0 km/h
1597 27-05-2010 07:30:03 11.4 C 7.9 g/m*3 11.4 C 0 km/h
1598 27-05-2010 07:42:02 11.5 C 8.06 g/m*3 11.5 C 0 km/h
1599 27-05-2010 07:54:03 11.3 C 7.96 g/m*3 11.3 C 0 km/h
1600 27-05-2010 08:06:02 11.4 C 8.11 g/m*3 11.4 C 0 km/h
Sensor: Nr:Datum:Temp:Abs-Feuchte:Windchill:Wind:
Aussen-T/F 1601 27-05-2010 08:18:02 11.7 C 8.16 g/m*3 11.7 C 0 km/h
1602 27-05-2010 08:30:03 11.7 C 8.16 g/m*3 11.7 C 0 km/h
1603 27-05-2010 08:42:02 12 C 8.1 g/m*3 12 C 0 km/h
1604 27-05-2010 08:54:02 11.8 C 7.79 g/m*3 11.8 C 0 km/h
1605 27-05-2010 09:06:01 12 C 7.89 g/m*3 12 C 0 km/h
1606 27-05-2010 09:18:02 11.9 C 7.73 g/m*3 11.9 C 0 km/h
1607 27-05-2010 09:30:02 11.8 C 7.79 g/m*3 11.8 C 0 km/h
1608 27-05-2010 09:42:01 12.2 C 7.88 g/m*3 12.2 C 0 km/h
1609 27-05-2010 09:54:02 12.2 C 7.66 g/m*3 12.2 C 0 km/h
1610 27-05-2010 10:06:02 12.4 C 7.65 g/m*3 12.4 C 0 km/h
1611 27-05-2010 10:18:02 13 C 7.71 g/m*3 13 C 0 km/h
1612 27-05-2010 10:30:02 13.2 C 7.58 g/m*3 13.2 C 0 km/h
1613 27-05-2010 10:42:03 13.4 C 7.56 g/m*3 13.4 C 0 km/h
1614 27-05-2010 10:54:02 13.2 C 7.23 g/m*3 13.2 C 0 km/h
1615 27-05-2010 11:06:02 14.1 C 7.16 g/m*3 14.1 C 0 km/h
1616 27-05-2010 11:18:01 14.6 C 7.13 g/m*3 14.6 C 0 km/h
1617 27-05-2010 11:30:01 14.4 C 7.17 g/m*3 14.4 C 0 km/h
1618 27-05-2010 11:42:02 15 C 6.8 g/m*3 15 C 0 km/h
1619 27-05-2010 11:54:02 15.9 C 7.31 g/m*3 15.9 C 0 km/h
1620 27-05-2010 12:06:02 16.1 C 6.72 g/m*3 16.1 C 0 km/h
1621 27-05-2010 12:18:01 16.4 C 6.7 g/m*3 16.4 C 0 km/h
1622 27-05-2010 12:30:01 16.7 C 6.82 g/m*3 16.7 C 0 km/h
1623 27-05-2010 12:42:02 16 C 6.68 g/m*3 16 C 0 km/h
1624 27-05-2010 12:54:02 15.5 C 6.74 g/m*3 15.5 C 0 km/h
1625 27-05-2010 13:06:02 16 C 6.68 g/m*3 16 C 0 km/h
Sensor: Nr:Datum:Temp:Abs-Feuchte:Windchill:Wind:
Aussen-T/F 1626 27-05-2010 13:18:02 16.5 C 6.74 g/m*3 16.5 C 0 km/h
1627 27-05-2010 13:30:02 17.6 C 6.45 g/m*3 17.6 C 0 km/h
1628 27-05-2010 13:42:02 18 C 6.45 g/m*3 18 C 0 km/h
1629 27-05-2010 13:54:02 19.1 C 6.39 g/m*3 19.1 C 0 km/h
1630 27-05-2010 14:06:03 19.6 C 6.58 g/m*3 19.6 C 0 km/h
1631 27-05-2010 14:18:02 18.7 C 6.08 g/m*3 18.7 C 0 km/h
1632 27-05-2010 14:30:02 20.6 C 7.16 g/m*3 20.6 C 0 km/h
1633 27-05-2010 14:42:02 21.7 C 6.68 g/m*3 21.7 C 0 km/h
1634 27-05-2010 14:54:02 22.5 C 6.59 g/m*3 22.5 C 0 km/h
1635 27-05-2010 15:06:01 22.5 C 6.79 g/m*3 22.5 C 0 km/h
1636 27-05-2010 15:18:02 21.5 C 6.22 g/m*3 21.5 C 0 km/h
1637 27-05-2010 15:30:02 21.9 C 6.18 g/m*3 21.9 C 0 km/h
1638 27-05-2010 15:42:02 22.3 C 6.12 g/m*3 22.3 C 0 km/h
1639 27-05-2010 15:54:03 23.3 C 6.69 g/m*3 23.3 C 0 km/h
1640 27-05-2010 16:06:02 23.7 C 5.99 g/m*3 23.7 C 0 km/h
1641 27-05-2010 16:18:02 23.5 C 6.34 g/m*3 23.5 C 0 km/h
1642 27-05-2010 16:30:02 23.3 C 6.48 g/m*3 23.3 C 0 km/h
1643 27-05-2010 16:42:02 22.9 C 6.74 g/m*3 22.9 C 0 km/h
1644 27-05-2010 16:54:02 23.4 C 6.73 g/m*3 23.4 C 0 km/h
1645 27-05-2010 17:06:02 23.6 C 6.59 g/m*3 23.6 C 0 km/h
1646 27-05-2010 17:18:02 23.3 C 6.48 g/m*3 23.3 C 0 km/h
1647 27-05-2010 17:30:02 23.5 C 6.56 g/m*3 23.5 C 0 km/h
1648 27-05-2010 17:42:02 23.4 C 6.73 g/m*3 23.4 C 0 km/h
1649 27-05-2010 17:54:01 23.4 C 6.94 g/m*3 23.4 C 0 km/h
1650 27-05-2010 18:06:02 24.1 C 6.78 g/m*3 24.1 C 0 km/h
Sensor: Nr:Datum:Temp:Abs-Feuchte:Windchill:Wind:
Aussen-T/F 1651 27-05-2010 18:18:02 23.3 C 6.69 g/m*3 23.3 C 0 km/h
1652 27-05-2010 18:30:02 22.3 C 7.5 g/m*3 22.3 C 0 km/h
1653 27-05-2010 18:42:02 22.4 C 7.35 g/m*3 22.4 C 0 km/h
1654 27-05-2010 18:54:01 23.3 C 7.32 g/m*3 23.3 C 0 km/h
1655 27-05-2010 19:06:02 22.7 C 7.88 g/m*3 22.7 C 0 km/h
1656 27-05-2010 19:18:02 21.6 C 7.78 g/m*3 21.6 C 0 km/h
1657 27-05-2010 19:30:02 20.6 C 8.59 g/m*3 20.6 C 0 km/h
1658 27-05-2010 19:42:01 19.9 C 8.76 g/m*3 19.9 C 0 km/h
1659 27-05-2010 19:54:02 19.4 C 8.51 g/m*3 19.4 C 0 km/h
1660 27-05-2010 20:06:01 19.1 C 8.36 g/m*3 19.1 C 0 km/h
1661 27-05-2010 20:18:02 18.7 C 8.49 g/m*3 18.7 C 0 km/h
1662 27-05-2010 20:30:02 18.3 C 8.44 g/m*3 18.3 C 0 km/h
1663 27-05-2010 20:42:01 17.5 C 9.39 g/m*3 17.5 C 0 km/h
1664 27-05-2010 20:54:01 16.6 C 9.61 g/m*3 16.6 C 0 km/h
1665 27-05-2010 21:06:02 15.8 C 9.56 g/m*3 15.8 C 0 km/h
1666 27-05-2010 21:18:01 15.6 C 9.58 g/m*3 15.6 C 0 km/h
1667 27-05-2010 21:30:01 15.8 C 9.69 g/m*3 15.8 C 0 km/h
1668 27-05-2010 21:42:01 15.9 C 9.62 g/m*3 15.9 C 0 km/h
1669 27-05-2010 21:54:01 15.8 C 9.29 g/m*3 15.8 C 0 km/h
1670 27-05-2010 22:06:01 16 C 9.4 g/m*3 16 C 0 km/h
1671 27-05-2010 22:18:01 16.1 C 9.18 g/m*3 16.1 C 0 km/h
1672 27-05-2010 22:30:01 16.2 C 9.24 g/m*3 16.2 C 0 km/h
1673 27-05-2010 22:42:02 16 C 9.13 g/m*3 16 C 0 km/h
1674 27-05-2010 22:55:03 16 C 9.4 g/m*3 16 C 0 km/h
1675 27-05-2010 23:07:03 15.6 C 9.71 g/m*3 15.6 C 0 km/h
Sensor: Nr:Datum:Temp:Abs-Feuchte:Windchill:Wind:
Aussen-T/F 1676 27-05-2010 23:19:03 15.6 C 9.71 g/m*3 15.6 C 0 km/h
1677 27-05-2010 23:31:03 15.7 C 9.77 g/m*3 15.7 C 0 km/h
1678 27-05-2010 23:43:03 15.6 C 9.71 g/m*3 15.6 C 0 km/h
1679 27-05-2010 23:55:03 15.3 C 9.66 g/m*3 15.3 C 0 km/h
1680 28-05-2010 00:07:03 14.9 C 9.69 g/m*3 14.9 C 0 km/h
1681 28-05-2010 00:19:03 14.9 C 9.81 g/m*3 14.9 C 0 km/h
1682 28-05-2010 00:31:03 15 C 9.75 g/m*3 15 C 0 km/h
1683 28-05-2010 00:43:03 15 C 9.49 g/m*3 15 C 0 km/h
1684 28-05-2010 00:55:03 15.2 C 9.48 g/m*3 15.2 C 0 km/h
1685 28-05-2010 01:07:03 15.2 C 9.35 g/m*3 15.2 C 0 km/h
1686 28-05-2010 01:19:03 15.2 C 9.22 g/m*3 15.2 C 0 km/h
1687 28-05-2010 01:31:03 15.2 C 9.09 g/m*3 15.2 C 0 km/h
1688 28-05-2010 01:43:03 15.1 C 9.03 g/m*3 15.1 C 0 km/h
1689 28-05-2010 01:55:03 15 C 9.1 g/m*3 15 C 0 km/h
1690 28-05-2010 02:07:04 14.8 C 9.12 g/m*3 14.8 C 0 km/h
1691 28-05-2010 02:19:04 14.9 C 9.3 g/m*3 14.9 C 0 km/h
1692 28-05-2010 02:31:04 14.8 C 9.25 g/m*3 14.8 C 0 km/h
1693 28-05-2010 02:43:04 14.9 C 9.3 g/m*3 14.9 C 0 km/h
1694 28-05-2010 02:55:04 14.9 C 9.18 g/m*3 14.9 C 0 km/h
1695 28-05-2010 03:07:04 14.9 C 9.18 g/m*3 14.9 C 0 km/h
1696 28-05-2010 03:19:04 15 C 9.1 g/m*3 15 C 0 km/h
1697 28-05-2010 03:31:04 14.7 C 9.19 g/m*3 14.7 C 0 km/h
1698 28-05-2010 03:43:04 14.7 C 9.19 g/m*3 14.7 C 0 km/h
1699 28-05-2010 03:55:04 14.6 C 9.13 g/m*3 14.6 C 0 km/h
1700 28-05-2010 04:07:04 14.6 C 9.01 g/m*3 14.6 C 0 km/h
Sensor: Nr:Datum:Temp:Abs-Feuchte:Windchill:Wind:
Aussen-T/F 1701 28-05-2010 04:19:04 14.6 C 9.01 g/m*3 14.6 C 0 km/h
1702 28-05-2010 04:31:04 14.5 C 8.95 g/m*3 14.5 C 0 km/h
1703 28-05-2010 04:43:04 14.1 C 9.34 g/m*3 14.1 C 0 km/h
1704 28-05-2010 04:55:04 14 C 9.65 g/m*3 14 C 0 km/h
1705 28-05-2010 05:07:04 13.8 C 9.77 g/m*3 13.8 C 0 km/h
1706 28-05-2010 05:19:04 13.7 C 9.83 g/m*3 13.7 C 0 km/h
1707 28-05-2010 05:31:04 13.7 C 9.83 g/m*3 13.7 C 0 km/h
1708 28-05-2010 05:43:04 13.7 C 9.95 g/m*3 13.7 C 0 km/h
1709 28-05-2010 05:55:04 13.6 C 10 g/m*3 13.6 C 0 km/h
1710 28-05-2010 06:07:04 13.6 C 10 g/m*3 13.6 C 0 km/h
1711 28-05-2010 06:19:04 13.5 C 9.94 g/m*3 13.5 C 0 km/h
1712 28-05-2010 06:31:04 13.5 C 10.06 g/m*3 13.5 C 0 km/h
1713 28-05-2010 06:43:05 13.7 C 10.18 g/m*3 13.7 C 0 km/h
1714 28-05-2010 06:55:05 13.8 C 10.37 g/m*3 13.8 C 0 km/h
1715 28-05-2010 07:07:03 13.8 C 10.37 g/m*3 13.8 C 0 km/h
1716 28-05-2010 07:19:03 13.8 C 10.37 g/m*3 13.8 C 0 km/h
1717 28-05-2010 07:31:02 14.1 C 10.56 g/m*3 14.1 C 0 km/h
1718 28-05-2010 07:43:02 14.1 C 10.56 g/m*3 14.1 C 0 km/h
1719 28-05-2010 07:55:01 14.1 C 10.56 g/m*3 14.1 C 0 km/h
1720 28-05-2010 08:07:02 14.2 C 10.5 g/m*3 14.2 C 0 km/h
1721 28-05-2010 08:19:02 14.1 C 10.44 g/m*3 14.1 C 0 km/h
1722 28-05-2010 08:31:01 14.2 C 10.5 g/m*3 14.2 C 0 km/h
1723 28-05-2010 08:43:01 14.5 C 10.7 g/m*3 14.5 C 0 km/h
1724 28-05-2010 08:55:01 14.8 C 10.77 g/m*3 14.8 C 0 km/h
1725 28-05-2010 09:07:01 15.2 C 10.64 g/m*3 15.2 C 0 km/h
Sensor: Nr:Datum:Temp:Abs-Feuchte:Windchill:Wind:
Aussen-T/F 1726 28-05-2010 09:19:02 15.2 C 10.25 g/m*3 15.2 C 0 km/h
1727 28-05-2010 09:31:01 15.2 C 9.48 g/m*3 15.2 C 0 km/h
1728 28-05-2010 09:43:01 15.8 C 9.29 g/m*3 15.8 C 0 km/h
1729 28-05-2010 09:55:03 14.2 C 8.91 g/m*3 14.2 C 0 km/h
1730 28-05-2010 10:07:02 15.5 C 9.25 g/m*3 15.5 C 0 km/h
1731 28-05-2010 10:19:02 15.5 C 8.59 g/m*3 15.5 C 0 km/h
1732 28-05-2010 10:31:02 15.6 C 8.25 g/m*3 15.6 C 0 km/h
1733 28-05-2010 10:43:02 15.6 C 8.51 g/m*3 15.6 C 0 km/h
1734 28-05-2010 10:55:02 16 C 8.17 g/m*3 16 C 0 km/h
1735 28-05-2010 11:07:02 16.3 C 7.63 g/m*3 16.3 C 0 km/h
1736 28-05-2010 11:19:02 17.6 C 7.65 g/m*3 17.6 C 0 km/h
1737 28-05-2010 11:31:02 16.9 C 7.05 g/m*3 16.9 C 0 km/h
1738 28-05-2010 11:43:02 18 C 7.22 g/m*3 18 C 0 km/h
1739 28-05-2010 11:55:02 17.2 C 6.74 g/m*3 17.2 C 0 km/h
1740 28-05-2010 12:07:01 17.8 C 6.83 g/m*3 17.8 C 0 km/h
1741 28-05-2010 12:19:01 16.9 C 7.34 g/m*3 16.9 C 0 km/h
1742 28-05-2010 12:31:02 17.5 C 7.01 g/m*3 17.5 C 0 km/h
1743 28-05-2010 12:43:02 19.3 C 7.13 g/m*3 19.3 C 0 km/h
1744 28-05-2010 12:55:02 20.5 C 7.3 g/m*3 20.5 C 0 km/h
1745 28-05-2010 13:07:02 20.4 C 6.72 g/m*3 20.4 C 0 km/h
1746 28-05-2010 13:19:02 21.9 C 6.95 g/m*3 21.9 C 0 km/h
1747 28-05-2010 13:31:02 21 C 6.41 g/m*3 21 C 0 km/h
1748 28-05-2010 13:43:02 19.3 C 6.63 g/m*3 19.3 C 0 km/h
1749 28-05-2010 13:55:02 18.6 C 6.37 g/m*3 18.6 C 0 km/h
1750 28-05-2010 14:07:03 20 C 6.39 g/m*3 20 C 0 km/h
Sensor: Nr:Datum:Temp:Abs-Feuchte:Windchill:Wind:
Aussen-T/F 1751 28-05-2010 14:19:02 21.2 C 6.49 g/m*3 21.2 C 0 km/h
1752 28-05-2010 14:31:02 19.1 C 6.07 g/m*3 19.1 C 0 km/h
1753 28-05-2010 14:43:02 18.2 C 6.22 g/m*3 18.2 C 0 km/h
1754 28-05-2010 14:55:01 18.5 C 5.85 g/m*3 18.5 C 0 km/h
1755 28-05-2010 15:07:02 19.1 C 5.9 g/m*3 19.1 C 0 km/h
1756 28-05-2010 15:19:01 21.6 C 5.88 g/m*3 21.6 C 0 km/h
1757 28-05-2010 15:31:01 22.6 C 5.42 g/m*3 22.6 C 0 km/h
1758 28-05-2010 15:43:01 22.1 C 4.88 g/m*3 22.1 C 0 km/h
1759 28-05-2010 15:55:01 23.2 C 4.99 g/m*3 23.2 C 0 km/h
1760 28-05-2010 16:07:02 22.6 C 4.62 g/m*3 22.6 C 0 km/h
1761 28-05-2010 16:19:02 23.4 C 4.63 g/m*3 23.4 C 0 km/h
1762 28-05-2010 16:31:01 23.5 C 4.44 g/m*3 23.5 C 0 km/h
1763 28-05-2010 16:43:01 22.6 C 4.02 g/m*3 22.6 C 0 km/h
1764 28-05-2010 16:55:01 23.2 C 4.16 g/m*3 23.2 C 0 km/h
1765 28-05-2010 17:07:01 22.2 C 3.93 g/m*3 22.2 C 0 km/h
1766 28-05-2010 17:19:02 23 C 4.11 g/m*3 23 C 0 km/h
1767 28-05-2010 17:31:01 24.2 C 4.4 g/m*3 24.2 C 0 km/h
1768 28-05-2010 17:43:01 23.3 C 4.18 g/m*3 23.3 C 0 km/h
1769 28-05-2010 17:55:03 23.3 C 4.18 g/m*3 23.3 C 0 km/h
1770 28-05-2010 18:07:02 22.7 C 4.04 g/m*3 22.7 C 0 km/h
1771 28-05-2010 18:19:02 22.8 C 4.06 g/m*3 22.8 C 0 km/h
1772 28-05-2010 18:31:02 23.1 C 4.13 g/m*3 23.1 C 0 km/h
1773 28-05-2010 18:43:02 22.5 C 3.99 g/m*3 22.5 C 0 km/h
1774 28-05-2010 18:55:02 22 C 4.27 g/m*3 22 C 0 km/h
1775 28-05-2010 19:07:01 21.7 C 4.77 g/m*3 21.7 C 0 km/h
Sensor: Nr:Datum:Temp:Abs-Feuchte:Windchill:Wind:
Aussen-T/F 1776 28-05-2010 19:19:02 22 C 4.27 g/m*3 22 C 0 km/h
1777 28-05-2010 19:31:02 22.5 C 4.79 g/m*3 22.5 C 0 km/h
1778 28-05-2010 19:43:02 22.1 C 4.88 g/m*3 22.1 C 0 km/h
1779 28-05-2010 19:55:01 22.4 C 4.57 g/m*3 22.4 C 0 km/h
1780 28-05-2010 20:07:01 21.2 C 4.63 g/m*3 21.2 C 0 km/h
1781 28-05-2010 20:19:01 19.7 C 4.92 g/m*3 19.7 C 0 km/h
1782 28-05-2010 20:31:01 19.2 C 5.11 g/m*3 19.2 C 0 km/h
1783 28-05-2010 20:43:01 19.3 C 5.14 g/m*3 19.3 C 0 km/h
1784 28-05-2010 20:55:02 19 C 5.05 g/m*3 19 C 0 km/h
1785 28-05-2010 21:07:02 18.6 C 5.09 g/m*3 18.6 C 0 km/h
1786 28-05-2010 21:19:02 18.1 C 5.25 g/m*3 18.1 C 0 km/h
1787 28-05-2010 21:31:02 17.4 C 5.34 g/m*3 17.4 C 0 km/h
1788 28-05-2010 21:43:02 17 C 5.35 g/m*3 17 C 0 km/h
1789 28-05-2010 21:55:02 16.6 C 5.65 g/m*3 16.6 C 0 km/h
1790 28-05-2010 22:07:02 16.1 C 5.76 g/m*3 16.1 C 0 km/h
1791 28-05-2010 22:19:01 15.7 C 6.02 g/m*3 15.7 C 0 km/h
1792 28-05-2010 22:32:03 15.6 C 5.85 g/m*3 15.6 C 0 km/h
1793 28-05-2010 22:44:03 15.4 C 6.04 g/m*3 15.4 C 0 km/h
1794 28-05-2010 22:56:03 15 C 6.03 g/m*3 15 C 0 km/h
1795 28-05-2010 23:08:03 14.7 C 6.04 g/m*3 14.7 C 0 km/h
1796 28-05-2010 23:20:03 14.5 C 5.97 g/m*3 14.5 C 0 km/h
1797 28-05-2010 23:32:03 14.2 C 6.11 g/m*3 14.2 C 0 km/h
1798 28-05-2010 23:44:03 13.6 C 6.47 g/m*3 13.6 C 0 km/h
1799 28-05-2010 23:56:03 13.3 C 6.47 g/m*3 13.3 C 0 km/h
1800 29-05-2010 00:08:03 13.1 C 6.5 g/m*3 13.1 C 0 km/h
Sensor: Nr:Datum:Temp:Abs-Feuchte:Windchill:Wind:
Aussen-T/F 1801 29-05-2010 00:20:03 13.1 C 6.62 g/m*3 13.1 C 0 km/h
1802 29-05-2010 00:32:03 12.9 C 6.65 g/m*3 12.9 C 0 km/h
1803 29-05-2010 00:44:03 12.7 C 6.68 g/m*3 12.7 C 0 km/h
1804 29-05-2010 00:56:03 12.5 C 6.71 g/m*3 12.5 C 0 km/h
1805 29-05-2010 01:08:03 12.3 C 6.62 g/m*3 12.3 C 0 km/h
1806 29-05-2010 01:20:03 12.1 C 6.65 g/m*3 12.1 C 0 km/h
1807 29-05-2010 01:32:04 11.9 C 6.78 g/m*3 11.9 C 0 km/h
1808 29-05-2010 01:44:04 11.7 C 6.9 g/m*3 11.7 C 0 km/h
1809 29-05-2010 01:56:04 11.6 C 6.86 g/m*3 11.6 C 0 km/h
1810 29-05-2010 02:08:04 11.3 C 6.94 g/m*3 11.3 C 0 km/h
1811 29-05-2010 02:20:04 11 C 6.91 g/m*3 11 C 0 km/h
1812 29-05-2010 02:32:04 10.7 C 6.97 g/m*3 10.7 C 0 km/h
1813 29-05-2010 02:44:04 10.6 C 6.93 g/m*3 10.6 C 0 km/h
1814 29-05-2010 02:56:04 10.5 C 6.98 g/m*3 10.5 C 0 km/h
1815 29-05-2010 03:08:04 10.2 C 6.95 g/m*3 10.2 C 0 km/h
1816 29-05-2010 03:20:04 10.1 C 7 g/m*3 10.1 C 0 km/h
1817 29-05-2010 03:32:04 9.9 C 7 g/m*3 9.9 C 0 km/h
1818 29-05-2010 03:44:04 9.9 C 7.1 g/m*3 9.9 C 0 km/h
1819 29-05-2010 03:56:04 9.8 C 7.05 g/m*3 9.8 C 0 km/h
1820 29-05-2010 04:08:04 9.8 C 7.05 g/m*3 9.8 C 0 km/h
1821 29-05-2010 04:20:04 9.7 C 7.1 g/m*3 9.7 C 0 km/h
1822 29-05-2010 04:32:04 9.7 C 7.1 g/m*3 9.7 C 0 km/h
1823 29-05-2010 04:44:04 9.6 C 7.05 g/m*3 9.6 C 0 km/h
1824 29-05-2010 04:56:04 9.7 C 7.1 g/m*3 9.7 C 0 km/h
1825 29-05-2010 05:08:04 9.6 C 6.96 g/m*3 9.6 C 0 km/h
Sensor: Nr:Datum:Temp:Abs-Feuchte:Windchill:Wind:
Aussen-T/F 1826 29-05-2010 05:20:04 9.5 C 7.01 g/m*3 9.5 C 0 km/h
1827 29-05-2010 05:32:05 9.5 C 7.01 g/m*3 9.5 C 0 km/h
1828 29-05-2010 05:44:05 9.5 C 7.01 g/m*3 9.5 C 0 km/h
1829 29-05-2010 05:56:05 9.3 C 7.01 g/m*3 9.3 C 0 km/h
1830 29-05-2010 06:08:05 9.4 C 7.05 g/m*3 9.4 C 0 km/h
1831 29-05-2010 06:20:05 9.6 C 7.15 g/m*3 9.6 C 0 km/h
1832 29-05-2010 06:32:05 9.9 C 7.28 g/m*3 9.9 C 0 km/h
1833 29-05-2010 06:44:05 10 C 7.14 g/m*3 10 C 0 km/h
1834 29-05-2010 06:56:05 10 C 7.05 g/m*3 10 C 0 km/h
1835 29-05-2010 07:08:05 9.9 C 7.1 g/m*3 9.9 C 0 km/h
1836 29-05-2010 07:20:05 10.1 C 7.09 g/m*3 10.1 C 0 km/h
1837 29-05-2010 07:32:05 10.2 C 7.14 g/m*3 10.2 C 0 km/h
1838 29-05-2010 07:44:05 10.3 C 7.18 g/m*3 10.3 C 0 km/h
1839 29-05-2010 07:56:05 10.4 C 7.23 g/m*3 10.4 C 0 km/h
1840 29-05-2010 08:08:05 10.7 C 7.37 g/m*3 10.7 C 0 km/h
1841 29-05-2010 08:20:05 11 C 7.31 g/m*3 11 C 0 km/h
1842 29-05-2010 08:32:02 11.3 C 7.24 g/m*3 11.3 C 0 km/h
1843 29-05-2010 08:44:02 11.7 C 7.11 g/m*3 11.7 C 0 km/h
1844 29-05-2010 08:56:02 11.5 C 6.92 g/m*3 11.5 C 0 km/h
1845 29-05-2010 09:08:02 11.8 C 7.16 g/m*3 11.8 C 0 km/h
1846 29-05-2010 09:20:01 12.2 C 7.01 g/m*3 12.2 C 0 km/h
1847 29-05-2010 09:32:02 12.7 C 7.01 g/m*3 12.7 C 0 km/h
1848 29-05-2010 09:44:02 13.4 C 7.09 g/m*3 13.4 C 0 km/h
1849 29-05-2010 09:56:02 14.2 C 6.96 g/m*3 14.2 C 0 km/h
1850 29-05-2010 10:08:02 15 C 6.92 g/m*3 15 C 0 km/h
Sensor: Nr:Datum:Temp:Abs-Feuchte:Windchill:Wind:
Aussen-T/F 1851 29-05-2010 10:20:02 16.1 C 7.26 g/m*3 16.1 C 0 km/h
1852 29-05-2010 10:32:02 17.4 C 7.41 g/m*3 17.4 C 0 km/h
1853 29-05-2010 10:44:02 17.9 C 7.02 g/m*3 17.9 C 0 km/h
1854 29-05-2010 10:56:02 18.1 C 6.8 g/m*3 18.1 C 0 km/h
1855 29-05-2010 11:08:02 18.4 C 6.92 g/m*3 18.4 C 0 km/h
1856 29-05-2010 11:20:02 18.1 C 7.42 g/m*3 18.1 C 0 km/h
1857 29-05-2010 11:32:02 18.4 C 7.55 g/m*3 18.4 C 0 km/h
1858 29-05-2010 11:44:02 18.8 C 7.41 g/m*3 18.8 C 0 km/h
1859 29-05-2010 11:56:01 19.6 C 7.26 g/m*3 19.6 C 0 km/h
1860 29-05-2010 12:08:01 20.9 C 6.01 g/m*3 20.9 C 0 km/h
1861 29-05-2010 12:20:01 21.8 C 5.76 g/m*3 21.8 C 0 km/h
1862 29-05-2010 12:32:01 21.6 C 5.12 g/m*3 21.6 C 0 km/h
1863 29-05-2010 12:44:01 21.2 C 5.19 g/m*3 21.2 C 0 km/h
1864 29-05-2010 12:56:01 23.1 C 5.17 g/m*3 23.1 C 0 km/h
1865 29-05-2010 13:08:01 24 C 4.79 g/m*3 24 C 0 km/h
1866 29-05-2010 13:20:02 25.1 C 5.32 g/m*3 25.1 C 0 km/h
1867 29-05-2010 13:32:01 25 C 4.6 g/m*3 25 C 0 km/h
1868 29-05-2010 13:44:01 25.5 C 4.73 g/m*3 25.5 C 0 km/h
1869 29-05-2010 13:56:02 24.6 C 4.73 g/m*3 24.6 C 0 km/h
1870 29-05-2010 14:08:01 23.7 C 5.13 g/m*3 23.7 C 0 km/h
1871 29-05-2010 14:20:02 23.8 C 5.38 g/m*3 23.8 C 0 km/h
1872 29-05-2010 14:32:01 23.7 C 5.13 g/m*3 23.7 C 0 km/h
1873 29-05-2010 14:44:01 23.3 C 5.23 g/m*3 23.3 C 0 km/h
1874 29-05-2010 14:56:03 22.6 C 5.62 g/m*3 22.6 C 0 km/h
1875 29-05-2010 15:08:02 23 C 5.55 g/m*3 23 C 0 km/h
Sensor: Nr:Datum:Temp:Abs-Feuchte:Windchill:Wind:
Aussen-T/F 1876 29-05-2010 15:20:03 22.5 C 5.19 g/m*3 22.5 C 0 km/h
1877 29-05-2010 15:32:02 22.7 C 6.06 g/m*3 22.7 C 0 km/h
1878 29-05-2010 15:44:02 23.5 C 5.08 g/m*3 23.5 C 0 km/h
1879 29-05-2010 15:56:02 23.4 C 4.84 g/m*3 23.4 C 0 km/h
1880 29-05-2010 16:08:02 23.5 C 4.86 g/m*3 23.5 C 0 km/h
1881 29-05-2010 16:20:02 24.5 C 5.15 g/m*3 24.5 C 0 km/h
1882 29-05-2010 16:32:02 24.4 C 4.9 g/m*3 24.4 C 0 km/h
1883 29-05-2010 16:44:02 24.5 C 5.15 g/m*3 24.5 C 0 km/h
1884 29-05-2010 16:56:02 25.2 C 4.89 g/m*3 25.2 C 0 km/h
1885 29-05-2010 17:08:02 25.1 C 5.79 g/m*3 25.1 C 0 km/h
1886 29-05-2010 17:20:03 24.9 C 5.72 g/m*3 24.9 C 0 km/h
1887 29-05-2010 17:32:02 23.5 C 5.92 g/m*3 23.5 C 0 km/h
1888 29-05-2010 17:44:02 23.3 C 6.27 g/m*3 23.3 C 0 km/h
1889 29-05-2010 17:56:02 23 C 5.96 g/m*3 23 C 0 km/h
1890 29-05-2010 18:08:02 22.4 C 6.16 g/m*3 22.4 C 0 km/h
1891 29-05-2010 18:20:02 22 C 6.21 g/m*3 22 C 0 km/h
1892 29-05-2010 18:32:03 21.6 C 6.45 g/m*3 21.6 C 0 km/h
1893 29-05-2010 18:44:03 21.3 C 5.78 g/m*3 21.3 C 0 km/h
1894 29-05-2010 18:56:02 21.2 C 5.56 g/m*3 21.2 C 0 km/h
1895 29-05-2010 19:08:01 21.2 C 5.56 g/m*3 21.2 C 0 km/h
1896 29-05-2010 19:20:02 21 C 5.13 g/m*3 21 C 0 km/h
1897 29-05-2010 19:32:02 20.4 C 5.31 g/m*3 20.4 C 0 km/h
1898 29-05-2010 19:44:02 20.3 C 5.28 g/m*3 20.3 C 0 km/h
1899 29-05-2010 19:56:02 20.4 C 5.48 g/m*3 20.4 C 0 km/h
1900 29-05-2010 20:08:02 20 C 5.53 g/m*3 20 C 0 km/h
Sensor: Nr:Datum:Temp:Abs-Feuchte:Windchill:Wind:
Aussen-T/F 1901 29-05-2010 20:20:02 19.6 C 5.74 g/m*3 19.6 C 0 km/h
1902 29-05-2010 20:32:02 19.4 C 5.84 g/m*3 19.4 C 0 km/h
1903 29-05-2010 20:44:02 18.9 C 6.32 g/m*3 18.9 C 0 km/h
1904 29-05-2010 20:56:02 18.6 C 6.37 g/m*3 18.6 C 0 km/h
1905 29-05-2010 21:08:02 18.4 C 5.98 g/m*3 18.4 C 0 km/h
1906 29-05-2010 21:20:02 18.3 C 5.79 g/m*3 18.3 C 0 km/h
1907 29-05-2010 21:32:02 17.6 C 6.9 g/m*3 17.6 C 0 km/h
1908 29-05-2010 21:44:02 16.4 C 6.84 g/m*3 16.4 C 0 km/h
1909 29-05-2010 21:56:02 14.6 C 8.13 g/m*3 14.6 C 0 km/h
1910 29-05-2010 22:08:02 13.8 C 8.94 g/m*3 13.8 C 0 km/h
1911 29-05-2010 22:20:01 13.3 C 9.01 g/m*3 13.3 C 0 km/h
1912 29-05-2010 22:32:01 13.9 C 9.47 g/m*3 13.9 C 0 km/h
1913 29-05-2010 22:44:01 14.3 C 8.97 g/m*3 14.3 C 0 km/h
1914 29-05-2010 22:57:02 14.5 C 8.95 g/m*3 14.5 C 0 km/h
1915 29-05-2010 23:09:02 14.5 C 8.71 g/m*3 14.5 C 0 km/h
1916 29-05-2010 23:21:02 14.4 C 8.65 g/m*3 14.4 C 0 km/h
1917 29-05-2010 23:33:02 13.7 C 8.76 g/m*3 13.7 C 0 km/h
1918 29-05-2010 23:45:02 12.8 C 8.96 g/m*3 12.8 C 0 km/h
1919 29-05-2010 23:57:02 13.2 C 9.42 g/m*3 13.2 C 0 km/h
1920 30-05-2010 00:09:02 13.2 C 9.53 g/m*3 13.2 C 0 km/h
1921 30-05-2010 00:21:02 13.2 C 9.53 g/m*3 13.2 C 0 km/h
1922 30-05-2010 00:33:03 13.1 C 9.47 g/m*3 13.1 C 0 km/h
1923 30-05-2010 00:45:03 13.3 C 9.47 g/m*3 13.3 C 0 km/h
1924 30-05-2010 00:57:03 14.1 C 8.74 g/m*3 14.1 C 0 km/h
1925 30-05-2010 01:09:03 13.7 C 9 g/m*3 13.7 C 0 km/h
Sensor: Nr:Datum:Temp:Abs-Feuchte:Windchill:Wind:
Aussen-T/F 1926 30-05-2010 01:21:03 13.2 C 9.3 g/m*3 13.2 C 0 km/h
1927 30-05-2010 01:33:03 13.1 C 9.59 g/m*3 13.1 C 0 km/h
1928 30-05-2010 01:45:03 13 C 9.64 g/m*3 13 C 0 km/h
1929 30-05-2010 01:57:03 13 C 9.87 g/m*3 13 C 0 km/h
1930 30-05-2010 02:09:03 13 C 9.98 g/m*3 13 C 0 km/h
1931 30-05-2010 02:21:03 12.8 C 9.97 g/m*3 12.8 C 0 km/h
1932 30-05-2010 02:33:03 12.8 C 9.97 g/m*3 12.8 C 0 km/h
1933 30-05-2010 02:45:03 12.9 C 10.14 g/m*3 12.9 C 0 km/h
1934 30-05-2010 02:57:03 13 C 10.09 g/m*3 13 C 0 km/h
1935 30-05-2010 03:09:03 12.9 C 10.26 g/m*3 12.9 C 0 km/h
1936 30-05-2010 03:21:03 12.9 C 10.26 g/m*3 12.9 C 0 km/h
1937 30-05-2010 03:33:03 12.9 C 10.26 g/m*3 12.9 C 0 km/h
1938 30-05-2010 03:45:03 12.9 C 10.26 g/m*3 12.9 C 0 km/h
1939 30-05-2010 03:57:03 12.9 C 10.37 g/m*3 12.9 C 0 km/h
1940 30-05-2010 04:09:03 12.7 C 10.24 g/m*3 12.7 C 0 km/h
1941 30-05-2010 04:21:03 12.7 C 10.24 g/m*3 12.7 C 0 km/h
1942 30-05-2010 04:33:03 12.7 C 10.24 g/m*3 12.7 C 0 km/h
1943 30-05-2010 04:45:04 12.9 C 10.37 g/m*3 12.9 C 0 km/h
1944 30-05-2010 04:57:04 13 C 10.32 g/m*3 13 C 0 km/h
1945 30-05-2010 05:09:04 12.9 C 10.26 g/m*3 12.9 C 0 km/h
1946 30-05-2010 05:21:04 12.9 C 10.26 g/m*3 12.9 C 0 km/h
1947 30-05-2010 05:33:04 12.8 C 10.19 g/m*3 12.8 C 0 km/h
1948 30-05-2010 05:45:04 13.1 C 10.27 g/m*3 13.1 C 0 km/h
1949 30-05-2010 05:57:04 13.1 C 10.27 g/m*3 13.1 C 0 km/h
1950 30-05-2010 06:09:04 13.2 C 10.22 g/m*3 13.2 C 0 km/h
Sensor: Nr:Datum:Temp:Abs-Feuchte:Windchill:Wind:
Aussen-T/F 1951 30-05-2010 06:21:04 13.3 C 10.28 g/m*3 13.3 C 0 km/h
1952 30-05-2010 06:33:04 13.4 C 10.35 g/m*3 13.4 C 0 km/h
1953 30-05-2010 06:45:04 13.5 C 10.29 g/m*3 13.5 C 0 km/h
1954 30-05-2010 06:57:04 13.4 C 10.11 g/m*3 13.4 C 0 km/h
1955 30-05-2010 07:09:04 13.4 C 10.23 g/m*3 13.4 C 0 km/h
1956 30-05-2010 07:21:04 13.5 C 10.29 g/m*3 13.5 C 0 km/h
1957 30-05-2010 07:33:04 13.7 C 10.42 g/m*3 13.7 C 0 km/h
1958 30-05-2010 07:45:04 14.2 C 10.62 g/m*3 14.2 C 0 km/h
1959 30-05-2010 07:57:04 14.2 C 10.62 g/m*3 14.2 C 0 km/h
1960 30-05-2010 08:09:04 14.3 C 10.69 g/m*3 14.3 C 0 km/h
1961 30-05-2010 08:21:04 14.1 C 9.95 g/m*3 14.1 C 0 km/h
1962 30-05-2010 08:33:04 14.7 C 10.07 g/m*3 14.7 C 0 km/h
1963 30-05-2010 08:45:05 15 C 9.75 g/m*3 15 C 0 km/h
1964 30-05-2010 08:57:05 15.2 C 9.86 g/m*3 15.2 C 0 km/h
1965 30-05-2010 09:09:02 15.6 C 9.84 g/m*3 15.6 C 0 km/h
1966 30-05-2010 09:21:02 15.8 C 10.1 g/m*3 15.8 C 0 km/h
1967 30-05-2010 09:33:02 15.8 C 9.96 g/m*3 15.8 C 0 km/h
1968 30-05-2010 09:45:02 15.7 C 10.03 g/m*3 15.7 C 0 km/h
1969 30-05-2010 09:57:02 15.2 C 10.12 g/m*3 15.2 C 0 km/h
1970 30-05-2010 10:09:02 15 C 10.13 g/m*3 15 C 0 km/h
1971 30-05-2010 10:21:02 14.5 C 9.95 g/m*3 14.5 C 0 km/h
1972 30-05-2010 10:33:02 14.7 C 10.2 g/m*3 14.7 C 0 km/h
1973 30-05-2010 10:45:02 15.3 C 10.45 g/m*3 15.3 C 0 km/h
1974 30-05-2010 10:57:02 15.4 C 10.25 g/m*3 15.4 C 0 km/h
1975 30-05-2010 11:09:02 17 C 9.84 g/m*3 17 C 0 km/h
Sensor: Nr:Datum:Temp:Abs-Feuchte:Windchill:Wind:
Aussen-T/F 1976 30-05-2010 11:21:02 17.1 C 9.32 g/m*3 17.1 C 0 km/h
1977 30-05-2010 11:33:02 18.6 C 9.71 g/m*3 18.6 C 0 km/h
1978 30-05-2010 11:45:02 17.6 C 8.25 g/m*3 17.6 C 0 km/h
1979 30-05-2010 11:57:02 16.9 C 8.63 g/m*3 16.9 C 0 km/h
1980 30-05-2010 12:09:02 17 C 8.83 g/m*3 17 C 0 km/h
1981 30-05-2010 12:21:02 17.5 C 7.9 g/m*3 17.5 C 0 km/h
1982 30-05-2010 12:33:01 18.4 C 8.34 g/m*3 18.4 C 0 km/h
1983 30-05-2010 12:45:02 18.4 C 7.86 g/m*3 18.4 C 0 km/h
1984 30-05-2010 12:57:02 18.7 C 7.52 g/m*3 18.7 C 0 km/h
1985 30-05-2010 13:09:01 18.7 C 7.2 g/m*3 18.7 C 0 km/h
1986 30-05-2010 13:21:02 17.6 C 7.2 g/m*3 17.6 C 0 km/h
1987 30-05-2010 13:33:01 18.3 C 7.51 g/m*3 18.3 C 0 km/h
1988 30-05-2010 13:45:02 18.1 C 7.57 g/m*3 18.1 C 0 km/h
1989 30-05-2010 13:57:02 17 C 8.25 g/m*3 17 C 0 km/h
1990 30-05-2010 14:09:02 17.4 C 8.45 g/m*3 17.4 C 0 km/h
1991 30-05-2010 14:21:02 17.4 C 8.15 g/m*3 17.4 C 0 km/h
1992 30-05-2010 14:33:02 18.1 C 8.03 g/m*3 18.1 C 0 km/h
1993 30-05-2010 14:45:02 18.6 C 8.28 g/m*3 18.6 C 0 km/h
1994 30-05-2010 14:57:02 18.5 C 8.23 g/m*3 18.5 C 0 km/h
1995 30-05-2010 15:09:01 19.2 C 8.08 g/m*3 19.2 C 0 km/h
1996 30-05-2010 15:21:01 19.3 C 8.13 g/m*3 19.3 C 0 km/h
1997 30-05-2010 15:33:02 19.5 C 7.89 g/m*3 19.5 C 0 km/h
1998 30-05-2010 15:45:02 19.3 C 7.63 g/m*3 19.3 C 0 km/h
1999 30-05-2010 15:57:02 18.6 C 6.84 g/m*3 18.6 C 0 km/h
2000 30-05-2010 16:09:02 18.9 C 6.97 g/m*3 18.9 C 0 km/h
Sensor: Nr:Datum:Temp:Abs-Feuchte:Windchill:Wind:
Aussen-T/F 2001 30-05-2010 16:21:02 19.8 C 7.17 g/m*3 19.8 C 0 km/h
2002 30-05-2010 16:33:02 19.7 C 6.79 g/m*3 19.7 C 0 km/h
2003 30-05-2010 16:45:02 19.3 C 6.97 g/m*3 19.3 C 0 km/h
2004 30-05-2010 16:57:02 19.3 C 6.63 g/m*3 19.3 C 0 km/h
2005 30-05-2010 17:09:02 18.9 C 6.64 g/m*3 18.9 C 0 km/h
2006 30-05-2010 17:21:02 18.3 C 6.72 g/m*3 18.3 C 0 km/h
2007 30-05-2010 17:33:02 15.6 C 8.51 g/m*3 15.6 C 0 km/h
2008 30-05-2010 17:45:02 14.5 C 9.33 g/m*3 14.5 C 0 km/h
2009 30-05-2010 17:57:02 14.2 C 9.52 g/m*3 14.2 C 0 km/h
2010 30-05-2010 18:09:02 14.9 C 9.81 g/m*3 14.9 C 0 km/h
2011 30-05-2010 18:21:02 15.1 C 9.42 g/m*3 15.1 C 0 km/h
2012 30-05-2010 18:33:02 14.5 C 9.2 g/m*3 14.5 C 0 km/h
2013 30-05-2010 18:45:02 13.9 C 9.71 g/m*3 13.9 C 0 km/h
2014 30-05-2010 18:57:02 13.7 C 9.83 g/m*3 13.7 C 0 km/h
2015 30-05-2010 19:09:02 13.5 C 9.47 g/m*3 13.5 C 0 km/h
2016 30-05-2010 19:21:02 12.8 C 9.07 g/m*3 12.8 C 0 km/h
2017 30-05-2010 19:33:02 12.7 C 9.35 g/m*3 12.7 C 0 km/h
2018 30-05-2010 19:45:01 13.1 C 9.7 g/m*3 13.1 C 0 km/h
2019 30-05-2010 19:57:01 13.7 C 9.95 g/m*3 13.7 C 0 km/h
2020 30-05-2010 20:09:02 13.2 C 8.27 g/m*3 13.2 C 0 km/h
2021 30-05-2010 20:21:02 12.7 C 7.24 g/m*3 12.7 C 0 km/h
2022 30-05-2010 20:33:02 12.4 C 6.88 g/m*3 12.4 C 0 km/h
2023 30-05-2010 20:45:02 12.1 C 6.97 g/m*3 12.1 C 0 km/h
2024 30-05-2010 20:57:02 11.9 C 7.31 g/m*3 11.9 C 0 km/h
2025 30-05-2010 21:09:02 11.8 C 6.84 g/m*3 11.8 C 0 km/h
Sensor: Nr:Datum:Temp:Abs-Feuchte:Windchill:Wind:
Aussen-T/F 2026 30-05-2010 21:21:02 12 C 6.61 g/m*3 12 C 0 km/h
2027 30-05-2010 21:33:01 11.8 C 6.84 g/m*3 11.8 C 0 km/h
2028 30-05-2010 21:45:02 11.7 C 6.59 g/m*3 11.7 C 0 km/h
2029 30-05-2010 21:57:02 11.4 C 6.26 g/m*3 11.4 C 0 km/h
2030 30-05-2010 22:09:02 11.3 C 6.22 g/m*3 11.3 C 0 km/h
2031 30-05-2010 22:22:03 11.2 C 6.28 g/m*3 11.2 C 0 km/h
2032 30-05-2010 22:34:03 11.1 C 6.25 g/m*3 11.1 C 0 km/h
2033 30-05-2010 22:46:03 11.1 C 6.04 g/m*3 11.1 C 0 km/h
2034 30-05-2010 22:58:03 11 C 5.91 g/m*3 11 C 0 km/h
2035 30-05-2010 23:10:03 11 C 5.81 g/m*3 11 C 0 km/h
2036 30-05-2010 23:22:03 10.9 C 5.87 g/m*3 10.9 C 0 km/h
2037 30-05-2010 23:34:03 10.7 C 5.7 g/m*3 10.7 C 0 km/h
2038 30-05-2010 23:46:03 10.4 C 5.69 g/m*3 10.4 C 0 km/h
2039 30-05-2010 23:58:03 10 C 5.73 g/m*3 10 C 0 km/h
2040 31-05-2010 00:10:03 10.1 C 5.86 g/m*3 10.1 C 0 km/h
2041 31-05-2010 00:22:03 9.8 C 5.85 g/m*3 9.8 C 0 km/h
2042 31-05-2010 00:34:03 9.8 C 5.75 g/m*3 9.8 C 0 km/h
2043 31-05-2010 00:46:04 9.8 C 5.85 g/m*3 9.8 C 0 km/h
2044 31-05-2010 00:58:04 9.9 C 5.98 g/m*3 9.9 C 0 km/h
2045 31-05-2010 01:10:04 10.1 C 5.77 g/m*3 10.1 C 0 km/h
2046 31-05-2010 01:22:04 10 C 5.92 g/m*3 10 C 0 km/h
2047 31-05-2010 01:34:04 9.8 C 6.22 g/m*3 9.8 C 0 km/h
2048 31-05-2010 01:46:04 9.8 C 6.31 g/m*3 9.8 C 0 km/h
2049 31-05-2010 01:58:04 9.5 C 6.64 g/m*3 9.5 C 0 km/h
2050 31-05-2010 02:10:04 9.1 C 7.01 g/m*3 9.1 C 0 km/h
Sensor: Nr:Datum:Temp:Abs-Feuchte:Windchill:Wind:
Aussen-T/F 2051 31-05-2010 02:22:04 8.9 C 7.36 g/m*3 8.9 C 0 km/h
2052 31-05-2010 02:34:04 8.9 C 7.62 g/m*3 8.9 C 0 km/h
2053 31-05-2010 02:46:04 8.9 C 7.71 g/m*3 8.9 C 0 km/h
2054 31-05-2010 02:58:04 8.9 C 7.8 g/m*3 8.9 C 0 km/h
2055 31-05-2010 03:10:04 8.7 C 7.7 g/m*3 8.7 C 0 km/h
2056 31-05-2010 03:22:04 8.7 C 7.78 g/m*3 8.7 C 0 km/h
2057 31-05-2010 03:34:04 8.6 C 7.73 g/m*3 8.6 C 0 km/h
2058 31-05-2010 03:46:04 8.6 C 7.82 g/m*3 8.6 C 0 km/h
2059 31-05-2010 03:58:04 8.5 C 7.68 g/m*3 8.5 C 0 km/h
2060 31-05-2010 04:10:04 8.4 C 7.63 g/m*3 8.4 C 0 km/h
2061 31-05-2010 04:22:04 8.5 C 7.77 g/m*3 8.5 C 0 km/h
2062 31-05-2010 04:34:04 8.4 C 7.63 g/m*3 8.4 C 0 km/h
2063 31-05-2010 04:46:05 8.6 C 7.73 g/m*3 8.6 C 0 km/h
2064 31-05-2010 04:58:05 8.7 C 7.78 g/m*3 8.7 C 0 km/h
2065 31-05-2010 05:10:05 8.6 C 7.73 g/m*3 8.6 C 0 km/h
2066 31-05-2010 05:22:05 8.5 C 7.68 g/m*3 8.5 C 0 km/h
2067 31-05-2010 05:34:05 8.5 C 7.68 g/m*3 8.5 C 0 km/h
2068 31-05-2010 05:46:05 8.5 C 7.68 g/m*3 8.5 C 0 km/h
2069 31-05-2010 05:58:05 8.6 C 7.73 g/m*3 8.6 C 0 km/h
2070 31-05-2010 06:10:05 8.6 C 7.73 g/m*3 8.6 C 0 km/h
2071 31-05-2010 06:22:05 8.7 C 7.87 g/m*3 8.7 C 0 km/h
2072 31-05-2010 06:34:05 8.7 C 7.87 g/m*3 8.7 C 0 km/h
2073 31-05-2010 06:46:02 8.7 C 7.96 g/m*3 8.7 C 0 km/h
2074 31-05-2010 06:58:02 8.9 C 8.06 g/m*3 8.9 C 0 km/h
2075 31-05-2010 07:10:02 8.9 C 8.06 g/m*3 8.9 C 0 km/h
Sensor: Nr:Datum:Temp:Abs-Feuchte:Windchill:Wind:
Aussen-T/F 2076 31-05-2010 07:22:01 8.8 C 8.01 g/m*3 8.8 C 0 km/h
2077 31-05-2010 07:34:02 8.9 C 8.15 g/m*3 8.9 C 0 km/h
2078 31-05-2010 07:46:02 9 C 8.11 g/m*3 9 C 0 km/h
2079 31-05-2010 07:58:02 9.1 C 8.16 g/m*3 9.1 C 0 km/h
2080 31-05-2010 08:10:02 9.3 C 8.36 g/m*3 9.3 C 0 km/h
2081 31-05-2010 08:22:02 9.7 C 8.57 g/m*3 9.7 C 0 km/h
2082 31-05-2010 08:34:02 10 C 8.55 g/m*3 10 C 0 km/h
2083 31-05-2010 08:46:02 10.1 C 8.51 g/m*3 10.1 C 0 km/h
2084 31-05-2010 08:58:02 10.3 C 8.52 g/m*3 10.3 C 0 km/h
2085 31-05-2010 09:10:02 10.7 C 8.55 g/m*3 10.7 C 0 km/h
2086 31-05-2010 09:22:02 10.8 C 8.4 g/m*3 10.8 C 0 km/h
2087 31-05-2010 09:34:02 10.8 C 8.3 g/m*3 10.8 C 0 km/h
2088 31-05-2010 09:46:02 10.7 C 8.25 g/m*3 10.7 C 0 km/h
2089 31-05-2010 09:58:02 11 C 8.41 g/m*3 11 C 0 km/h
2090 31-05-2010 10:10:02 10.9 C 8.36 g/m*3 10.9 C 0 km/h
2091 31-05-2010 10:22:02 10.9 C 8.26 g/m*3 10.9 C 0 km/h
2092 31-05-2010 10:34:02 11 C 8.31 g/m*3 11 C 0 km/h
2093 31-05-2010 10:46:02 11.3 C 8.47 g/m*3 11.3 C 0 km/h
2094 31-05-2010 10:58:02 11.2 C 8.31 g/m*3 11.2 C 0 km/h
2095 31-05-2010 11:10:02 11.5 C 8.47 g/m*3 11.5 C 0 km/h
2096 31-05-2010 11:22:02 11.6 C 8.32 g/m*3 11.6 C 0 km/h
2097 31-05-2010 11:34:02 11.8 C 8.42 g/m*3 11.8 C 0 km/h
2098 31-05-2010 11:46:02 12.4 C 8.41 g/m*3 12.4 C 0 km/h
2099 31-05-2010 11:58:02 12.5 C 8.14 g/m*3 12.5 C 0 km/h
2100 31-05-2010 12:10:02 12.6 C 7.74 g/m*3 12.6 C 0 km/h
Sensor: Nr:Datum:Temp:Abs-Feuchte:Windchill:Wind:
Aussen-T/F 2101 31-05-2010 12:22:02 14.2 C 8.06 g/m*3 14.2 C 0 km/h
2102 31-05-2010 12:34:02 14.2 C 7.45 g/m*3 14.2 C 0 km/h
2103 31-05-2010 12:46:02 14.2 C 7.57 g/m*3 14.2 C 0 km/h
2104 31-05-2010 12:58:02 13.7 C 7.34 g/m*3 13.7 C 0 km/h
2105 31-05-2010 13:10:02 14 C 7.24 g/m*3 14 C 0 km/h
2106 31-05-2010 13:22:02 15.8 C 7.67 g/m*3 15.8 C 0 km/h
2107 31-05-2010 13:34:01 14.7 C 7.3 g/m*3 14.7 C 0 km/h
2108 31-05-2010 13:46:02 13.6 C 7.18 g/m*3 13.6 C 0 km/h
2109 31-05-2010 13:58:02 13.5 C 7.25 g/m*3 13.5 C 0 km/h
2110 31-05-2010 14:10:01 14 C 7.36 g/m*3 14 C 0 km/h
2111 31-05-2010 14:22:02 14.7 C 7.43 g/m*3 14.7 C 0 km/h
2112 31-05-2010 14:34:01 15.4 C 7.23 g/m*3 15.4 C 0 km/h
2113 31-05-2010 14:46:01 15.7 C 7.36 g/m*3 15.7 C 0 km/h
2114 31-05-2010 14:58:01 15 C 7.18 g/m*3 15 C 0 km/h
2115 31-05-2010 15:10:01 15 C 7.31 g/m*3 15 C 0 km/h
2116 31-05-2010 15:22:02 14.8 C 7.35 g/m*3 14.8 C 0 km/h
2117 31-05-2010 15:34:01 14.9 C 7.52 g/m*3 14.9 C 0 km/h
2118 31-05-2010 15:46:03 14.7 C 7.81 g/m*3 14.7 C 0 km/h
2119 31-05-2010 15:58:03 14.4 C 7.79 g/m*3 14.4 C 0 km/h
2120 31-05-2010 16:10:02 14.2 C 8.06 g/m*3 14.2 C 0 km/h
2121 31-05-2010 16:22:02 13.8 C 7.98 g/m*3 13.8 C 0 km/h
2122 31-05-2010 16:34:02 13.8 C 8.1 g/m*3 13.8 C 0 km/h
2123 31-05-2010 16:46:02 13.9 C 8.27 g/m*3 13.9 C 0 km/h
2124 31-05-2010 16:58:02 14.1 C 8.01 g/m*3 14.1 C 0 km/h
2125 31-05-2010 17:10:02 14.3 C 7.86 g/m*3 14.3 C 0 km/h
Sensor: Nr:Datum:Temp:Abs-Feuchte:Windchill:Wind:
Aussen-T/F 2126 31-05-2010 17:22:02 14.4 C 7.54 g/m*3 14.4 C 0 km/h
2127 31-05-2010 17:34:01 14.4 C 7.79 g/m*3 14.4 C 0 km/h
2128 31-05-2010 17:46:02 14.3 C 7.99 g/m*3 14.3 C 0 km/h
2129 31-05-2010 17:58:02 13.5 C 8.42 g/m*3 13.5 C 0 km/h
2130 31-05-2010 18:10:01 13.2 C 8.73 g/m*3 13.2 C 0 km/h
2131 31-05-2010 18:22:02 12.7 C 8.79 g/m*3 12.7 C 0 km/h
2132 31-05-2010 18:34:01 12.9 C 8.68 g/m*3 12.9 C 0 km/h
2133 31-05-2010 18:46:02 13.4 C 8.6 g/m*3 13.4 C 0 km/h
2134 31-05-2010 18:58:02 13.3 C 8.66 g/m*3 13.3 C 0 km/h
2135 31-05-2010 19:10:02 13 C 8.96 g/m*3 13 C 0 km/h
2136 31-05-2010 19:22:02 12.8 C 9.18 g/m*3 12.8 C 0 km/h
2137 31-05-2010 19:34:02 12.7 C 9.35 g/m*3 12.7 C 0 km/h
2138 31-05-2010 19:46:02 12.6 C 9.4 g/m*3 12.6 C 0 km/h
2139 31-05-2010 19:58:02 12.4 C 9.29 g/m*3 12.4 C 0 km/h
2140 31-05-2010 20:10:01 12.4 C 9.4 g/m*3 12.4 C 0 km/h
2141 31-05-2010 20:22:01 12.5 C 9.46 g/m*3 12.5 C 0 km/h
2142 31-05-2010 20:34:02 12.5 C 9.57 g/m*3 12.5 C 0 km/h
2143 31-05-2010 20:46:02 12.5 C 9.57 g/m*3 12.5 C 0 km/h
2144 31-05-2010 20:58:02 12.5 C 9.57 g/m*3 12.5 C 0 km/h
2145 31-05-2010 21:10:03 12.5 C 9.57 g/m*3 12.5 C 0 km/h
2146 31-05-2010 21:22:02 12.6 C 9.62 g/m*3 12.6 C 0 km/h
2147 31-05-2010 21:34:02 12.5 C 9.46 g/m*3 12.5 C 0 km/h
2148 31-05-2010 21:46:02 12.5 C 9.57 g/m*3 12.5 C 0 km/h
2149 31-05-2010 21:58:02 12.4 C 9.51 g/m*3 12.4 C 0 km/h
2150 31-05-2010 22:10:01 12.4 C 9.62 g/m*3 12.4 C 0 km/h
Sensor: Nr:Datum:Temp:Abs-Feuchte:Windchill:Wind:
Aussen-T/F 2151 31-05-2010 22:23:01 12.5 C 9.68 g/m*3 12.5 C 0 km/h
2152 31-05-2010 22:35:01 12.5 C 9.78 g/m*3 12.5 C 0 km/h
2153 31-05-2010 22:47:01 12.6 C 9.85 g/m*3 12.6 C 0 km/h
2154 31-05-2010 22:59:01 12.7 C 9.91 g/m*3 12.7 C 0 km/h
2155 31-05-2010 23:11:01 12.7 C 9.8 g/m*3 12.7 C 0 km/h
2156 31-05-2010 23:23:01 12.7 C 9.8 g/m*3 12.7 C 0 km/h
2157 31-05-2010 23:35:01 12.7 C 9.8 g/m*3 12.7 C 0 km/h
2158 31-05-2010 23:47:02 12.6 C 9.74 g/m*3 12.6 C 0 km/h
2159 31-05-2010 23:59:02 12.4 C 9.62 g/m*3 12.4 C 0 km/h
2160 01-06-2010 00:11:02 11.9 C 9.43 g/m*3 11.9 C 0 km/h
2161 01-06-2010 00:23:02 11.8 C 9.47 g/m*3 11.8 C 0 km/h
2162 01-06-2010 00:35:02 11.5 C 9.3 g/m*3 11.5 C 0 km/h
2163 01-06-2010 00:47:02 11.7 C 9.41 g/m*3 11.7 C 0 km/h
2164 01-06-2010 00:59:02 11.6 C 9.46 g/m*3 11.6 C 0 km/h
2165 01-06-2010 01:11:02 11.5 C 9.5 g/m*3 11.5 C 0 km/h
2166 01-06-2010 01:23:02 11.6 C 9.56 g/m*3 11.6 C 0 km/h
2167 01-06-2010 01:35:02 11.7 C 9.62 g/m*3 11.7 C 0 km/h
2168 01-06-2010 01:47:02 11.2 C 9.33 g/m*3 11.2 C 0 km/h
2169 01-06-2010 01:59:02 11.2 C 9.33 g/m*3 11.2 C 0 km/h
2170 01-06-2010 02:11:02 11 C 9.21 g/m*3 11 C 0 km/h
2171 01-06-2010 02:23:02 10.9 C 9.25 g/m*3 10.9 C 0 km/h
2172 01-06-2010 02:35:02 10.8 C 9.19 g/m*3 10.8 C 0 km/h
2173 01-06-2010 02:47:02 10.8 C 9.19 g/m*3 10.8 C 0 km/h
2174 01-06-2010 02:59:02 11.1 C 9.37 g/m*3 11.1 C 0 km/h
2175 01-06-2010 03:11:02 11.3 C 9.49 g/m*3 11.3 C 0 km/h
Sensor: Nr:Datum:Temp:Abs-Feuchte:Windchill:Wind:
Aussen-T/F 2176 01-06-2010 03:23:02 11.4 C 9.65 g/m*3 11.4 C 0 km/h
2177 01-06-2010 03:35:02 11.4 C 9.65 g/m*3 11.4 C 0 km/h
2178 01-06-2010 03:47:02 11.4 C 9.65 g/m*3 11.4 C 0 km/h
2179 01-06-2010 03:59:03 11.4 C 9.65 g/m*3 11.4 C 0 km/h
2180 01-06-2010 04:11:03 11.8 C 9.79 g/m*3 11.8 C 0 km/h
2181 01-06-2010 04:23:03 11.2 C 9.43 g/m*3 11.2 C 0 km/h
2182 01-06-2010 04:35:03 11 C 9.31 g/m*3 11 C 0 km/h
2183 01-06-2010 04:47:03 10.5 C 9.02 g/m*3 10.5 C 0 km/h
2184 01-06-2010 04:59:03 10.8 C 9.19 g/m*3 10.8 C 0 km/h
2185 01-06-2010 05:11:03 11 C 9.31 g/m*3 11 C 0 km/h
2186 01-06-2010 05:23:03 11.2 C 9.53 g/m*3 11.2 C 0 km/h
2187 01-06-2010 05:35:03 11.2 C 9.43 g/m*3 11.2 C 0 km/h
2188 01-06-2010 05:47:03 11.3 C 9.49 g/m*3 11.3 C 0 km/h
2189 01-06-2010 05:59:03 11.2 C 9.43 g/m*3 11.2 C 0 km/h
2190 01-06-2010 06:11:03 11.3 C 9.49 g/m*3 11.3 C 0 km/h
2191 01-06-2010 06:23:03 11.3 C 9.38 g/m*3 11.3 C 0 km/h
2192 01-06-2010 06:35:03 11.2 C 9.33 g/m*3 11.2 C 0 km/h
2193 01-06-2010 06:47:03 11.1 C 9.17 g/m*3 11.1 C 0 km/h
2194 01-06-2010 06:59:03 11.2 C 9.12 g/m*3 11.2 C 0 km/h
2195 01-06-2010 07:11:02 11.4 C 9.24 g/m*3 11.4 C 0 km/h
2196 01-06-2010 07:23:01 11.7 C 9.31 g/m*3 11.7 C 0 km/h
2197 01-06-2010 07:35:02 12 C 9.38 g/m*3 12 C 0 km/h
2198 01-06-2010 07:47:02 12.4 C 9.4 g/m*3 12.4 C 0 km/h
2199 01-06-2010 07:59:02 12.7 C 9.35 g/m*3 12.7 C 0 km/h
2200 01-06-2010 08:11:02 12.9 C 9.35 g/m*3 12.9 C 0 km/h
Sensor: Nr:Datum:Temp:Abs-Feuchte:Windchill:Wind:
Aussen-T/F 2201 01-06-2010 08:23:01 13.6 C 9.53 g/m*3 13.6 C 0 km/h
2202 01-06-2010 08:35:02 13.9 C 9.35 g/m*3 13.9 C 0 km/h
2203 01-06-2010 08:47:01 14.2 C 9.16 g/m*3 14.2 C 0 km/h
2204 01-06-2010 08:59:01 13.8 C 9.17 g/m*3 13.8 C 0 km/h
2205 01-06-2010 09:11:02 14.3 C 9.09 g/m*3 14.3 C 0 km/h
2206 01-06-2010 09:23:02 14.7 C 9.07 g/m*3 14.7 C 0 km/h
2207 01-06-2010 09:35:02 15.2 C 9.22 g/m*3 15.2 C 0 km/h
2208 01-06-2010 09:47:01 15 C 8.59 g/m*3 15 C 0 km/h
2209 01-06-2010 09:59:01 15.8 C 8.62 g/m*3 15.8 C 0 km/h
2210 01-06-2010 10:11:02 15.3 C 8.36 g/m*3 15.3 C 0 km/h
2211 01-06-2010 10:23:02 14.5 C 8.58 g/m*3 14.5 C 0 km/h
2212 01-06-2010 10:35:01 14.5 C 8.83 g/m*3 14.5 C 0 km/h
2213 01-06-2010 10:47:02 15.7 C 8.83 g/m*3 15.7 C 0 km/h
2214 01-06-2010 10:59:02 15.4 C 8.54 g/m*3 15.4 C 0 km/h
2215 01-06-2010 11:11:01 16.1 C 8.64 g/m*3 16.1 C 0 km/h
2216 01-06-2010 11:23:02 17.2 C 8.49 g/m*3 17.2 C 0 km/h
2217 01-06-2010 11:35:01 16.7 C 7.96 g/m*3 16.7 C 0 km/h
2218 01-06-2010 11:47:02 17.6 C 8.1 g/m*3 17.6 C 0 km/h
2219 01-06-2010 11:59:02 17.8 C 7.59 g/m*3 17.8 C 0 km/h
2220 01-06-2010 12:11:02 18.8 C 7.89 g/m*3 18.8 C 0 km/h
2221 01-06-2010 12:23:02 18.9 C 7.45 g/m*3 18.9 C 0 km/h
2222 01-06-2010 12:35:03 19.3 C 6.63 g/m*3 19.3 C 0 km/h
2223 01-06-2010 12:47:02 20.6 C 7.34 g/m*3 20.6 C 0 km/h
2224 01-06-2010 12:59:03 19.5 C 6.71 g/m*3 19.5 C 0 km/h
2225 01-06-2010 13:11:01 19.7 C 6.79 g/m*3 19.7 C 0 km/h
Sensor: Nr:Datum:Temp:Abs-Feuchte:Windchill:Wind:
Aussen-T/F 2226 01-06-2010 13:23:02 20.9 C 6.92 g/m*3 20.9 C 0 km/h
2227 01-06-2010 13:35:02 21.6 C 6.83 g/m*3 21.6 C 0 km/h
2228 01-06-2010 13:47:02 20.4 C 6.19 g/m*3 20.4 C 0 km/h
2229 01-06-2010 13:59:02 20.3 C 6.68 g/m*3 20.3 C 0 km/h
2230 01-06-2010 14:11:03 19.8 C 6.66 g/m*3 19.8 C 0 km/h
2231 01-06-2010 14:23:02 20.5 C 7.12 g/m*3 20.5 C 0 km/h
2232 01-06-2010 14:35:02 21 C 6.05 g/m*3 21 C 0 km/h
2233 01-06-2010 14:47:01 22 C 6.02 g/m*3 22 C 0 km/h
2234 01-06-2010 14:59:01 21.6 C 5.88 g/m*3 21.6 C 0 km/h
2235 01-06-2010 15:11:02 20.8 C 5.61 g/m*3 20.8 C 0 km/h
2236 01-06-2010 15:23:01 21.2 C 5.37 g/m*3 21.2 C 0 km/h
2237 01-06-2010 15:35:01 22.2 C 5.1 g/m*3 22.2 C 0 km/h
2238 01-06-2010 15:47:01 23.8 C 5.38 g/m*3 23.8 C 0 km/h
2239 01-06-2010 15:59:01 22.7 C 5.25 g/m*3 22.7 C 0 km/h
2240 01-06-2010 16:11:02 22.3 C 4.54 g/m*3 22.3 C 0 km/h
2241 01-06-2010 16:23:01 22.7 C 5.05 g/m*3 22.7 C 0 km/h
2242 01-06-2010 16:35:01 22.7 C 5.05 g/m*3 22.7 C 0 km/h
2243 01-06-2010 16:47:01 22.7 C 5.05 g/m*3 22.7 C 0 km/h
2244 01-06-2010 16:59:01 23.6 C 5.1 g/m*3 23.6 C 0 km/h
2245 01-06-2010 17:11:02 23.3 C 5.23 g/m*3 23.3 C 0 km/h
2246 01-06-2010 17:23:02 22.8 C 5.89 g/m*3 22.8 C 0 km/h
2247 01-06-2010 17:35:01 22.7 C 5.25 g/m*3 22.7 C 0 km/h
2248 01-06-2010 17:47:01 22.4 C 5.16 g/m*3 22.4 C 0 km/h
2249 01-06-2010 17:59:01 21.3 C 4.85 g/m*3 21.3 C 0 km/h
2250 01-06-2010 18:11:01 20.7 C 4.68 g/m*3 20.7 C 0 km/h
Sensor: Nr:Datum:Temp:Abs-Feuchte:Windchill:Wind:
Aussen-T/F 2251 01-06-2010 18:23:02 20.4 C 4.95 g/m*3 20.4 C 0 km/h
2252 01-06-2010 18:35:01 20.7 C 4.86 g/m*3 20.7 C 0 km/h
2253 01-06-2010 18:47:03 20.6 C 5.37 g/m*3 20.6 C 0 km/h
2254 01-06-2010 18:59:03 20.4 C 5.66 g/m*3 20.4 C 0 km/h
2255 01-06-2010 19:11:02 20.1 C 5.74 g/m*3 20.1 C 0 km/h
2256 01-06-2010 19:23:02 19.7 C 6.11 g/m*3 19.7 C 0 km/h
2257 01-06-2010 19:35:02 19.5 C 6.38 g/m*3 19.5 C 0 km/h
2258 01-06-2010 19:47:02 19.3 C 6.14 g/m*3 19.3 C 0 km/h
2259 01-06-2010 19:59:02 19.1 C 6.07 g/m*3 19.1 C 0 km/h
2260 01-06-2010 20:11:02 18.9 C 6.8 g/m*3 18.9 C 0 km/h
2261 01-06-2010 20:23:02 18.7 C 7.04 g/m*3 18.7 C 0 km/h
2262 01-06-2010 20:35:02 18.2 C 6.99 g/m*3 18.2 C 0 km/h
2263 01-06-2010 20:47:02 17.8 C 7.29 g/m*3 17.8 C 0 km/h
2264 01-06-2010 20:59:03 17.4 C 7.11 g/m*3 17.4 C 0 km/h
2265 01-06-2010 21:11:01 16.8 C 7.15 g/m*3 16.8 C 0 km/h
2266 01-06-2010 21:23:01 16.6 C 7.2 g/m*3 16.6 C 0 km/h
2267 01-06-2010 21:35:02 16.1 C 7.13 g/m*3 16.1 C 0 km/h
2268 01-06-2010 21:47:02 15.8 C 7 g/m*3 15.8 C 0 km/h
2269 01-06-2010 21:59:02 15.5 C 7.01 g/m*3 15.5 C 0 km/h
2270 01-06-2010 22:11:02 15.3 C 7.18 g/m*3 15.3 C 0 km/h
2271 01-06-2010 22:23:02 15.1 C 7.22 g/m*3 15.1 C 0 km/h
2272 01-06-2010 22:35:02 15 C 7.31 g/m*3 15 C 0 km/h
2273 01-06-2010 22:47:02 14.9 C 7.52 g/m*3 14.9 C 0 km/h
2274 01-06-2010 22:59:02 14.9 C 7.65 g/m*3 14.9 C 0 km/h
2275 01-06-2010 23:11:02 14.8 C 7.73 g/m*3 14.8 C 0 km/h
Sensor: Nr:Datum:Temp:Abs-Feuchte:Windchill:Wind:
Aussen-T/F 2276 01-06-2010 23:23:02 14.8 C 7.6 g/m*3 14.8 C 0 km/h
2277 01-06-2010 23:35:02 14.8 C 7.73 g/m*3 14.8 C 0 km/h
2278 01-06-2010 23:47:01 14.7 C 7.81 g/m*3 14.7 C 0 km/h
2279 01-06-2010 23:59:01 14.6 C 7.88 g/m*3 14.6 C 0 km/h
2280 02-06-2010 00:11:02 14.5 C 8.08 g/m*3 14.5 C 0 km/h
2281 02-06-2010 00:23:01 14.4 C 8.28 g/m*3 14.4 C 0 km/h
2282 02-06-2010 00:35:01 14.4 C 8.41 g/m*3 14.4 C 0 km/h
2283 02-06-2010 00:47:01 14.5 C 8.58 g/m*3 14.5 C 0 km/h
2284 02-06-2010 00:59:01 14.4 C 8.41 g/m*3 14.4 C 0 km/h
2285 02-06-2010 01:11:02 14.4 C 8.28 g/m*3 14.4 C 0 km/h
2286 02-06-2010 01:23:01 14.3 C 8.35 g/m*3 14.3 C 0 km/h
2287 02-06-2010 01:35:02 14.2 C 8.43 g/m*3 14.2 C 0 km/h
2288 02-06-2010 01:47:01 14.1 C 8.37 g/m*3 14.1 C 0 km/h
2289 02-06-2010 01:59:01 14.1 C 8.5 g/m*3 14.1 C 0 km/h
2290 02-06-2010 02:11:02 13.8 C 8.58 g/m*3 13.8 C 0 km/h
2291 02-06-2010 02:23:02 13.7 C 8.64 g/m*3 13.7 C 0 km/h
2292 02-06-2010 02:35:01 13.6 C 8.71 g/m*3 13.6 C 0 km/h
2293 02-06-2010 02:47:01 13.4 C 8.72 g/m*3 13.4 C 0 km/h
2294 02-06-2010 02:59:01 13.4 C 8.83 g/m*3 13.4 C 0 km/h
2295 02-06-2010 03:11:01 13.3 C 8.78 g/m*3 13.3 C 0 km/h
2296 02-06-2010 03:23:01 13.3 C 8.78 g/m*3 13.3 C 0 km/h
2297 02-06-2010 03:35:01 13.4 C 8.83 g/m*3 13.4 C 0 km/h
2298 02-06-2010 03:47:01 13.3 C 8.78 g/m*3 13.3 C 0 km/h
2299 02-06-2010 03:59:01 13.4 C 8.83 g/m*3 13.4 C 0 km/h
2300 02-06-2010 04:11:02 13.2 C 8.5 g/m*3 13.2 C 0 km/h
Sensor: Nr:Datum:Temp:Abs-Feuchte:Windchill:Wind:
Aussen-T/F 2301 02-06-2010 04:23:01 13.3 C 8.32 g/m*3 13.3 C 0 km/h
2302 02-06-2010 04:35:01 13.4 C 8.37 g/m*3 13.4 C 0 km/h
2303 02-06-2010 04:47:01 13.5 C 8.42 g/m*3 13.5 C 0 km/h
2304 02-06-2010 04:59:01 13.4 C 8.37 g/m*3 13.4 C 0 km/h
2305 02-06-2010 05:11:01 13.4 C 8.37 g/m*3 13.4 C 0 km/h
2306 02-06-2010 05:23:02 13.3 C 8.32 g/m*3 13.3 C 0 km/h
2307 02-06-2010 05:35:01 13.4 C 8.49 g/m*3 13.4 C 0 km/h
2308 02-06-2010 05:47:01 13.2 C 8.38 g/m*3 13.2 C 0 km/h
2309 02-06-2010 05:59:01 13.2 C 8.38 g/m*3 13.2 C 0 km/h
2310 02-06-2010 06:11:01 13.2 C 8.38 g/m*3 13.2 C 0 km/h
2311 02-06-2010 06:23:02 13.2 C 8.5 g/m*3 13.2 C 0 km/h
2312 02-06-2010 06:35:01 13.2 C 8.61 g/m*3 13.2 C 0 km/h
2313 02-06-2010 06:47:02 13.4 C 8.72 g/m*3 13.4 C 0 km/h
2314 02-06-2010 06:59:02 13.4 C 8.6 g/m*3 13.4 C 0 km/h
2315 02-06-2010 07:11:01 13.6 C 8.59 g/m*3 13.6 C 0 km/h
2316 02-06-2010 07:23:01 13.7 C 8.76 g/m*3 13.7 C 0 km/h
2317 02-06-2010 07:35:01 13.8 C 8.58 g/m*3 13.8 C 0 km/h
2318 02-06-2010 07:47:02 13.9 C 8.51 g/m*3 13.9 C 0 km/h
2319 02-06-2010 07:59:02 14.2 C 8.43 g/m*3 14.2 C 0 km/h
2320 02-06-2010 08:11:01 14.5 C 8.21 g/m*3 14.5 C 0 km/h
2321 02-06-2010 08:23:01 14.5 C 8.21 g/m*3 14.5 C 0 km/h
2322 02-06-2010 08:35:01 15.6 C 8.38 g/m*3 15.6 C 0 km/h
2323 02-06-2010 08:47:01 15.7 C 8.03 g/m*3 15.7 C 0 km/h
2324 02-06-2010 08:59:02 15.2 C 7.92 g/m*3 15.2 C 0 km/h
2325 02-06-2010 09:11:01 14.6 C 7.63 g/m*3 14.6 C 0 km/h
Sensor: Nr:Datum:Temp:Abs-Feuchte:Windchill:Wind:
Aussen-T/F 2326 02-06-2010 09:23:01 14.6 C 7.88 g/m*3 14.6 C 0 km/h
2327 02-06-2010 09:35:02 14.8 C 7.85 g/m*3 14.8 C 0 km/h
2328 02-06-2010 09:47:01 15.2 C 7.66 g/m*3 15.2 C 0 km/h
2329 02-06-2010 09:59:01 16.2 C 7.58 g/m*3 16.2 C 0 km/h
2330 02-06-2010 10:11:01 17 C 6.8 g/m*3 17 C 0 km/h
2331 02-06-2010 10:23:01 16.9 C 6.18 g/m*3 16.9 C 0 km/h
2332 02-06-2010 10:35:02 17.6 C 6.45 g/m*3 17.6 C 0 km/h
2333 02-06-2010 10:47:01 17.9 C 6.57 g/m*3 17.9 C 0 km/h
2334 02-06-2010 10:59:01 18.4 C 6.45 g/m*3 18.4 C 0 km/h
2335 02-06-2010 11:11:02 18.1 C 6.33 g/m*3 18.1 C 0 km/h
2336 02-06-2010 11:23:01 18.5 C 6.33 g/m*3 18.5 C 0 km/h
2337 02-06-2010 11:35:01 19.5 C 5.87 g/m*3 19.5 C 0 km/h
2338 02-06-2010 11:47:01 20.1 C 5.56 g/m*3 20.1 C 0 km/h
2339 02-06-2010 11:59:01 20.3 C 5.8 g/m*3 20.3 C 0 km/h
2340 02-06-2010 12:11:02 20.7 C 5.58 g/m*3 20.7 C 0 km/h
2341 02-06-2010 12:23:01 21.9 C 5.21 g/m*3 21.9 C 0 km/h
2342 02-06-2010 12:35:01 22.5 C 5.19 g/m*3 22.5 C 0 km/h
2343 02-06-2010 12:47:01 21.4 C 5.25 g/m*3 21.4 C 0 km/h
2344 02-06-2010 12:59:01 22.8 C 5.28 g/m*3 22.8 C 0 km/h
2345 02-06-2010 13:11:01 22.9 C 5.11 g/m*3 22.9 C 0 km/h
2346 02-06-2010 13:23:01 23.5 C 4.86 g/m*3 23.5 C 0 km/h
2347 02-06-2010 13:35:01 24.3 C 4.43 g/m*3 24.3 C 0 km/h
2348 02-06-2010 13:47:01 24.3 C 4.43 g/m*3 24.3 C 0 km/h
2349 02-06-2010 13:59:01 23.4 C 4.21 g/m*3 23.4 C 0 km/h
2350 02-06-2010 14:11:01 23.5 C 4.44 g/m*3 23.5 C 0 km/h
Sensor: Nr:Datum:Temp:Abs-Feuchte:Windchill:Wind:
Aussen-T/F 2351 02-06-2010 14:23:02 22.8 C 4.67 g/m*3 22.8 C 0 km/h
2352 02-06-2010 14:35:01 23.5 C 4.23 g/m*3 23.5 C 0 km/h
2353 02-06-2010 14:47:02 23.4 C 4.21 g/m*3 23.4 C 0 km/h
2354 02-06-2010 14:59:02 24.3 C 4.65 g/m*3 24.3 C 0 km/h
2355 02-06-2010 15:11:01 22.5 C 4.79 g/m*3 22.5 C 0 km/h
2356 02-06-2010 15:23:02 22.8 C 5.49 g/m*3 22.8 C 0 km/h
2357 02-06-2010 15:35:01 22.2 C 5.89 g/m*3 22.2 C 0 km/h
2358 02-06-2010 15:47:02 23.2 C 5.82 g/m*3 23.2 C 0 km/h
2359 02-06-2010 15:59:02 22.2 C 5.89 g/m*3 22.2 C 0 km/h
2360 02-06-2010 16:11:01 21.7 C 6.49 g/m*3 21.7 C 0 km/h
2361 02-06-2010 16:23:02 21.5 C 6.6 g/m*3 21.5 C 0 km/h
2362 02-06-2010 16:35:01 21.1 C 6.63 g/m*3 21.1 C 0 km/h
2363 02-06-2010 16:47:02 20.7 C 7.02 g/m*3 20.7 C 0 km/h
2364 02-06-2010 16:59:02 20.4 C 6.9 g/m*3 20.4 C 0 km/h
2365 02-06-2010 17:11:01 20.8 C 7.06 g/m*3 20.8 C 0 km/h
2366 02-06-2010 17:23:01 20.9 C 7.1 g/m*3 20.9 C 0 km/h
2367 02-06-2010 17:35:02 20.3 C 7.21 g/m*3 20.3 C 0 km/h
2368 02-06-2010 17:47:02 20.1 C 6.95 g/m*3 20.1 C 0 km/h
2369 02-06-2010 17:59:02 20.1 C 7.13 g/m*3 20.1 C 0 km/h
2370 02-06-2010 18:11:01 20.3 C 7.03 g/m*3 20.3 C 0 km/h
2371 02-06-2010 18:23:01 20.4 C 7.43 g/m*3 20.4 C 0 km/h
2372 02-06-2010 18:35:02 22 C 6.99 g/m*3 22 C 0 km/h
2373 02-06-2010 18:47:01 23.2 C 6.86 g/m*3 23.2 C 0 km/h
2374 02-06-2010 18:59:02 21.4 C 6.94 g/m*3 21.4 C 0 km/h
2375 02-06-2010 19:11:01 21 C 6.96 g/m*3 21 C 0 km/h
Sensor: Nr:Datum:Temp:Abs-Feuchte:Windchill:Wind:
Aussen-T/F 2376 02-06-2010 19:23:01 20.3 C 7.39 g/m*3 20.3 C 0 km/h
2377 02-06-2010 19:35:02 20.7 C 7.38 g/m*3 20.7 C 0 km/h
2378 02-06-2010 19:47:01 20.6 C 7.52 g/m*3 20.6 C 0 km/h
2379 02-06-2010 19:59:01 20.8 C 7.6 g/m*3 20.8 C 0 km/h
2380 02-06-2010 20:11:02 19.9 C 7.56 g/m*3 19.9 C 0 km/h
2381 02-06-2010 20:23:01 19.6 C 7.6 g/m*3 19.6 C 0 km/h
2382 02-06-2010 20:35:02 20.3 C 7.56 g/m*3 20.3 C 0 km/h
2383 02-06-2010 20:47:01 19.7 C 7.64 g/m*3 19.7 C 0 km/h
2384 02-06-2010 20:59:01 19.4 C 7.67 g/m*3 19.4 C 0 km/h
2385 02-06-2010 21:11:02 18.9 C 7.78 g/m*3 18.9 C 0 km/h
2386 02-06-2010 21:23:02 18.5 C 7.91 g/m*3 18.5 C 0 km/h
2387 02-06-2010 21:35:01 18.1 C 7.88 g/m*3 18.1 C 0 km/h
2388 02-06-2010 21:47:01 18.1 C 8.03 g/m*3 18.1 C 0 km/h
2389 02-06-2010 21:59:01 18.1 C 8.19 g/m*3 18.1 C 0 km/h
2390 02-06-2010 22:12:05 18.1 C 8.19 g/m*3 18.1 C 0 km/h
2391 02-06-2010 22:24:05 18 C 8.29 g/m*3 18 C 0 km/h
2392 02-06-2010 22:36:05 17.6 C 8.4 g/m*3 17.6 C 0 km/h
2393 02-06-2010 22:48:05 17.2 C 8.2 g/m*3 17.2 C 0 km/h
2394 02-06-2010 23:00:05 16.8 C 8.44 g/m*3 16.8 C 0 km/h
2395 02-06-2010 23:12:06 16.5 C 8.57 g/m*3 16.5 C 0 km/h
2396 02-06-2010 23:24:06 16.4 C 8.37 g/m*3 16.4 C 0 km/h
2397 02-06-2010 23:36:06 16.3 C 8.32 g/m*3 16.3 C 0 km/h
2398 02-06-2010 23:48:06 16.2 C 8.27 g/m*3 16.2 C 0 km/h
2399 03-06-2010 00:00:06 16.1 C 8.36 g/m*3 16.1 C 0 km/h
2400 03-06-2010 00:12:06 15.9 C 8.53 g/m*3 15.9 C 0 km/h
Sensor: Nr:Datum:Temp:Abs-Feuchte:Windchill:Wind:
Aussen-T/F 2401 03-06-2010 00:24:06 15.6 C 8.51 g/m*3 15.6 C 0 km/h
2402 03-06-2010 00:36:06 15.4 C 8.54 g/m*3 15.4 C 0 km/h
2403 03-06-2010 00:48:06 15.1 C 8.51 g/m*3 15.1 C 0 km/h
2404 03-06-2010 01:00:06 15 C 8.59 g/m*3 15 C 0 km/h
2405 03-06-2010 01:12:06 15 C 8.72 g/m*3 15 C 0 km/h
2406 03-06-2010 01:24:06 15 C 8.72 g/m*3 15 C 0 km/h
2407 03-06-2010 01:36:06 15 C 8.72 g/m*3 15 C 0 km/h
2408 03-06-2010 01:48:06 14.8 C 8.74 g/m*3 14.8 C 0 km/h
2409 03-06-2010 02:00:06 14.6 C 8.76 g/m*3 14.6 C 0 km/h
2410 03-06-2010 02:12:06 14.5 C 8.71 g/m*3 14.5 C 0 km/h
2411 03-06-2010 02:24:06 14.4 C 8.65 g/m*3 14.4 C 0 km/h
2412 03-06-2010 02:36:06 14.4 C 8.65 g/m*3 14.4 C 0 km/h
2413 03-06-2010 02:48:06 14.2 C 8.67 g/m*3 14.2 C 0 km/h
2414 03-06-2010 03:00:06 14.2 C 8.55 g/m*3 14.2 C 0 km/h
2415 03-06-2010 03:12:06 14.1 C 8.5 g/m*3 14.1 C 0 km/h
2416 03-06-2010 03:24:07 14.1 C 8.5 g/m*3 14.1 C 0 km/h
2417 03-06-2010 03:36:07 13.9 C 8.51 g/m*3 13.9 C 0 km/h
2418 03-06-2010 03:48:07 13.8 C 8.58 g/m*3 13.8 C 0 km/h
2419 03-06-2010 04:00:07 13.6 C 8.47 g/m*3 13.6 C 0 km/h
2420 03-06-2010 04:12:07 13.3 C 8.43 g/m*3 13.3 C 0 km/h
2421 03-06-2010 04:24:07 13 C 8.28 g/m*3 13 C 0 km/h
2422 03-06-2010 04:36:07 13.1 C 8.33 g/m*3 13.1 C 0 km/h
2423 03-06-2010 04:48:07 13 C 8.28 g/m*3 13 C 0 km/h
2424 03-06-2010 05:00:07 13 C 8.28 g/m*3 13 C 0 km/h
2425 03-06-2010 05:12:07 12.8 C 8.29 g/m*3 12.8 C 0 km/h
Sensor: Nr:Datum:Temp:Abs-Feuchte:Windchill:Wind:
Aussen-T/F 2426 03-06-2010 05:24:07 12.7 C 8.35 g/m*3 12.7 C 0 km/h
2427 03-06-2010 05:36:07 12.5 C 8.36 g/m*3 12.5 C 0 km/h
2428 03-06-2010 05:48:07 12.5 C 8.36 g/m*3 12.5 C 0 km/h
2429 03-06-2010 06:00:07 12.4 C 8.3 g/m*3 12.4 C 0 km/h
2430 03-06-2010 06:12:07 12.5 C 8.47 g/m*3 12.5 C 0 km/h
2431 03-06-2010 06:24:07 12.6 C 8.3 g/m*3 12.6 C 0 km/h
2432 03-06-2010 06:36:07 12.7 C 8.35 g/m*3 12.7 C 0 km/h
2433 03-06-2010 06:48:07 12.8 C 8.4 g/m*3 12.8 C 0 km/h
2434 03-06-2010 07:00:07 12.9 C 8.45 g/m*3 12.9 C 0 km/h
2435 03-06-2010 07:12:06 13 C 8.28 g/m*3 13 C 0 km/h
2436 03-06-2010 07:24:05 13.1 C 8.22 g/m*3 13.1 C 0 km/h
2437 03-06-2010 07:36:06 13.1 C 8.22 g/m*3 13.1 C 0 km/h
2438 03-06-2010 07:48:02 13.3 C 8.32 g/m*3 13.3 C 0 km/h
2439 03-06-2010 08:00:02 13.5 C 8.07 g/m*3 13.5 C 0 km/h
2440 03-06-2010 08:12:02 13.8 C 8.1 g/m*3 13.8 C 0 km/h
2441 03-06-2010 08:24:02 13.9 C 8.03 g/m*3 13.9 C 0 km/h
2442 03-06-2010 08:36:02 14.2 C 7.69 g/m*3 14.2 C 0 km/h
2443 03-06-2010 08:48:02 14.5 C 7.71 g/m*3 14.5 C 0 km/h
2444 03-06-2010 09:00:02 15 C 7.82 g/m*3 15 C 0 km/h
2445 03-06-2010 09:12:03 15.4 C 7.49 g/m*3 15.4 C 0 km/h
2446 03-06-2010 09:24:02 16 C 7.36 g/m*3 16 C 0 km/h
2447 03-06-2010 09:36:02 16.4 C 7.12 g/m*3 16.4 C 0 km/h
2448 03-06-2010 09:48:01 16.9 C 7.34 g/m*3 16.9 C 0 km/h
2449 03-06-2010 10:00:01 17.2 C 7.18 g/m*3 17.2 C 0 km/h
2450 03-06-2010 10:12:02 18.1 C 7.11 g/m*3 18.1 C 0 km/h
Sensor: Nr:Datum:Temp:Abs-Feuchte:Windchill:Wind:
Aussen-T/F 2451 03-06-2010 10:24:01 18.7 C 6.72 g/m*3 18.7 C 0 km/h
2452 03-06-2010 10:36:02 19.1 C 6.88 g/m*3 19.1 C 0 km/h
2453 03-06-2010 10:48:02 20 C 6.74 g/m*3 20 C 0 km/h
2454 03-06-2010 11:00:02 20.4 C 6.55 g/m*3 20.4 C 0 km/h
2455 03-06-2010 11:12:02 20.8 C 6.34 g/m*3 20.8 C 0 km/h
2456 03-06-2010 11:24:03 20.7 C 6.3 g/m*3 20.7 C 0 km/h
2457 03-06-2010 11:36:02 21.2 C 5.93 g/m*3 21.2 C 0 km/h
2458 03-06-2010 11:48:02 22.6 C 6.03 g/m*3 22.6 C 0 km/h
2459 03-06-2010 12:00:02 23.2 C 5.61 g/m*3 23.2 C 0 km/h
2460 03-06-2010 12:12:02 23.4 C 5.47 g/m*3 23.4 C 0 km/h
2461 03-06-2010 12:24:02 25 C 5.52 g/m*3 25 C 0 km/h
2462 03-06-2010 12:36:02 24.6 C 5.63 g/m*3 24.6 C 0 km/h
2463 03-06-2010 12:48:02 24.6 C 5.85 g/m*3 24.6 C 0 km/h
2464 03-06-2010 13:00:02 24.8 C 5.92 g/m*3 24.8 C 0 km/h
2465 03-06-2010 13:12:03 26.3 C 4.95 g/m*3 26.3 C 0 km/h
2466 03-06-2010 13:24:02 27.6 C 5.32 g/m*3 27.6 C 0 km/h
2467 03-06-2010 13:36:03 26.8 C 5.09 g/m*3 26.8 C 0 km/h
2468 03-06-2010 13:48:09 26.3 C 4.95 g/m*3 26.3 C 0 km/h
2469 03-06-2010 14:00:09 26.4 C 4.98 g/m*3 26.4 C 0 km/h
2470 03-06-2010 14:12:05 25.6 C 4.76 g/m*3 25.6 C 0 km/h
2471 03-06-2010 14:24:06 25.6 C 4.76 g/m*3 25.6 C 0 km/h
2472 03-06-2010 14:36:04 25.9 C 4.84 g/m*3 25.9 C 0 km/h
2473 03-06-2010 14:48:02 26.4 C 4.98 g/m*3 26.4 C 0 km/h
2474 03-06-2010 15:00:02 28.1 C 5.47 g/m*3 28.1 C 0 km/h
2475 03-06-2010 15:12:01 27.8 C 5.38 g/m*3 27.8 C 0 km/h
Sensor: Nr:Datum:Temp:Abs-Feuchte:Windchill:Wind:
Aussen-T/F 2476 03-06-2010 15:24:01 27.4 C 5.26 g/m*3 27.4 C 0 km/h
2477 03-06-2010 15:36:02 28.1 C 5.47 g/m*3 28.1 C 0 km/h
2478 03-06-2010 15:48:02 28.3 C 5.53 g/m*3 28.3 C 0 km/h
2479 03-06-2010 16:00:02 29.2 C 5.81 g/m*3 29.2 C 0 km/h
2480 03-06-2010 16:12:01 29 C 5.74 g/m*3 29 C 0 km/h
2481 03-06-2010 16:24:02 30.1 C 6.1 g/m*3 30.1 C 0 km/h
2482 03-06-2010 16:36:02 30.1 C 6.1 g/m*3 30.1 C 0 km/h
2483 03-06-2010 16:48:02 29 C 5.74 g/m*3 29 C 0 km/h
2484 03-06-2010 17:00:02 30.3 C 6.16 g/m*3 30.3 C 0 km/h
2485 03-06-2010 17:12:02 30 C 6.06 g/m*3 30 C 0 km/h
2486 03-06-2010 17:24:02 29.8 C 6 g/m*3 29.8 C 0 km/h
2487 03-06-2010 17:36:02 29.7 C 5.97 g/m*3 29.7 C 0 km/h
2488 03-06-2010 17:48:02 30.1 C 6.1 g/m*3 30.1 C 0 km/h
2489 03-06-2010 18:00:02 29.5 C 5.9 g/m*3 29.5 C 0 km/h
2490 03-06-2010 18:12:02 28.7 C 5.65 g/m*3 28.7 C 0 km/h
2491 03-06-2010 18:24:02 28.8 C 5.68 g/m*3 28.8 C 0 km/h
2492 03-06-2010 18:36:02 29.4 C 5.87 g/m*3 29.4 C 0 km/h
2493 03-06-2010 18:48:02 28.5 C 5.59 g/m*3 28.5 C 0 km/h
2494 03-06-2010 19:00:02 28.2 C 5.5 g/m*3 28.2 C 0 km/h
2495 03-06-2010 19:12:02 28.6 C 5.62 g/m*3 28.6 C 0 km/h
2496 03-06-2010 19:24:03 29.6 C 5.94 g/m*3 29.6 C 0 km/h
2497 03-06-2010 19:36:02 29.8 C 6 g/m*3 29.8 C 0 km/h
2498 03-06-2010 19:48:02 29.2 C 5.81 g/m*3 29.2 C 0 km/h
2499 03-06-2010 20:00:02 28.1 C 5.47 g/m*3 28.1 C 0 km/h
2500 03-06-2010 20:12:01 27.9 C 5.41 g/m*3 27.9 C 0 km/h
Sensor: Nr:Datum:Temp:Abs-Feuchte:Windchill:Wind:
Aussen-T/F 2501 03-06-2010 20:24:02 26.4 C 4.98 g/m*3 26.4 C 0 km/h
2502 03-06-2010 20:36:01 26.3 C 5.45 g/m*3 26.3 C 0 km/h
2503 03-06-2010 20:48:02 26.3 C 5.45 g/m*3 26.3 C 0 km/h
2504 03-06-2010 21:00:02 25.7 C 5.75 g/m*3 25.7 C 0 km/h
2505 03-06-2010 21:12:02 24.8 C 6.6 g/m*3 24.8 C 0 km/h
2506 03-06-2010 21:24:01 23.8 C 6.88 g/m*3 23.8 C 0 km/h
2507 03-06-2010 21:36:02 22.7 C 6.87 g/m*3 22.7 C 0 km/h
2508 03-06-2010 21:48:01 21.7 C 6.68 g/m*3 21.7 C 0 km/h
2509 03-06-2010 22:00:01 21 C 6.41 g/m*3 21 C 0 km/h
2510 03-06-2010 22:12:02 20.5 C 6.58 g/m*3 20.5 C 0 km/h
2511 03-06-2010 22:24:41 20.1 C 6.43 g/m*3 20.1 C 0 km/h
2512 03-06-2010 22:37:03 19.7 C 6.45 g/m*3 19.7 C 0 km/h
2513 03-06-2010 22:49:03 19.5 C 6.38 g/m*3 19.5 C 0 km/h
2514 03-06-2010 23:01:03 19.3 C 6.63 g/m*3 19.3 C 0 km/h
2515 03-06-2010 23:13:03 18.8 C 6.44 g/m*3 18.8 C 0 km/h
2516 03-06-2010 23:25:03 18.6 C 6.68 g/m*3 18.6 C 0 km/h
2517 03-06-2010 23:37:03 18.3 C 6.57 g/m*3 18.3 C 0 km/h
2518 03-06-2010 23:49:03 18.2 C 6.53 g/m*3 18.2 C 0 km/h
2519 04-06-2010 00:01:03 17.9 C 6.72 g/m*3 17.9 C 0 km/h
2520 04-06-2010 00:13:03 17.7 C 6.79 g/m*3 17.7 C 0 km/h
2521 04-06-2010 00:25:03 17.5 C 6.86 g/m*3 17.5 C 0 km/h
2522 04-06-2010 00:37:03 17.2 C 6.88 g/m*3 17.2 C 0 km/h
2523 04-06-2010 00:49:03 16.9 C 7.05 g/m*3 16.9 C 0 km/h
2524 04-06-2010 01:01:03 16.6 C 6.92 g/m*3 16.6 C 0 km/h
2525 04-06-2010 01:13:03 16.1 C 6.99 g/m*3 16.1 C 0 km/h
Sensor: Nr:Datum:Temp:Abs-Feuchte:Windchill:Wind:
Aussen-T/F 2526 04-06-2010 01:25:03 15.9 C 7.18 g/m*3 15.9 C 0 km/h
2527 04-06-2010 01:37:04 15.6 C 7.05 g/m*3 15.6 C 0 km/h
2528 04-06-2010 01:49:04 15.3 C 7.05 g/m*3 15.3 C 0 km/h
2529 04-06-2010 02:01:04 15.2 C 7.14 g/m*3 15.2 C 0 km/h
2530 04-06-2010 02:13:04 14.8 C 7.09 g/m*3 14.8 C 0 km/h
2531 04-06-2010 02:25:04 14.5 C 7.21 g/m*3 14.5 C 0 km/h
2532 04-06-2010 02:37:04 14.4 C 7.29 g/m*3 14.4 C 0 km/h
2533 04-06-2010 02:49:04 14.3 C 7.37 g/m*3 14.3 C 0 km/h
2534 04-06-2010 03:01:04 14 C 7.24 g/m*3 14 C 0 km/h
2535 04-06-2010 03:13:04 13.9 C 7.43 g/m*3 13.9 C 0 km/h
2536 04-06-2010 03:25:04 13.6 C 7.41 g/m*3 13.6 C 0 km/h
2537 04-06-2010 03:37:04 13.5 C 7.49 g/m*3 13.5 C 0 km/h
2538 04-06-2010 03:49:04 13.2 C 7.58 g/m*3 13.2 C 0 km/h
2539 04-06-2010 04:01:04 13.1 C 7.65 g/m*3 13.1 C 0 km/h
2540 04-06-2010 04:13:04 13 C 7.6 g/m*3 13 C 0 km/h
2541 04-06-2010 04:25:04 12.8 C 7.62 g/m*3 12.8 C 0 km/h
2542 04-06-2010 04:37:04 12.7 C 7.68 g/m*3 12.7 C 0 km/h
2543 04-06-2010 04:49:04 12.3 C 7.49 g/m*3 12.3 C 0 km/h
2544 04-06-2010 05:01:04 12.4 C 7.65 g/m*3 12.4 C 0 km/h
2545 04-06-2010 05:13:04 12.4 C 7.54 g/m*3 12.4 C 0 km/h
2546 04-06-2010 05:25:04 12 C 7.57 g/m*3 12 C 0 km/h
2547 04-06-2010 05:37:04 12 C 7.57 g/m*3 12 C 0 km/h
2548 04-06-2010 05:49:04 11.8 C 7.68 g/m*3 11.8 C 0 km/h
2549 04-06-2010 06:01:05 11.9 C 7.73 g/m*3 11.9 C 0 km/h
2550 04-06-2010 06:13:05 11.8 C 7.79 g/m*3 11.8 C 0 km/h
Sensor: Nr:Datum:Temp:Abs-Feuchte:Windchill:Wind:
Aussen-T/F 2551 04-06-2010 06:25:05 11.9 C 7.84 g/m*3 11.9 C 0 km/h
2552 04-06-2010 06:37:05 12 C 7.89 g/m*3 12 C 0 km/h
2553 04-06-2010 06:49:05 12.1 C 7.94 g/m*3 12.1 C 0 km/h
2554 04-06-2010 07:01:05 12.1 C 7.94 g/m*3 12.1 C 0 km/h
2555 04-06-2010 07:13:05 12.4 C 8.09 g/m*3 12.4 C 0 km/h
2556 04-06-2010 07:25:05 12.4 C 7.98 g/m*3 12.4 C 0 km/h
2557 04-06-2010 07:37:03 12.5 C 8.03 g/m*3 12.5 C 0 km/h
2558 04-06-2010 07:49:02 12.8 C 8.18 g/m*3 12.8 C 0 km/h
2559 04-06-2010 08:01:02 13 C 8.17 g/m*3 13 C 0 km/h
2560 04-06-2010 08:13:02 13.3 C 8.2 g/m*3 13.3 C 0 km/h
2561 04-06-2010 08:25:01 13.6 C 8.24 g/m*3 13.6 C 0 km/h
2562 04-06-2010 08:37:02 14 C 8.32 g/m*3 14 C 0 km/h
2563 04-06-2010 08:49:01 14.7 C 8.44 g/m*3 14.7 C 0 km/h
2564 04-06-2010 09:01:02 15.4 C 8.41 g/m*3 15.4 C 0 km/h
2565 04-06-2010 09:13:02 16 C 8.17 g/m*3 16 C 0 km/h
2566 04-06-2010 09:25:02 16.8 C 8.44 g/m*3 16.8 C 0 km/h
2567 04-06-2010 09:37:02 17.5 C 8.5 g/m*3 17.5 C 0 km/h
2568 04-06-2010 09:49:02 18.2 C 8.24 g/m*3 18.2 C 0 km/h
2569 04-06-2010 10:01:02 18.7 C 8.17 g/m*3 18.7 C 0 km/h
2570 04-06-2010 10:13:02 19.6 C 8.44 g/m*3 19.6 C 0 km/h
2571 04-06-2010 10:25:06 20.2 C 8.04 g/m*3 20.2 C 0 km/h
2572 04-06-2010 10:37:09 20.6 C 7.87 g/m*3 20.6 C 0 km/h
2573 04-06-2010 10:49:05 21.2 C 7.97 g/m*3 21.2 C 0 km/h
2574 04-06-2010 11:01:04 22 C 7.57 g/m*3 22 C 0 km/h
2575 04-06-2010 11:13:04 21.4 C 7.12 g/m*3 21.4 C 0 km/h
Sensor: Nr:Datum:Temp:Abs-Feuchte:Windchill:Wind:
Aussen-T/F 2576 04-06-2010 11:25:03 21.8 C 7.48 g/m*3 21.8 C 0 km/h
2577 04-06-2010 11:37:03 22.5 C 6.99 g/m*3 22.5 C 0 km/h
2578 04-06-2010 11:49:02 22.8 C 6.71 g/m*3 22.8 C 0 km/h
2579 04-06-2010 12:01:01 24.5 C 6.04 g/m*3 24.5 C 0 km/h
2580 04-06-2010 12:13:01 25.7 C 5.99 g/m*3 25.7 C 0 km/h
2581 04-06-2010 12:25:02 25.8 C 6.26 g/m*3 25.8 C 0 km/h
2582 04-06-2010 12:37:02 26.8 C 5.85 g/m*3 26.8 C 0 km/h
2583 04-06-2010 12:49:02 26.3 C 5.2 g/m*3 26.3 C 0 km/h
2584 04-06-2010 13:01:02 27.6 C 6.12 g/m*3 27.6 C 0 km/h
2585 04-06-2010 13:13:02 28.3 C 5.53 g/m*3 28.3 C 0 km/h
2586 04-06-2010 13:25:02 29.6 C 5.94 g/m*3 29.6 C 0 km/h
2587 04-06-2010 13:37:02 29.8 C 6 g/m*3 29.8 C 0 km/h
2588 04-06-2010 13:49:01 29.6 C 5.94 g/m*3 29.6 C 0 km/h
2589 04-06-2010 14:01:02 28.2 C 5.5 g/m*3 28.2 C 0 km/h
2590 04-06-2010 14:13:02 27.9 C 5.68 g/m*3 27.9 C 0 km/h
2591 04-06-2010 14:25:01 28 C 5.98 g/m*3 28 C 0 km/h
2592 04-06-2010 14:37:01 27.7 C 5.62 g/m*3 27.7 C 0 km/h
2593 04-06-2010 14:49:01 27.7 C 5.62 g/m*3 27.7 C 0 km/h
2594 04-06-2010 15:01:02 28.2 C 5.5 g/m*3 28.2 C 0 km/h
2595 04-06-2010 15:13:02 28.2 C 5.5 g/m*3 28.2 C 0 km/h
2596 04-06-2010 15:25:01 29.3 C 5.84 g/m*3 29.3 C 0 km/h
2597 04-06-2010 15:37:01 29.2 C 5.81 g/m*3 29.2 C 0 km/h
2598 04-06-2010 15:49:01 30.8 C 6.33 g/m*3 30.8 C 0 km/h
2599 04-06-2010 16:01:02 30.2 C 6.13 g/m*3 30.2 C 0 km/h
2600 04-06-2010 16:13:03 30.7 C 6.3 g/m*3 30.7 C 0 km/h
Sensor: Nr:Datum:Temp:Abs-Feuchte:Windchill:Wind:
Aussen-T/F 2601 04-06-2010 16:25:01 30.1 C 6.1 g/m*3 30.1 C 0 km/h
2602 04-06-2010 16:37:02 29.9 C 6.03 g/m*3 29.9 C 0 km/h
2603 04-06-2010 16:49:02 31 C 6.4 g/m*3 31 C 0 km/h
2604 04-06-2010 17:01:02 31 C 6.4 g/m*3 31 C 0 km/h
2605 04-06-2010 17:13:02 30.4 C 6.2 g/m*3 30.4 C 0 km/h
2606 04-06-2010 17:25:02 30.8 C 6.33 g/m*3 30.8 C 0 km/h
2607 04-06-2010 17:37:02 31.6 C 6.61 g/m*3 31.6 C 0 km/h
2608 04-06-2010 17:49:02 31.4 C 6.54 g/m*3 31.4 C 0 km/h
2609 04-06-2010 18:01:02 31.8 C 6.68 g/m*3 31.8 C 0 km/h
2610 04-06-2010 18:13:02 32.3 C 6.86 g/m*3 32.3 C 0 km/h
2611 04-06-2010 18:25:01 32 C 6.75 g/m*3 32 C 0 km/h
2612 04-06-2010 18:37:02 31.5 C 6.57 g/m*3 31.5 C 0 km/h
2613 04-06-2010 18:49:02 31.8 C 6.68 g/m*3 31.8 C 0 km/h
2614 04-06-2010 19:01:02 30.8 C 6.33 g/m*3 30.8 C 0 km/h
2615 04-06-2010 19:13:02 30.6 C 6.26 g/m*3 30.6 C 0 km/h
2616 04-06-2010 19:25:02 30.4 C 6.2 g/m*3 30.4 C 0 km/h
2617 04-06-2010 19:37:02 30.3 C 6.16 g/m*3 30.3 C 0 km/h
2618 04-06-2010 19:49:01 30.1 C 6.1 g/m*3 30.1 C 0 km/h
2619 04-06-2010 20:01:02 29.9 C 6.03 g/m*3 29.9 C 0 km/h
2620 04-06-2010 20:13:02 29.6 C 5.94 g/m*3 29.6 C 0 km/h
2621 04-06-2010 20:25:01 28.9 C 5.71 g/m*3 28.9 C 0 km/h
2622 04-06-2010 20:37:01 28.8 C 5.68 g/m*3 28.8 C 0 km/h
2623 04-06-2010 20:49:01 28 C 5.98 g/m*3 28 C 0 km/h
2624 04-06-2010 21:01:02 26.2 C 5.91 g/m*3 26.2 C 0 km/h
2625 04-06-2010 21:13:03 24.9 C 6.18 g/m*3 24.9 C 0 km/h
Sensor: Nr:Datum:Temp:Abs-Feuchte:Windchill:Wind:
Aussen-T/F 2626 04-06-2010 21:25:01 23.9 C 6.27 g/m*3 23.9 C 0 km/h
2627 04-06-2010 21:37:01 23.3 C 6.48 g/m*3 23.3 C 0 km/h
2628 04-06-2010 21:49:01 23.2 C 6.44 g/m*3 23.2 C 0 km/h
2629 04-06-2010 22:01:02 22.9 C 6.54 g/m*3 22.9 C 0 km/h
2630 04-06-2010 22:13:02 22.5 C 6.79 g/m*3 22.5 C 0 km/h
2631 04-06-2010 22:25:01 22.1 C 6.83 g/m*3 22.1 C 0 km/h
2632 04-06-2010 22:37:02 21.6 C 7.02 g/m*3 21.6 C 0 km/h
2633 04-06-2010 22:50:37 21 C 7.14 g/m*3 21 C 0 km/h
2634 04-06-2010 23:02:37 20.5 C 7.47 g/m*3 20.5 C 0 km/h
2635 04-06-2010 23:14:37 20.3 C 7.39 g/m*3 20.3 C 0 km/h
2636 04-06-2010 23:26:37 19.9 C 7.56 g/m*3 19.9 C 0 km/h
2637 04-06-2010 23:38:37 19.4 C 7.67 g/m*3 19.4 C 0 km/h
2638 04-06-2010 23:50:37 19 C 7.66 g/m*3 19 C 0 km/h
2639 05-06-2010 00:02:37 18.6 C 7.8 g/m*3 18.6 C 0 km/h
2640 05-06-2010 00:14:37 18.4 C 7.86 g/m*3 18.4 C 0 km/h
2641 05-06-2010 00:26:37 18.1 C 7.88 g/m*3 18.1 C 0 km/h
2642 05-06-2010 00:38:37 18 C 7.99 g/m*3 18 C 0 km/h
2643 05-06-2010 00:50:37 17.7 C 8 g/m*3 17.7 C 0 km/h
2644 05-06-2010 01:02:37 17.5 C 7.9 g/m*3 17.5 C 0 km/h
2645 05-06-2010 01:14:37 17.3 C 7.96 g/m*3 17.3 C 0 km/h
2646 05-06-2010 01:26:37 17.2 C 7.91 g/m*3 17.2 C 0 km/h
2647 05-06-2010 01:38:37 17 C 7.96 g/m*3 17 C 0 km/h
2648 05-06-2010 01:50:37 16.7 C 8.1 g/m*3 16.7 C 0 km/h
2649 05-06-2010 02:02:37 16.4 C 8.1 g/m*3 16.4 C 0 km/h
2650 05-06-2010 02:14:37 16 C 8.04 g/m*3 16 C 0 km/h
Sensor: Nr:Datum:Temp:Abs-Feuchte:Windchill:Wind:
Aussen-T/F 2651 05-06-2010 02:26:38 15.8 C 8.21 g/m*3 15.8 C 0 km/h
2652 05-06-2010 02:38:38 15.6 C 8.25 g/m*3 15.6 C 0 km/h
2653 05-06-2010 02:50:38 15.3 C 8.23 g/m*3 15.3 C 0 km/h
2654 05-06-2010 03:02:38 15.3 C 8.36 g/m*3 15.3 C 0 km/h
2655 05-06-2010 03:14:38 14.8 C 8.49 g/m*3 14.8 C 0 km/h
2656 05-06-2010 03:26:38 14.8 C 8.36 g/m*3 14.8 C 0 km/h
2657 05-06-2010 03:38:38 14.7 C 8.44 g/m*3 14.7 C 0 km/h
2658 05-06-2010 03:50:38 14.6 C 8.51 g/m*3 14.6 C 0 km/h
2659 05-06-2010 04:02:38 14.5 C 8.33 g/m*3 14.5 C 0 km/h
2660 05-06-2010 04:14:38 14.5 C 8.33 g/m*3 14.5 C 0 km/h
2661 05-06-2010 04:26:38 14.3 C 8.35 g/m*3 14.3 C 0 km/h
2662 05-06-2010 04:38:38 14.1 C 8.25 g/m*3 14.1 C 0 km/h
2663 05-06-2010 04:50:38 14.3 C 8.48 g/m*3 14.3 C 0 km/h
2664 05-06-2010 05:02:38 13.7 C 8.29 g/m*3 13.7 C 0 km/h
2665 05-06-2010 05:14:38 13.5 C 8.19 g/m*3 13.5 C 0 km/h
2666 05-06-2010 05:26:38 13.5 C 8.3 g/m*3 13.5 C 0 km/h
2667 05-06-2010 05:38:38 13.3 C 8.32 g/m*3 13.3 C 0 km/h
2668 05-06-2010 05:50:38 13.2 C 8.27 g/m*3 13.2 C 0 km/h
2669 05-06-2010 06:02:38 13 C 8.28 g/m*3 13 C 0 km/h
2670 05-06-2010 06:14:38 13 C 8.39 g/m*3 13 C 0 km/h
2671 05-06-2010 06:26:38 13 C 8.39 g/m*3 13 C 0 km/h
2672 05-06-2010 06:38:39 13.2 C 8.61 g/m*3 13.2 C 0 km/h
2673 05-06-2010 06:50:39 13.4 C 8.6 g/m*3 13.4 C 0 km/h
2674 05-06-2010 07:02:39 13.5 C 8.66 g/m*3 13.5 C 0 km/h
2675 05-06-2010 07:14:39 13.8 C 8.7 g/m*3 13.8 C 0 km/h
Sensor: Nr:Datum:Temp:Abs-Feuchte:Windchill:Wind:
Aussen-T/F 2676 05-06-2010 07:26:39 13.7 C 8.53 g/m*3 13.7 C 0 km/h
2677 05-06-2010 07:38:39 13.8 C 8.46 g/m*3 13.8 C 0 km/h
2678 05-06-2010 07:50:39 14 C 8.56 g/m*3 14 C 0 km/h
2679 05-06-2010 08:02:02 14.4 C 8.65 g/m*3 14.4 C 0 km/h
2680 05-06-2010 08:14:02 14.7 C 8.69 g/m*3 14.7 C 0 km/h
2681 05-06-2010 08:26:02 15.2 C 8.31 g/m*3 15.2 C 0 km/h
2682 05-06-2010 08:38:02 15.5 C 8.33 g/m*3 15.5 C 0 km/h
2683 05-06-2010 08:50:01 15.8 C 8.08 g/m*3 15.8 C 0 km/h
2684 05-06-2010 09:02:02 16.4 C 8.37 g/m*3 16.4 C 0 km/h
2685 05-06-2010 09:14:02 17.1 C 8.44 g/m*3 17.1 C 0 km/h
2686 05-06-2010 09:26:02 17.9 C 8.7 g/m*3 17.9 C 0 km/h
2687 05-06-2010 09:38:01 18.7 C 8.81 g/m*3 18.7 C 0 km/h
2688 05-06-2010 09:50:02 19.4 C 8.84 g/m*3 19.4 C 0 km/h
2689 05-06-2010 10:02:01 19.9 C 8.93 g/m*3 19.9 C 0 km/h
2690 05-06-2010 10:14:01 20.9 C 9.11 g/m*3 20.9 C 0 km/h
2691 05-06-2010 10:26:02 21.4 C 9 g/m*3 21.4 C 0 km/h
2692 05-06-2010 10:38:01 22.5 C 8.99 g/m*3 22.5 C 0 km/h
2693 05-06-2010 10:50:02 23 C 8.84 g/m*3 23 C 0 km/h
2694 05-06-2010 11:02:01 23.4 C 8.83 g/m*3 23.4 C 0 km/h
2695 05-06-2010 11:14:01 24.1 C 8.75 g/m*3 24.1 C 0 km/h
2696 05-06-2010 11:26:01 25 C 8.52 g/m*3 25 C 0 km/h
2697 05-06-2010 11:38:02 26 C 8.03 g/m*3 26 C 0 km/h
2698 05-06-2010 11:50:02 26.7 C 7.85 g/m*3 26.7 C 0 km/h
2699 05-06-2010 12:02:01 26.8 C 7.64 g/m*3 26.8 C 0 km/h
2700 05-06-2010 12:14:01 27.4 C 6.31 g/m*3 27.4 C 0 km/h
Sensor: Nr:Datum:Temp:Abs-Feuchte:Windchill:Wind:
Aussen-T/F 2701 05-06-2010 12:26:02 28 C 5.44 g/m*3 28 C 0 km/h
2702 05-06-2010 12:38:02 28.9 C 6.28 g/m*3 28.9 C 0 km/h
2703 05-06-2010 12:50:02 30.2 C 6.44 g/m*3 30.2 C 0 km/h
2704 05-06-2010 13:02:03 29 C 5.74 g/m*3 29 C 0 km/h
2705 05-06-2010 13:14:03 30.1 C 6.1 g/m*3 30.1 C 0 km/h
2706 05-06-2010 13:26:02 31.2 C 6.47 g/m*3 31.2 C 0 km/h
2707 05-06-2010 13:38:02 31.6 C 6.61 g/m*3 31.6 C 0 km/h
2708 05-06-2010 13:50:01 30.9 C 6.37 g/m*3 30.9 C 0 km/h
2709 05-06-2010 14:02:02 30.1 C 6.1 g/m*3 30.1 C 0 km/h
2710 05-06-2010 14:14:03 29.5 C 5.9 g/m*3 29.5 C 0 km/h
2711 05-06-2010 14:26:01 29.9 C 6.03 g/m*3 29.9 C 0 km/h
2712 05-06-2010 14:38:01 30.7 C 6.3 g/m*3 30.7 C 0 km/h
2713 05-06-2010 14:50:01 31 C 6.4 g/m*3 31 C 0 km/h
2714 05-06-2010 15:02:02 30.8 C 6.33 g/m*3 30.8 C 0 km/h
2715 05-06-2010 15:14:02 31.6 C 6.61 g/m*3 31.6 C 0 km/h
2716 05-06-2010 15:26:02 32.1 C 6.79 g/m*3 32.1 C 0 km/h
2717 05-06-2010 15:38:01 32.7 C 7.01 g/m*3 32.7 C 0 km/h
2718 05-06-2010 15:50:01 31.8 C 6.68 g/m*3 31.8 C 0 km/h
2719 05-06-2010 16:02:01 31.7 C 6.64 g/m*3 31.7 C 0 km/h
2720 05-06-2010 16:14:01 32.4 C 6.9 g/m*3 32.4 C 0 km/h
2721 05-06-2010 16:26:02 33.1 C 7.16 g/m*3 33.1 C 0 km/h
2722 05-06-2010 16:38:01 33.2 C 7.2 g/m*3 33.2 C 0 km/h
2723 05-06-2010 16:50:02 33 C 7.12 g/m*3 33 C 0 km/h
2724 05-06-2010 17:02:01 33.3 C 7.23 g/m*3 33.3 C 0 km/h
2725 05-06-2010 17:14:01 33.3 C 7.23 g/m*3 33.3 C 0 km/h
Sensor: Nr:Datum:Temp:Abs-Feuchte:Windchill:Wind:
Aussen-T/F 2726 05-06-2010 17:26:01 32.9 C 7.08 g/m*3 32.9 C 0 km/h
2727 05-06-2010 17:38:01 33 C 7.12 g/m*3 33 C 0 km/h
2728 05-06-2010 17:50:01 33.3 C 7.23 g/m*3 33.3 C 0 km/h
2729 05-06-2010 18:02:02 32.9 C 7.08 g/m*3 32.9 C 0 km/h
2730 05-06-2010 18:14:02 33.1 C 7.16 g/m*3 33.1 C 0 km/h
2731 05-06-2010 18:26:01 33.2 C 7.2 g/m*3 33.2 C 0 km/h
2732 05-06-2010 18:38:01 33.3 C 7.23 g/m*3 33.3 C 0 km/h
2733 05-06-2010 18:50:01 32.9 C 7.08 g/m*3 32.9 C 0 km/h
2734 05-06-2010 19:02:02 33.1 C 7.16 g/m*3 33.1 C 0 km/h
2735 05-06-2010 19:14:02 31.9 C 6.72 g/m*3 31.9 C 0 km/h
2736 05-06-2010 19:26:02 31.7 C 6.98 g/m*3 31.7 C 0 km/h
2737 05-06-2010 19:38:01 31.2 C 7.12 g/m*3 31.2 C 0 km/h
2738 05-06-2010 19:50:01 31 C 7.36 g/m*3 31 C 0 km/h
2739 05-06-2010 20:02:01 30.5 C 7.79 g/m*3 30.5 C 0 km/h
2740 05-06-2010 20:14:01 29.8 C 7.8 g/m*3 29.8 C 0 km/h
2741 05-06-2010 20:26:02 29 C 7.76 g/m*3 29 C 0 km/h
2742 05-06-2010 20:38:01 28.5 C 7.83 g/m*3 28.5 C 0 km/h
2743 05-06-2010 20:50:02 27.4 C 7.89 g/m*3 27.4 C 0 km/h
2744 05-06-2010 21:02:01 26.3 C 7.67 g/m*3 26.3 C 0 km/h
2745 05-06-2010 21:14:01 25.7 C 7.9 g/m*3 25.7 C 0 km/h
2746 05-06-2010 21:26:02 25.2 C 7.68 g/m*3 25.2 C 0 km/h
2747 05-06-2010 21:38:01 25.1 C 7.64 g/m*3 25.1 C 0 km/h
2748 05-06-2010 21:50:02 24.5 C 7.83 g/m*3 24.5 C 0 km/h
2749 05-06-2010 22:02:02 24.1 C 8.1 g/m*3 24.1 C 0 km/h
2750 05-06-2010 22:14:02 23.7 C 8.34 g/m*3 23.7 C 0 km/h
Sensor: Nr:Datum:Temp:Abs-Feuchte:Windchill:Wind:
Aussen-T/F 2751 05-06-2010 22:26:02 23.2 C 8.32 g/m*3 23.2 C 0 km/h
2752 05-06-2010 22:38:02 23 C 8.43 g/m*3 23 C 0 km/h
2753 05-06-2010 22:51:02 22.9 C 8.17 g/m*3 22.9 C 0 km/h
2754 05-06-2010 23:03:03 22.5 C 8.19 g/m*3 22.5 C 0 km/h
2755 05-06-2010 23:15:03 22.2 C 8.05 g/m*3 22.2 C 0 km/h
2756 05-06-2010 23:27:03 21.9 C 8.3 g/m*3 21.9 C 0 km/h
2757 05-06-2010 23:39:03 21.5 C 8.49 g/m*3 21.5 C 0 km/h
2758 05-06-2010 23:51:03 21.3 C 8.39 g/m*3 21.3 C 0 km/h
2759 06-06-2010 00:03:03 21.1 C 8.48 g/m*3 21.1 C 0 km/h
2760 06-06-2010 00:15:03 21 C 8.61 g/m*3 21 C 0 km/h
2761 06-06-2010 00:27:03 20.8 C 8.69 g/m*3 20.8 C 0 km/h
2762 06-06-2010 00:39:03 20.4 C 8.67 g/m*3 20.4 C 0 km/h
2763 06-06-2010 00:51:03 20.2 C 8.74 g/m*3 20.2 C 0 km/h
2764 06-06-2010 01:03:03 19.9 C 8.93 g/m*3 19.9 C 0 km/h
2765 06-06-2010 01:15:03 19.5 C 8.89 g/m*3 19.5 C 0 km/h
2766 06-06-2010 01:27:03 19.3 C 8.96 g/m*3 19.3 C 0 km/h
2767 06-06-2010 01:39:03 19 C 8.8 g/m*3 19 C 0 km/h
2768 06-06-2010 01:51:03 18.7 C 9.13 g/m*3 18.7 C 0 km/h
2769 06-06-2010 02:03:03 18.5 C 9.33 g/m*3 18.5 C 0 km/h
2770 06-06-2010 02:15:03 18.3 C 9.22 g/m*3 18.3 C 0 km/h
2771 06-06-2010 02:27:03 18.1 C 9.27 g/m*3 18.1 C 0 km/h
2772 06-06-2010 02:39:03 18.1 C 9.27 g/m*3 18.1 C 0 km/h
2773 06-06-2010 02:51:03 17.9 C 9.47 g/m*3 17.9 C 0 km/h
2774 06-06-2010 03:03:03 17.7 C 9.35 g/m*3 17.7 C 0 km/h
2775 06-06-2010 03:15:03 17.4 C 9.19 g/m*3 17.4 C 0 km/h
Sensor: Nr:Datum:Temp:Abs-Feuchte:Windchill:Wind:
Aussen-T/F 2776 06-06-2010 03:27:04 17.3 C 9.13 g/m*3 17.3 C 0 km/h
2777 06-06-2010 03:39:04 17.3 C 9.28 g/m*3 17.3 C 0 km/h
2778 06-06-2010 03:51:04 17.1 C 9.17 g/m*3 17.1 C 0 km/h
2779 06-06-2010 04:03:04 16.9 C 9.21 g/m*3 16.9 C 0 km/h
2780 06-06-2010 04:15:04 16.6 C 9.04 g/m*3 16.6 C 0 km/h
2781 06-06-2010 04:27:04 16.4 C 9.07 g/m*3 16.4 C 0 km/h
2782 06-06-2010 04:39:04 16.2 C 9.1 g/m*3 16.2 C 0 km/h
2783 06-06-2010 04:51:04 15.9 C 9.21 g/m*3 15.9 C 0 km/h
2784 06-06-2010 05:03:04 15.8 C 9.29 g/m*3 15.8 C 0 km/h
2785 06-06-2010 05:15:04 15.6 C 9.18 g/m*3 15.6 C 0 km/h
2786 06-06-2010 05:27:04 15.4 C 9.2 g/m*3 15.4 C 0 km/h
2787 06-06-2010 05:39:04 15.3 C 9.14 g/m*3 15.3 C 0 km/h
2788 06-06-2010 05:51:04 15.2 C 9.22 g/m*3 15.2 C 0 km/h
2789 06-06-2010 06:03:04 15.3 C 9.4 g/m*3 15.3 C 0 km/h
2790 06-06-2010 06:15:04 15.3 C 9.4 g/m*3 15.3 C 0 km/h
2791 06-06-2010 06:27:04 15.4 C 9.46 g/m*3 15.4 C 0 km/h
2792 06-06-2010 06:39:04 15.2 C 9.35 g/m*3 15.2 C 0 km/h
2793 06-06-2010 06:51:04 15.4 C 9.46 g/m*3 15.4 C 0 km/h
2794 06-06-2010 07:03:04 15.5 C 9.52 g/m*3 15.5 C 0 km/h
2795 06-06-2010 07:15:04 15.8 C 9.56 g/m*3 15.8 C 0 km/h
2796 06-06-2010 07:27:04 16.2 C 9.52 g/m*3 16.2 C 0 km/h
2797 06-06-2010 07:39:04 16.5 C 9.55 g/m*3 16.5 C 0 km/h
2798 06-06-2010 07:51:04 16.3 C 9.43 g/m*3 16.3 C 0 km/h
2799 06-06-2010 08:03:02 16.5 C 9.55 g/m*3 16.5 C 0 km/h
2800 06-06-2010 08:15:02 17.1 C 9.46 g/m*3 17.1 C 0 km/h
Sensor: Nr:Datum:Temp:Abs-Feuchte:Windchill:Wind:
Aussen-T/F 2801 06-06-2010 08:27:02 17.3 C 9.43 g/m*3 17.3 C 0 km/h
2802 06-06-2010 08:39:02 17.6 C 9 g/m*3 17.6 C 0 km/h
2803 06-06-2010 08:51:01 18.1 C 9.12 g/m*3 18.1 C 0 km/h
2804 06-06-2010 09:03:01 18.5 C 9.02 g/m*3 18.5 C 0 km/h
2805 06-06-2010 09:15:01 18.9 C 9.07 g/m*3 18.9 C 0 km/h
2806 06-06-2010 09:27:01 19.4 C 9.01 g/m*3 19.4 C 0 km/h
2807 06-06-2010 09:39:01 20.1 C 8.87 g/m*3 20.1 C 0 km/h
2808 06-06-2010 09:51:01 20.8 C 8.87 g/m*3 20.8 C 0 km/h
2809 06-06-2010 10:03:01 21.3 C 8.95 g/m*3 21.3 C 0 km/h
2810 06-06-2010 10:15:02 22.4 C 9.53 g/m*3 22.4 C 0 km/h
2811 06-06-2010 10:27:02 23.1 C 9.3 g/m*3 23.1 C 0 km/h
2812 06-06-2010 10:39:01 24.1 C 9.63 g/m*3 24.1 C 0 km/h
2813 06-06-2010 10:51:03 24.6 C 9.45 g/m*3 24.6 C 0 km/h
2814 06-06-2010 11:03:02 25.8 C 9.63 g/m*3 25.8 C 0 km/h
2815 06-06-2010 11:15:02 26.5 C 9.51 g/m*3 26.5 C 0 km/h
2816 06-06-2010 11:27:02 27.2 C 9.37 g/m*3 27.2 C 0 km/h
2817 06-06-2010 11:39:02 27.6 C 9.58 g/m*3 27.6 C 0 km/h
2818 06-06-2010 11:51:02 28.6 C 9.84 g/m*3 28.6 C 0 km/h
2819 06-06-2010 12:03:01 29.1 C 9.53 g/m*3 29.1 C 0 km/h
2820 06-06-2010 12:15:02 29.7 C 8.35 g/m*3 29.7 C 0 km/h
2821 06-06-2010 12:27:02 29.6 C 8.01 g/m*3 29.6 C 0 km/h
2822 06-06-2010 12:39:02 30 C 7.88 g/m*3 30 C 0 km/h
2823 06-06-2010 12:51:01 29.4 C 9.69 g/m*3 29.4 C 0 km/h
2824 06-06-2010 13:03:02 29.1 C 9.24 g/m*3 29.1 C 0 km/h
2825 06-06-2010 13:15:01 29.4 C 9.39 g/m*3 29.4 C 0 km/h
Sensor: Nr:Datum:Temp:Abs-Feuchte:Windchill:Wind:
Aussen-T/F 2826 06-06-2010 13:27:01 31.6 C 7.27 g/m*3 31.6 C 0 km/h
2827 06-06-2010 13:39:02 30.9 C 6.68 g/m*3 30.9 C 0 km/h
2828 06-06-2010 13:51:02 29.5 C 8.26 g/m*3 29.5 C 0 km/h
2829 06-06-2010 14:03:02 28.9 C 9.71 g/m*3 28.9 C 0 km/h
2830 06-06-2010 14:15:01 30 C 8.19 g/m*3 30 C 0 km/h
2831 06-06-2010 14:27:01 30.3 C 7.7 g/m*3 30.3 C 0 km/h
2832 06-06-2010 14:39:02 30.6 C 7.83 g/m*3 30.6 C 0 km/h
2833 06-06-2010 14:51:02 31 C 8 g/m*3 31 C 0 km/h
2834 06-06-2010 15:03:02 30.7 C 7.56 g/m*3 30.7 C 0 km/h
2835 06-06-2010 15:15:02 31.3 C 7.48 g/m*3 31.3 C 0 km/h
2836 06-06-2010 15:27:02 31.9 C 7.39 g/m*3 31.9 C 0 km/h
2837 06-06-2010 15:39:02 31.3 C 7.15 g/m*3 31.3 C 0 km/h
2838 06-06-2010 15:51:01 30.4 C 8.99 g/m*3 30.4 C 0 km/h
2839 06-06-2010 16:03:02 29.3 C 9.34 g/m*3 29.3 C 0 km/h
2840 06-06-2010 16:15:13 25.6 C 8.09 g/m*3 25.6 C 0 km/h
2841 06-06-2010 16:27:13 24 C 9.14 g/m*3 24 C 0 km/h
2842 06-06-2010 16:39:13 20.6 C 11.63 g/m*3 20.6 C 0 km/h
2843 06-06-2010 16:51:13 19.3 C 12.44 g/m*3 19.3 C 0 km/h
2844 06-06-2010 17:03:13 18.9 C 13.28 g/m*3 18.9 C 0 km/h
2845 06-06-2010 17:15:13 18.5 C 13.13 g/m*3 18.5 C 0 km/h
2846 06-06-2010 17:27:02 18.7 C 13.77 g/m*3 18.7 C 0 km/h
2847 06-06-2010 17:39:01 18.8 C 14.01 g/m*3 18.8 C 0 km/h
2848 06-06-2010 17:51:03 18.6 C 13.85 g/m*3 18.6 C 0 km/h
2849 06-06-2010 18:03:02 18.9 C 14.26 g/m*3 18.9 C 0 km/h
2850 06-06-2010 18:15:02 19.5 C 14.6 g/m*3 19.5 C 0 km/h
Sensor: Nr:Datum:Temp:Abs-Feuchte:Windchill:Wind:
Aussen-T/F 2851 06-06-2010 18:27:02 19.3 C 14.26 g/m*3 19.3 C 0 km/h
2852 06-06-2010 18:39:02 19.1 C 13.93 g/m*3 19.1 C 0 km/h
2853 06-06-2010 18:51:02 19.2 C 14.02 g/m*3 19.2 C 0 km/h
2854 06-06-2010 19:03:02 19.4 C 14.35 g/m*3 19.4 C 0 km/h
2855 06-06-2010 19:15:02 19.4 C 14.35 g/m*3 19.4 C 0 km/h
2856 06-06-2010 19:27:02 19.3 C 14.26 g/m*3 19.3 C 0 km/h
2857 06-06-2010 19:39:01 19.1 C 14.1 g/m*3 19.1 C 0 km/h
2858 06-06-2010 19:51:02 18.9 C 14.09 g/m*3 18.9 C 0 km/h
2859 06-06-2010 20:03:01 19.2 C 14.35 g/m*3 19.2 C 0 km/h
2860 06-06-2010 20:15:01 19.2 C 14.35 g/m*3 19.2 C 0 km/h
2861 06-06-2010 20:27:01 19 C 14.01 g/m*3 19 C 0 km/h
2862 06-06-2010 20:39:02 18.8 C 14.01 g/m*3 18.8 C 0 km/h
2863 06-06-2010 20:51:02 18.8 C 14.01 g/m*3 18.8 C 0 km/h
2864 06-06-2010 21:03:02 18.7 C 13.93 g/m*3 18.7 C 0 km/h
2865 06-06-2010 21:15:02 18.7 C 13.93 g/m*3 18.7 C 0 km/h
2866 06-06-2010 21:27:02 18.6 C 13.85 g/m*3 18.6 C 0 km/h
2867 06-06-2010 21:39:02 18.5 C 13.77 g/m*3 18.5 C 0 km/h
2868 06-06-2010 21:51:02 18.5 C 13.77 g/m*3 18.5 C 0 km/h
2869 06-06-2010 22:03:02 18.4 C 13.68 g/m*3 18.4 C 0 km/h
2870 06-06-2010 22:16:02 18.4 C 13.68 g/m*3 18.4 C 0 km/h
2871 06-06-2010 22:28:02 18.3 C 13.6 g/m*3 18.3 C 0 km/h
2872 06-06-2010 22:40:02 18.3 C 13.6 g/m*3 18.3 C 0 km/h
2873 06-06-2010 22:52:02 18.3 C 13.76 g/m*3 18.3 C 0 km/h
2874 06-06-2010 23:04:02 18.4 C 13.68 g/m*3 18.4 C 0 km/h
2875 06-06-2010 23:16:02 18.5 C 13.77 g/m*3 18.5 C 0 km/h
Sensor: Nr:Datum:Temp:Abs-Feuchte:Windchill:Wind:
Aussen-T/F 2876 06-06-2010 23:28:02 18.4 C 13.53 g/m*3 18.4 C 0 km/h
2877 06-06-2010 23:40:02 18.1 C 13.29 g/m*3 18.1 C 0 km/h
2878 06-06-2010 23:52:02 18.1 C 13.29 g/m*3 18.1 C 0 km/h
2879 07-06-2010 00:04:02 17.7 C 13.28 g/m*3 17.7 C 0 km/h
2880 07-06-2010 00:16:02 17.9 C 13.44 g/m*3 17.9 C 0 km/h
2881 07-06-2010 00:28:02 18 C 13.52 g/m*3 18 C 0 km/h
2882 07-06-2010 00:40:02 18 C 13.52 g/m*3 18 C 0 km/h
2883 07-06-2010 00:52:02 18 C 13.52 g/m*3 18 C 0 km/h
2884 07-06-2010 01:04:02 17.9 C 13.74 g/m*3 17.9 C 0 km/h
2885 07-06-2010 01:16:02 17.9 C 13.74 g/m*3 17.9 C 0 km/h
2886 07-06-2010 01:28:02 17.8 C 13.81 g/m*3 17.8 C 0 km/h
2887 07-06-2010 01:40:02 17.7 C 13.73 g/m*3 17.7 C 0 km/h
2888 07-06-2010 01:52:02 17.8 C 13.81 g/m*3 17.8 C 0 km/h
2889 07-06-2010 02:04:03 17.9 C 13.89 g/m*3 17.9 C 0 km/h
2890 07-06-2010 02:16:03 17.9 C 13.89 g/m*3 17.9 C 0 km/h
2891 07-06-2010 02:28:03 17.6 C 13.05 g/m*3 17.6 C 0 km/h
2892 07-06-2010 02:40:03 17 C 10.85 g/m*3 17 C 0 km/h
2893 07-06-2010 02:52:03 16.4 C 10.89 g/m*3 16.4 C 0 km/h
2894 07-06-2010 03:04:03 16.2 C 10.62 g/m*3 16.2 C 0 km/h
2895 07-06-2010 03:16:03 15.8 C 10.23 g/m*3 15.8 C 0 km/h
2896 07-06-2010 03:28:03 15.3 C 10.06 g/m*3 15.3 C 0 km/h
2897 07-06-2010 03:40:03 15 C 10 g/m*3 15 C 0 km/h
2898 07-06-2010 03:52:03 15 C 9.49 g/m*3 15 C 0 km/h
2899 07-06-2010 04:04:03 14.8 C 9.12 g/m*3 14.8 C 0 km/h
2900 07-06-2010 04:16:03 14.4 C 9.02 g/m*3 14.4 C 0 km/h
Sensor: Nr:Datum:Temp:Abs-Feuchte:Windchill:Wind:
Aussen-T/F 2901 07-06-2010 04:28:03 13.9 C 9.11 g/m*3 13.9 C 0 km/h
2902 07-06-2010 04:40:03 13.5 C 9.01 g/m*3 13.5 C 0 km/h
2903 07-06-2010 04:52:03 13.4 C 9.18 g/m*3 13.4 C 0 km/h
2904 07-06-2010 05:04:03 13.6 C 9.18 g/m*3 13.6 C 0 km/h
2905 07-06-2010 05:16:03 13.6 C 9.06 g/m*3 13.6 C 0 km/h
2906 07-06-2010 05:28:03 13.6 C 9.06 g/m*3 13.6 C 0 km/h
2907 07-06-2010 05:40:03 13.7 C 9.24 g/m*3 13.7 C 0 km/h
2908 07-06-2010 05:52:03 13.5 C 9.24 g/m*3 13.5 C 0 km/h
2909 07-06-2010 06:04:04 13.7 C 9.47 g/m*3 13.7 C 0 km/h
2910 07-06-2010 06:16:04 14.1 C 9.59 g/m*3 14.1 C 0 km/h
2911 07-06-2010 06:28:04 14.5 C 9.33 g/m*3 14.5 C 0 km/h
2912 07-06-2010 06:40:04 14.8 C 9.12 g/m*3 14.8 C 0 km/h
2913 07-06-2010 06:52:04 14.9 C 9.3 g/m*3 14.9 C 0 km/h
2914 07-06-2010 07:04:02 15.1 C 9.03 g/m*3 15.1 C 0 km/h
2915 07-06-2010 07:16:02 15.3 C 9.14 g/m*3 15.3 C 0 km/h
2916 07-06-2010 07:28:02 15 C 8.98 g/m*3 15 C 0 km/h
2917 07-06-2010 07:40:18 14.9 C 9.3 g/m*3 14.9 C 0 km/h
2918 07-06-2010 07:52:01 14.9 C 9.43 g/m*3 14.9 C 0 km/h
2919 07-06-2010 08:04:02 15.2 C 9.35 g/m*3 15.2 C 0 km/h
2920 07-06-2010 08:16:02 15.4 C 9.33 g/m*3 15.4 C 0 km/h
2921 07-06-2010 08:28:02 15.6 C 9.31 g/m*3 15.6 C 0 km/h
2922 07-06-2010 08:40:01 15.7 C 9.37 g/m*3 15.7 C 0 km/h
2923 07-06-2010 08:52:03 15.8 C 9.29 g/m*3 15.8 C 0 km/h
2924 07-06-2010 09:04:02 16.5 C 9.55 g/m*3 16.5 C 0 km/h
2925 07-06-2010 09:16:02 17.2 C 9.23 g/m*3 17.2 C 0 km/h
Sensor: Nr:Datum:Temp:Abs-Feuchte:Windchill:Wind:
Aussen-T/F 2926 07-06-2010 09:28:03 17.2 C 9.23 g/m*3 17.2 C 0 km/h
2927 07-06-2010 09:40:02 17 C 8.97 g/m*3 17 C 0 km/h
2928 07-06-2010 09:52:02 17.5 C 9.09 g/m*3 17.5 C 0 km/h
2929 07-06-2010 10:04:01 17.6 C 9.15 g/m*3 17.6 C 0 km/h
2930 07-06-2010 10:16:02 18.1 C 8.96 g/m*3 18.1 C 0 km/h
2931 07-06-2010 10:28:02 18.3 C 8.76 g/m*3 18.3 C 0 km/h
2932 07-06-2010 10:40:02 18.7 C 8.81 g/m*3 18.7 C 0 km/h
2933 07-06-2010 10:52:01 18.9 C 9.07 g/m*3 18.9 C 0 km/h
2934 07-06-2010 11:04:02 19.5 C 8.89 g/m*3 19.5 C 0 km/h
2935 07-06-2010 11:16:01 19.3 C 8.79 g/m*3 19.3 C 0 km/h
2936 07-06-2010 11:28:01 19.1 C 8.69 g/m*3 19.1 C 0 km/h
2937 07-06-2010 11:40:01 19.5 C 8.73 g/m*3 19.5 C 0 km/h
2938 07-06-2010 11:52:02 19.9 C 8.42 g/m*3 19.9 C 0 km/h
2939 07-06-2010 12:04:02 20.7 C 8.1 g/m*3 20.7 C 0 km/h
2940 07-06-2010 12:16:01 21.6 C 7.97 g/m*3 21.6 C 0 km/h
2941 07-06-2010 12:28:01 21.9 C 7.91 g/m*3 21.9 C 0 km/h
2942 07-06-2010 12:40:02 22.4 C 7.94 g/m*3 22.4 C 0 km/h
2943 07-06-2010 12:52:02 23.1 C 7.65 g/m*3 23.1 C 0 km/h
2944 07-06-2010 13:04:02 23.1 C 7.23 g/m*3 23.1 C 0 km/h
2945 07-06-2010 13:16:01 24.3 C 7.3 g/m*3 24.3 C 0 km/h
2946 07-06-2010 13:28:01 24.3 C 7.75 g/m*3 24.3 C 0 km/h
2947 07-06-2010 13:40:02 23.4 C 6.73 g/m*3 23.4 C 0 km/h
2948 07-06-2010 13:52:01 23.8 C 7.31 g/m*3 23.8 C 0 km/h
2949 07-06-2010 14:04:02 23.9 C 6.92 g/m*3 23.9 C 0 km/h
2950 07-06-2010 14:16:02 23.7 C 7.27 g/m*3 23.7 C 0 km/h
Sensor: Nr:Datum:Temp:Abs-Feuchte:Windchill:Wind:
Aussen-T/F 2951 07-06-2010 14:28:02 24.1 C 6.78 g/m*3 24.1 C 0 km/h
2952 07-06-2010 14:40:02 24.1 C 7 g/m*3 24.1 C 0 km/h
2953 07-06-2010 14:52:02 24.2 C 6.82 g/m*3 24.2 C 0 km/h
2954 07-06-2010 15:04:01 24.4 C 6.68 g/m*3 24.4 C 0 km/h
2955 07-06-2010 15:16:02 24 C 6.74 g/m*3 24 C 0 km/h
2956 07-06-2010 15:28:02 24.7 C 6.79 g/m*3 24.7 C 0 km/h
2957 07-06-2010 15:40:01 24.7 C 6.34 g/m*3 24.7 C 0 km/h
2958 07-06-2010 15:52:02 23.7 C 6.63 g/m*3 23.7 C 0 km/h
2959 07-06-2010 16:04:01 24.8 C 6.6 g/m*3 24.8 C 0 km/h
2960 07-06-2010 16:16:01 25.3 C 6.55 g/m*3 25.3 C 0 km/h
2961 07-06-2010 16:28:01 25.6 C 6.43 g/m*3 25.6 C 0 km/h
2962 07-06-2010 16:40:02 25.1 C 6.02 g/m*3 25.1 C 0 km/h
2963 07-06-2010 16:52:02 25.3 C 6.32 g/m*3 25.3 C 0 km/h
2964 07-06-2010 17:04:01 24.5 C 6.04 g/m*3 24.5 C 0 km/h
2965 07-06-2010 17:16:02 24.8 C 6.15 g/m*3 24.8 C 0 km/h
2966 07-06-2010 17:28:02 24.3 C 5.97 g/m*3 24.3 C 0 km/h
2967 07-06-2010 17:40:02 24.9 C 5.95 g/m*3 24.9 C 0 km/h
2968 07-06-2010 17:52:02 24.8 C 5.69 g/m*3 24.8 C 0 km/h
2969 07-06-2010 18:04:03 24.5 C 5.6 g/m*3 24.5 C 0 km/h
2970 07-06-2010 18:16:02 26.2 C 5.42 g/m*3 26.2 C 0 km/h
2971 07-06-2010 18:28:02 25.6 C 5 g/m*3 25.6 C 0 km/h
2972 07-06-2010 18:40:02 26.9 C 5.37 g/m*3 26.9 C 0 km/h
2973 07-06-2010 18:52:01 26.4 C 4.98 g/m*3 26.4 C 0 km/h
2974 07-06-2010 19:04:02 26.6 C 5.29 g/m*3 26.6 C 0 km/h
2975 07-06-2010 19:16:01 26 C 5.11 g/m*3 26 C 0 km/h
Sensor: Nr:Datum:Temp:Abs-Feuchte:Windchill:Wind:
Aussen-T/F 2976 07-06-2010 19:28:01 25.5 C 5.21 g/m*3 25.5 C 0 km/h
2977 07-06-2010 19:40:01 25.2 C 5.35 g/m*3 25.2 C 0 km/h
2978 07-06-2010 19:52:01 23.9 C 5.41 g/m*3 23.9 C 0 km/h
2979 07-06-2010 20:04:01 24.1 C 5.47 g/m*3 24.1 C 0 km/h
2980 07-06-2010 20:16:02 24.1 C 5.69 g/m*3 24.1 C 0 km/h
2981 07-06-2010 20:28:02 23.1 C 5.79 g/m*3 23.1 C 0 km/h
2982 07-06-2010 20:40:01 22.3 C 6.12 g/m*3 22.3 C 0 km/h
2983 07-06-2010 20:52:01 21.8 C 6.72 g/m*3 21.8 C 0 km/h
2984 07-06-2010 21:04:01 21 C 6.41 g/m*3 21 C 0 km/h
2985 07-06-2010 21:16:02 20.4 C 6.72 g/m*3 20.4 C 0 km/h
2986 07-06-2010 21:28:02 19.9 C 6.87 g/m*3 19.9 C 0 km/h
2987 07-06-2010 21:40:01 19.4 C 6.84 g/m*3 19.4 C 0 km/h
2988 07-06-2010 21:52:03 19.5 C 7.05 g/m*3 19.5 C 0 km/h
2989 07-06-2010 22:04:03 18.9 C 6.97 g/m*3 18.9 C 0 km/h
2990 07-06-2010 22:16:02 18.8 C 7.25 g/m*3 18.8 C 0 km/h
2991 07-06-2010 22:28:02 18.5 C 7.28 g/m*3 18.5 C 0 km/h
2992 07-06-2010 22:40:03 18.3 C 7.35 g/m*3 18.3 C 0 km/h
2993 07-06-2010 22:53:02 17.9 C 7.79 g/m*3 17.9 C 0 km/h
2994 07-06-2010 23:05:02 17.9 C 7.94 g/m*3 17.9 C 0 km/h
2995 07-06-2010 23:17:03 17.4 C 7.85 g/m*3 17.4 C 0 km/h
2996 07-06-2010 23:29:03 17 C 7.81 g/m*3 17 C 0 km/h
2997 07-06-2010 23:41:03 17 C 8.39 g/m*3 17 C 0 km/h
2998 07-06-2010 23:53:03 17 C 8.39 g/m*3 17 C 0 km/h
2999 08-06-2010 00:05:03 16.8 C 8.58 g/m*3 16.8 C 0 km/h
3000 08-06-2010 00:17:03 16.4 C 8.37 g/m*3 16.4 C 0 km/h
Sensor: Nr:Datum:Temp:Abs-Feuchte:Windchill:Wind:
Aussen-T/F 3001 08-06-2010 00:29:03 16.3 C 8.46 g/m*3 16.3 C 0 km/h
3002 08-06-2010 00:41:03 16.2 C 8.55 g/m*3 16.2 C 0 km/h
3003 08-06-2010 00:53:03 16 C 8.45 g/m*3 16 C 0 km/h
3004 08-06-2010 01:05:03 15.8 C 8.62 g/m*3 15.8 C 0 km/h
3005 08-06-2010 01:17:03 15.6 C 8.51 g/m*3 15.6 C 0 km/h
3006 08-06-2010 01:29:03 15 C 8.33 g/m*3 15 C 0 km/h
3007 08-06-2010 01:41:03 14.9 C 8.54 g/m*3 14.9 C 0 km/h
3008 08-06-2010 01:53:03 14.8 C 8.49 g/m*3 14.8 C 0 km/h
3009 08-06-2010 02:05:03 14.7 C 8.44 g/m*3 14.7 C 0 km/h
3010 08-06-2010 02:17:03 14.4 C 8.41 g/m*3 14.4 C 0 km/h
3011 08-06-2010 02:29:03 14.1 C 8.25 g/m*3 14.1 C 0 km/h
3012 08-06-2010 02:41:03 14 C 8.32 g/m*3 14 C 0 km/h
3013 08-06-2010 02:53:03 14.1 C 8.37 g/m*3 14.1 C 0 km/h
3014 08-06-2010 03:05:03 14.1 C 8.37 g/m*3 14.1 C 0 km/h
3015 08-06-2010 03:17:04 14.1 C 8.37 g/m*3 14.1 C 0 km/h
3016 08-06-2010 03:29:04 13.9 C 8.39 g/m*3 13.9 C 0 km/h
3017 08-06-2010 03:41:04 13.6 C 8.36 g/m*3 13.6 C 0 km/h
3018 08-06-2010 03:53:04 13.5 C 8.3 g/m*3 13.5 C 0 km/h
3019 08-06-2010 04:05:04 13.4 C 8.25 g/m*3 13.4 C 0 km/h
3020 08-06-2010 04:17:04 13 C 8.05 g/m*3 13 C 0 km/h
3021 08-06-2010 04:29:04 13.2 C 8.27 g/m*3 13.2 C 0 km/h
3022 08-06-2010 04:41:04 13.2 C 8.27 g/m*3 13.2 C 0 km/h
3023 08-06-2010 04:53:04 13.2 C 8.27 g/m*3 13.2 C 0 km/h
3024 08-06-2010 05:05:04 13.3 C 8.32 g/m*3 13.3 C 0 km/h
3025 08-06-2010 05:17:04 13.4 C 8.49 g/m*3 13.4 C 0 km/h
Sensor: Nr:Datum:Temp:Abs-Feuchte:Windchill:Wind:
Aussen-T/F 3026 08-06-2010 05:29:04 13.6 C 8.47 g/m*3 13.6 C 0 km/h
3027 08-06-2010 05:41:04 13.4 C 8.37 g/m*3 13.4 C 0 km/h
3028 08-06-2010 05:53:04 13.3 C 8.43 g/m*3 13.3 C 0 km/h
3029 08-06-2010 06:05:04 13.2 C 8.5 g/m*3 13.2 C 0 km/h
3030 08-06-2010 06:17:04 13.5 C 8.66 g/m*3 13.5 C 0 km/h
3031 08-06-2010 06:29:04 13.9 C 8.75 g/m*3 13.9 C 0 km/h
3032 08-06-2010 06:41:04 13.7 C 8.53 g/m*3 13.7 C 0 km/h
3033 08-06-2010 06:53:04 14 C 8.68 g/m*3 14 C 0 km/h
3034 08-06-2010 07:05:02 13.9 C 8.63 g/m*3 13.9 C 0 km/h
3035 08-06-2010 07:17:01 13.9 C 8.75 g/m*3 13.9 C 0 km/h
3036 08-06-2010 07:29:01 14.2 C 8.79 g/m*3 14.2 C 0 km/h
3037 08-06-2010 07:41:02 14.6 C 8.88 g/m*3 14.6 C 0 km/h
3038 08-06-2010 07:53:02 15.2 C 8.96 g/m*3 15.2 C 0 km/h
3039 08-06-2010 08:05:02 15.6 C 9.04 g/m*3 15.6 C 0 km/h
3040 08-06-2010 08:17:02 16 C 8.86 g/m*3 16 C 0 km/h
3041 08-06-2010 08:29:02 16.3 C 8.88 g/m*3 16.3 C 0 km/h
3042 08-06-2010 08:41:02 17.2 C 8.93 g/m*3 17.2 C 0 km/h
3043 08-06-2010 08:53:02 17.4 C 8.74 g/m*3 17.4 C 0 km/h
3044 08-06-2010 09:05:03 18.1 C 8.96 g/m*3 18.1 C 0 km/h
3045 08-06-2010 09:17:02 18.6 C 8.91 g/m*3 18.6 C 0 km/h
3046 08-06-2010 09:29:02 19.2 C 8.9 g/m*3 19.2 C 0 km/h
3047 08-06-2010 09:41:02 19.9 C 9.11 g/m*3 19.9 C 0 km/h
3048 08-06-2010 09:53:01 20.1 C 8.87 g/m*3 20.1 C 0 km/h
3049 08-06-2010 10:05:02 20.6 C 9.49 g/m*3 20.6 C 0 km/h
3050 08-06-2010 10:17:01 21.1 C 8.66 g/m*3 21.1 C 0 km/h
Sensor: Nr:Datum:Temp:Abs-Feuchte:Windchill:Wind:
Aussen-T/F 3051 08-06-2010 10:29:01 21.8 C 8.25 g/m*3 21.8 C 0 km/h
3052 08-06-2010 10:41:02 22.6 C 8.44 g/m*3 22.6 C 0 km/h
3053 08-06-2010 10:53:01 23.5 C 8.67 g/m*3 23.5 C 0 km/h
3054 08-06-2010 11:05:02 24.3 C 8.63 g/m*3 24.3 C 0 km/h
3055 08-06-2010 11:17:02 24.5 C 8.28 g/m*3 24.5 C 0 km/h
3056 08-06-2010 11:29:02 25.3 C 7.96 g/m*3 25.3 C 0 km/h
3057 08-06-2010 11:41:01 26.3 C 7.67 g/m*3 26.3 C 0 km/h
3058 08-06-2010 11:53:01 26.9 C 7.68 g/m*3 26.9 C 0 km/h
3059 08-06-2010 12:05:01 27.2 C 7.81 g/m*3 27.2 C 0 km/h
3060 08-06-2010 12:17:02 27 C 7.21 g/m*3 27 C 0 km/h
3061 08-06-2010 12:29:02 28.8 C 7.39 g/m*3 28.8 C 0 km/h
3062 08-06-2010 12:41:01 28.4 C 6.67 g/m*3 28.4 C 0 km/h
3063 08-06-2010 12:53:02 28.2 C 6.87 g/m*3 28.2 C 0 km/h
3064 08-06-2010 13:05:01 28 C 7.07 g/m*3 28 C 0 km/h
3065 08-06-2010 13:17:02 28.6 C 6.46 g/m*3 28.6 C 0 km/h
3066 08-06-2010 13:29:02 27.6 C 6.65 g/m*3 27.6 C 0 km/h
3067 08-06-2010 13:41:01 26.7 C 6.58 g/m*3 26.7 C 0 km/h
3068 08-06-2010 13:53:02 27 C 6.95 g/m*3 27 C 0 km/h
3069 08-06-2010 14:05:02 26.5 C 7.51 g/m*3 26.5 C 0 km/h
3070 08-06-2010 14:17:02 26.2 C 7.88 g/m*3 26.2 C 0 km/h
3071 08-06-2010 14:29:02 25.7 C 8.38 g/m*3 25.7 C 0 km/h
3072 08-06-2010 14:41:02 26.3 C 8.66 g/m*3 26.3 C 0 km/h
3073 08-06-2010 14:53:02 26.7 C 8.61 g/m*3 26.7 C 0 km/h
3074 08-06-2010 15:05:01 26.9 C 8.96 g/m*3 26.9 C 0 km/h
3075 08-06-2010 15:17:02 26.6 C 8.31 g/m*3 26.6 C 0 km/h
Sensor: Nr:Datum:Temp:Abs-Feuchte:Windchill:Wind:
Aussen-T/F 3076 08-06-2010 15:29:02 26.5 C 8.01 g/m*3 26.5 C 0 km/h
3077 08-06-2010 15:41:01 25.6 C 8.33 g/m*3 25.6 C 0 km/h
3078 08-06-2010 15:53:02 26.2 C 8.37 g/m*3 26.2 C 0 km/h
3079 08-06-2010 16:05:02 25.3 C 7.73 g/m*3 25.3 C 0 km/h
3080 08-06-2010 16:17:02 23.7 C 7.91 g/m*3 23.7 C 0 km/h
3081 08-06-2010 16:29:02 22.1 C 8.39 g/m*3 22.1 C 0 km/h
3082 08-06-2010 16:41:01 21.7 C 8.39 g/m*3 21.7 C 0 km/h
3083 08-06-2010 16:53:02 20.3 C 9.5 g/m*3 20.3 C 0 km/h
3084 08-06-2010 17:05:02 20.2 C 11.19 g/m*3 20.2 C 0 km/h
3085 08-06-2010 17:17:02 20.6 C 11.1 g/m*3 20.6 C 0 km/h
3086 08-06-2010 17:29:02 20.9 C 10.38 g/m*3 20.9 C 0 km/h
3087 08-06-2010 17:41:02 21.1 C 9.77 g/m*3 21.1 C 0 km/h
3088 08-06-2010 17:53:02 21.4 C 9.94 g/m*3 21.4 C 0 km/h
3089 08-06-2010 18:05:03 21.9 C 10.61 g/m*3 21.9 C 0 km/h
3090 08-06-2010 18:17:03 22.6 C 9.84 g/m*3 22.6 C 0 km/h
3091 08-06-2010 18:29:03 23.1 C 10.13 g/m*3 23.1 C 0 km/h
3092 08-06-2010 18:41:03 23.8 C 9.9 g/m*3 23.8 C 0 km/h
3093 08-06-2010 18:53:03 23.9 C 10.17 g/m*3 23.9 C 0 km/h
3094 08-06-2010 19:05:03 23.7 C 10.69 g/m*3 23.7 C 0 km/h
3095 08-06-2010 19:17:02 23.6 C 10.42 g/m*3 23.6 C 0 km/h
3096 08-06-2010 19:29:02 23.2 C 9.77 g/m*3 23.2 C 0 km/h
3097 08-06-2010 19:41:02 22.9 C 9.81 g/m*3 22.9 C 0 km/h
3098 08-06-2010 19:53:02 22.6 C 10.04 g/m*3 22.6 C 0 km/h
3099 08-06-2010 20:05:02 22.5 C 10.19 g/m*3 22.5 C 0 km/h
3100 08-06-2010 20:17:02 22.3 C 10.27 g/m*3 22.3 C 0 km/h
Sensor: Nr:Datum:Temp:Abs-Feuchte:Windchill:Wind:
Aussen-T/F 3101 08-06-2010 20:29:02 22 C 10.67 g/m*3 22 C 0 km/h
3102 08-06-2010 20:41:02 21.7 C 10.49 g/m*3 21.7 C 0 km/h
3103 08-06-2010 20:53:02 21.5 C 10.56 g/m*3 21.5 C 0 km/h
3104 08-06-2010 21:05:03 21.3 C 10.44 g/m*3 21.3 C 0 km/h
3105 08-06-2010 21:17:02 21 C 10.62 g/m*3 21 C 0 km/h
3106 08-06-2010 21:29:02 20.8 C 10.86 g/m*3 20.8 C 0 km/h
3107 08-06-2010 21:41:02 20.4 C 10.79 g/m*3 20.4 C 0 km/h
3108 08-06-2010 21:53:02 19.5 C 11.41 g/m*3 19.5 C 0 km/h
3109 08-06-2010 22:06:41 19 C 11.9 g/m*3 19 C 0 km/h
3110 08-06-2010 22:18:41 18.8 C 12.4 g/m*3 18.8 C 0 km/h
3111 08-06-2010 22:30:41 18.5 C 12.34 g/m*3 18.5 C 0 km/h
3112 08-06-2010 22:42:41 18.3 C 12.35 g/m*3 18.3 C 0 km/h
3113 08-06-2010 22:54:42 18.2 C 12.43 g/m*3 18.2 C 0 km/h
3114 08-06-2010 23:06:42 18.1 C 12.52 g/m*3 18.1 C 0 km/h
3115 08-06-2010 23:18:42 18.2 C 12.59 g/m*3 18.2 C 0 km/h
3116 08-06-2010 23:30:42 18.1 C 12.52 g/m*3 18.1 C 0 km/h
3117 08-06-2010 23:42:42 18.1 C 12.36 g/m*3 18.1 C 0 km/h
3118 08-06-2010 23:54:42 17.9 C 12.52 g/m*3 17.9 C 0 km/h
3119 09-06-2010 00:06:42 17.8 C 12.6 g/m*3 17.8 C 0 km/h
3120 09-06-2010 00:18:42 17.8 C 12.6 g/m*3 17.8 C 0 km/h
3121 09-06-2010 00:30:42 17.7 C 12.52 g/m*3 17.7 C 0 km/h
3122 09-06-2010 00:42:42 17.7 C 12.52 g/m*3 17.7 C 0 km/h
3123 09-06-2010 00:54:42 17.7 C 12.52 g/m*3 17.7 C 0 km/h
3124 09-06-2010 01:06:42 17.7 C 12.52 g/m*3 17.7 C 0 km/h
3125 09-06-2010 01:18:42 17.6 C 12.45 g/m*3 17.6 C 0 km/h
Sensor: Nr:Datum:Temp:Abs-Feuchte:Windchill:Wind:
Aussen-T/F 3126 09-06-2010 01:30:42 17.7 C 12.52 g/m*3 17.7 C 0 km/h
3127 09-06-2010 01:42:42 17.7 C 12.22 g/m*3 17.7 C 0 km/h
3128 09-06-2010 01:54:42 17.7 C 11.92 g/m*3 17.7 C 0 km/h
3129 09-06-2010 02:06:42 17.3 C 11.64 g/m*3 17.3 C 0 km/h
3130 09-06-2010 02:18:42 17.1 C 11.79 g/m*3 17.1 C 0 km/h
3131 09-06-2010 02:30:42 16.9 C 11.79 g/m*3 16.9 C 0 km/h
3132 09-06-2010 02:42:42 17 C 12.01 g/m*3 17 C 0 km/h
3133 09-06-2010 02:54:42 17.1 C 12.08 g/m*3 17.1 C 0 km/h
3134 09-06-2010 03:06:43 17.1 C 12.08 g/m*3 17.1 C 0 km/h
3135 09-06-2010 03:18:43 17.1 C 12.08 g/m*3 17.1 C 0 km/h
3136 09-06-2010 03:30:43 17 C 12.15 g/m*3 17 C 0 km/h
3137 09-06-2010 03:42:43 17.1 C 12.08 g/m*3 17.1 C 0 km/h
3138 09-06-2010 03:54:43 17 C 12.01 g/m*3 17 C 0 km/h
3139 09-06-2010 04:06:43 17 C 12.15 g/m*3 17 C 0 km/h
3140 09-06-2010 04:18:43 17 C 12.01 g/m*3 17 C 0 km/h
3141 09-06-2010 04:30:43 16.9 C 12.08 g/m*3 16.9 C 0 km/h
3142 09-06-2010 04:42:43 17 C 12.01 g/m*3 17 C 0 km/h
3143 09-06-2010 04:54:43 16.9 C 12.08 g/m*3 16.9 C 0 km/h
3144 09-06-2010 05:06:43 16.9 C 12.08 g/m*3 16.9 C 0 km/h
3145 09-06-2010 05:18:43 16.8 C 12.01 g/m*3 16.8 C 0 km/h
3146 09-06-2010 05:30:43 16.8 C 12.01 g/m*3 16.8 C 0 km/h
3147 09-06-2010 05:42:43 16.8 C 12.01 g/m*3 16.8 C 0 km/h
3148 09-06-2010 05:54:43 16.9 C 11.94 g/m*3 16.9 C 0 km/h
3149 09-06-2010 06:06:43 16.9 C 11.94 g/m*3 16.9 C 0 km/h
3150 09-06-2010 06:18:43 16.9 C 11.94 g/m*3 16.9 C 0 km/h
Sensor: Nr:Datum:Temp:Abs-Feuchte:Windchill:Wind:
Aussen-T/F 3151 09-06-2010 06:30:43 17 C 11.87 g/m*3 17 C 0 km/h
3152 09-06-2010 06:42:43 17.2 C 12.01 g/m*3 17.2 C 0 km/h
3153 09-06-2010 06:54:01 17.3 C 12.08 g/m*3 17.3 C 0 km/h
3154 09-06-2010 07:06:02 17.8 C 12.45 g/m*3 17.8 C 0 km/h
3155 09-06-2010 07:18:01 17.9 C 12.21 g/m*3 17.9 C 0 km/h
3156 09-06-2010 07:30:01 18.1 C 12.05 g/m*3 18.1 C 0 km/h
3157 09-06-2010 07:42:02 18.4 C 12.11 g/m*3 18.4 C 0 km/h
3158 09-06-2010 07:54:02 18.8 C 12.4 g/m*3 18.8 C 0 km/h
3159 09-06-2010 08:06:02 19 C 12.06 g/m*3 19 C 0 km/h
3160 09-06-2010 08:18:02 19.6 C 12.49 g/m*3 19.6 C 0 km/h
3161 09-06-2010 08:30:02 19.9 C 12.37 g/m*3 19.9 C 0 km/h
3162 09-06-2010 08:42:02 20.4 C 12.56 g/m*3 20.4 C 0 km/h
3163 09-06-2010 08:54:02 20.8 C 12.13 g/m*3 20.8 C 0 km/h
3164 09-06-2010 09:06:03 20.9 C 12.02 g/m*3 20.9 C 0 km/h
3165 09-06-2010 09:18:02 21.6 C 11.95 g/m*3 21.6 C 0 km/h
3166 09-06-2010 09:30:02 21.7 C 11.83 g/m*3 21.7 C 0 km/h
3167 09-06-2010 09:42:01 22.3 C 11.65 g/m*3 22.3 C 0 km/h
3168 09-06-2010 09:54:02 22.5 C 11.78 g/m*3 22.5 C 0 km/h
3169 09-06-2010 10:06:01 23.3 C 11.5 g/m*3 23.3 C 0 km/h
3170 09-06-2010 10:18:02 23 C 11.72 g/m*3 23 C 0 km/h
3171 09-06-2010 10:30:02 23.3 C 11.5 g/m*3 23.3 C 0 km/h
3172 09-06-2010 10:42:02 24.2 C 11.44 g/m*3 24.2 C 0 km/h
3173 09-06-2010 10:54:02 24.8 C 10.93 g/m*3 24.8 C 0 km/h
3174 09-06-2010 11:06:02 25.5 C 10.65 g/m*3 25.5 C 0 km/h
3175 09-06-2010 11:18:02 25.7 C 10.53 g/m*3 25.7 C 0 km/h
Sensor: Nr:Datum:Temp:Abs-Feuchte:Windchill:Wind:
Aussen-T/F 3176 09-06-2010 11:30:02 24.8 C 10.24 g/m*3 24.8 C 0 km/h
3177 09-06-2010 11:42:02 25.5 C 9.94 g/m*3 25.5 C 0 km/h
3178 09-06-2010 11:54:02 26.3 C 9.41 g/m*3 26.3 C 0 km/h
3179 09-06-2010 12:06:01 26.8 C 9.16 g/m*3 26.8 C 0 km/h
3180 09-06-2010 12:18:01 26.1 C 8.57 g/m*3 26.1 C 0 km/h
3181 09-06-2010 12:30:01 26.3 C 8.91 g/m*3 26.3 C 0 km/h
3182 09-06-2010 12:42:02 26.7 C 9.11 g/m*3 26.7 C 0 km/h
3183 09-06-2010 12:54:02 26.1 C 8.81 g/m*3 26.1 C 0 km/h
3184 09-06-2010 13:06:02 26.3 C 8.66 g/m*3 26.3 C 0 km/h
3185 09-06-2010 13:18:02 26.6 C 9.06 g/m*3 26.6 C 0 km/h
3186 09-06-2010 13:30:02 26.3 C 8.91 g/m*3 26.3 C 0 km/h
3187 09-06-2010 13:42:02 26.9 C 9.47 g/m*3 26.9 C 0 km/h
3188 09-06-2010 13:54:02 27.5 C 8.73 g/m*3 27.5 C 0 km/h
3189 09-06-2010 14:06:02 27.9 C 8.92 g/m*3 27.9 C 0 km/h
3190 09-06-2010 14:18:02 28.4 C 9.45 g/m*3 28.4 C 0 km/h
3191 09-06-2010 14:30:02 29.1 C 9.24 g/m*3 29.1 C 0 km/h
3192 09-06-2010 14:42:02 29.1 C 8.95 g/m*3 29.1 C 0 km/h
3193 09-06-2010 14:54:02 29.2 C 9 g/m*3 29.2 C 0 km/h
3194 09-06-2010 15:06:02 28.6 C 8.71 g/m*3 28.6 C 0 km/h
3195 09-06-2010 15:18:03 29.7 C 8.95 g/m*3 29.7 C 0 km/h
3196 09-06-2010 15:30:03 30 C 7.88 g/m*3 30 C 0 km/h
3197 09-06-2010 15:42:02 29.7 C 7.76 g/m*3 29.7 C 0 km/h
3198 09-06-2010 15:54:02 29.7 C 7.46 g/m*3 29.7 C 0 km/h
3199 09-06-2010 16:06:02 29.8 C 7.5 g/m*3 29.8 C 0 km/h
3200 09-06-2010 16:18:02 29.3 C 7.59 g/m*3 29.3 C 0 km/h
Sensor: Nr:Datum:Temp:Abs-Feuchte:Windchill:Wind:
Aussen-T/F 3201 09-06-2010 16:30:02 29 C 7.18 g/m*3 29 C 0 km/h
3202 09-06-2010 16:42:02 29.2 C 7.26 g/m*3 29.2 C 0 km/h
3203 09-06-2010 16:54:02 29.4 C 8.22 g/m*3 29.4 C 0 km/h
3204 09-06-2010 17:06:02 28.7 C 9.04 g/m*3 28.7 C 0 km/h
3205 09-06-2010 17:18:03 28.4 C 8.62 g/m*3 28.4 C 0 km/h
3206 09-06-2010 17:30:03 27.7 C 9.36 g/m*3 27.7 C 0 km/h
3207 09-06-2010 17:42:01 27.3 C 9.16 g/m*3 27.3 C 0 km/h
3208 09-06-2010 17:54:02 27.2 C 9.63 g/m*3 27.2 C 0 km/h
3209 09-06-2010 18:06:01 27 C 9.26 g/m*3 27 C 0 km/h
3210 09-06-2010 18:18:02 27 C 9.01 g/m*3 27 C 0 km/h
3211 09-06-2010 18:30:03 26.9 C 9.47 g/m*3 26.9 C 0 km/h
3212 09-06-2010 18:42:01 26.3 C 8.91 g/m*3 26.3 C 0 km/h
3213 09-06-2010 18:54:02 26.3 C 9.65 g/m*3 26.3 C 0 km/h
3214 09-06-2010 19:06:02 26.6 C 9.57 g/m*3 26.6 C 0 km/h
3215 09-06-2010 19:18:02 26.5 C 10.01 g/m*3 26.5 C 0 km/h
3216 09-06-2010 19:30:02 26.2 C 9.6 g/m*3 26.2 C 0 km/h
3217 09-06-2010 19:42:03 25.9 C 9.68 g/m*3 25.9 C 0 km/h
3218 09-06-2010 19:54:02 25.6 C 9.76 g/m*3 25.6 C 0 km/h
3219 09-06-2010 20:06:01 25.3 C 9.6 g/m*3 25.3 C 0 km/h
3220 09-06-2010 20:18:02 25.3 C 9.83 g/m*3 25.3 C 0 km/h
3221 09-06-2010 20:30:02 24.8 C 9.56 g/m*3 24.8 C 0 km/h
3222 09-06-2010 20:42:02 24.4 C 9.12 g/m*3 24.4 C 0 km/h
3223 09-06-2010 20:54:02 24.1 C 8.97 g/m*3 24.1 C 0 km/h
3224 09-06-2010 21:06:03 23.8 C 9.25 g/m*3 23.8 C 0 km/h
3225 09-06-2010 21:18:02 23.6 C 8.93 g/m*3 23.6 C 0 km/h
Sensor: Nr:Datum:Temp:Abs-Feuchte:Windchill:Wind:
Aussen-T/F 3226 09-06-2010 21:30:02 23.3 C 9.2 g/m*3 23.3 C 0 km/h
3227 09-06-2010 21:42:02 23.2 C 9.15 g/m*3 23.2 C 0 km/h
3228 09-06-2010 21:54:01 23.1 C 9.51